<?xml version="1.0" encoding="UTF-8"?>
<gpx version="1.1" creator="https://www.youtrack.es" xsi:schemaLocation="http://www.topografix.com/GPX/1/1 http://www.topografix.com/GPX/1/1/gpx.xsd http://www.garmin.com/xmlschemas/GpxExtensions/v3 http://www.garmin.com/xmlschemas/GpxExtensionsv3.xsd http://www.garmin.com/xmlschemas/TrackPointExtension/v1 http://www.garmin.com/xmlschemas/TrackPointExtensionv1.xsd" xmlns:gpxtpx="http://www.garmin.com/xmlschemas/TrackPointExtension/v1" xmlns:gpxx="http://www.garmin.com/xmlschemas/GpxExtensions/v3" xmlns:xsi="http://www.w3.org/2001/XMLSchema-instance">
  <metadata>
    <link href="https://www.youtrack.es">
      <text>YouTrack.es</text>
    </link>
    <time>2026-05-08T21:17:12Z</time>
  </metadata>
  <trk>
    <src>https://www.youtrack.es</src>
    <link href="https://www.youtrack.es/ruta/18809-15-01-21-curubital-completo">
      <text>YouTrack.es</text>
    </link>
    <trkseg>
      <trkpt lat="4.698286" lon="-74.23543">
        <ele>2516.644</ele>
        <time>2021-01-15T11:12:27Z</time>
      </trkpt>
      <trkpt lat="4.6985307" lon="-74.23563">
        <ele>2517.197</ele>
        <time>2021-01-15T11:14:06Z</time>
      </trkpt>
      <trkpt lat="4.6988115" lon="-74.23605">
        <ele>2516.956</ele>
        <time>2021-01-15T11:14:17Z</time>
      </trkpt>
      <trkpt lat="4.698983" lon="-74.23633">
        <ele>2516.858</ele>
        <time>2021-01-15T11:14:22Z</time>
      </trkpt>
      <trkpt lat="4.699153" lon="-74.23662">
        <ele>2516.216</ele>
        <time>2021-01-15T11:14:27Z</time>
      </trkpt>
      <trkpt lat="4.699322" lon="-74.23691">
        <ele>2516.208</ele>
        <time>2021-01-15T11:14:32Z</time>
      </trkpt>
      <trkpt lat="4.699405" lon="-74.23718">
        <ele>2515.865</ele>
        <time>2021-01-15T11:14:37Z</time>
      </trkpt>
      <trkpt lat="4.6994133" lon="-74.237335">
        <ele>2516.071</ele>
        <time>2021-01-15T11:14:42Z</time>
      </trkpt>
      <trkpt lat="4.6994514" lon="-74.23747">
        <ele>2515.815</ele>
        <time>2021-01-15T11:14:47Z</time>
      </trkpt>
      <trkpt lat="4.699517" lon="-74.23756">
        <ele>2517.553</ele>
        <time>2021-01-15T11:14:52Z</time>
      </trkpt>
      <trkpt lat="4.6995974" lon="-74.23763">
        <ele>2518.512</ele>
        <time>2021-01-15T11:14:57Z</time>
      </trkpt>
      <trkpt lat="4.6996603" lon="-74.23768">
        <ele>2518.269</ele>
        <time>2021-01-15T11:15:02Z</time>
      </trkpt>
      <trkpt lat="4.6997504" lon="-74.23769">
        <ele>2517.638</ele>
        <time>2021-01-15T11:15:07Z</time>
      </trkpt>
      <trkpt lat="4.6998286" lon="-74.23772">
        <ele>2518.169</ele>
        <time>2021-01-15T11:15:12Z</time>
      </trkpt>
      <trkpt lat="4.6997895" lon="-74.23781">
        <ele>2518.494</ele>
        <time>2021-01-15T11:15:17Z</time>
      </trkpt>
      <trkpt lat="4.699728" lon="-74.23789">
        <ele>2519.334</ele>
        <time>2021-01-15T11:15:22Z</time>
      </trkpt>
      <trkpt lat="4.6995926" lon="-74.238075">
        <ele>2518.499</ele>
        <time>2021-01-15T11:15:31Z</time>
      </trkpt>
      <trkpt lat="4.699504" lon="-74.23818">
        <ele>2518.727</ele>
        <time>2021-01-15T11:15:36Z</time>
      </trkpt>
      <trkpt lat="4.699416" lon="-74.2383">
        <ele>2518.893</ele>
        <time>2021-01-15T11:15:41Z</time>
      </trkpt>
      <trkpt lat="4.6993246" lon="-74.2384">
        <ele>2518.605</ele>
        <time>2021-01-15T11:15:46Z</time>
      </trkpt>
      <trkpt lat="4.699235" lon="-74.23852">
        <ele>2518.684</ele>
        <time>2021-01-15T11:15:51Z</time>
      </trkpt>
      <trkpt lat="4.69914" lon="-74.23865">
        <ele>2518.848</ele>
        <time>2021-01-15T11:15:56Z</time>
      </trkpt>
      <trkpt lat="4.699045" lon="-74.23877">
        <ele>2518.473</ele>
        <time>2021-01-15T11:16:01Z</time>
      </trkpt>
      <trkpt lat="4.698948" lon="-74.2389">
        <ele>2518.296</ele>
        <time>2021-01-15T11:16:06Z</time>
      </trkpt>
      <trkpt lat="4.698851" lon="-74.23902">
        <ele>2518.629</ele>
        <time>2021-01-15T11:16:11Z</time>
      </trkpt>
      <trkpt lat="4.6987586" lon="-74.23914">
        <ele>2518.333</ele>
        <time>2021-01-15T11:16:16Z</time>
      </trkpt>
      <trkpt lat="4.6986623" lon="-74.23926">
        <ele>2518.811</ele>
        <time>2021-01-15T11:16:21Z</time>
      </trkpt>
      <trkpt lat="4.6985645" lon="-74.23938">
        <ele>2518.613</ele>
        <time>2021-01-15T11:16:26Z</time>
      </trkpt>
      <trkpt lat="4.698467" lon="-74.2395">
        <ele>2518.264</ele>
        <time>2021-01-15T11:16:31Z</time>
      </trkpt>
      <trkpt lat="4.6983604" lon="-74.239624">
        <ele>2518.769</ele>
        <time>2021-01-15T11:16:36Z</time>
      </trkpt>
      <trkpt lat="4.6982527" lon="-74.23976">
        <ele>2518.203</ele>
        <time>2021-01-15T11:16:41Z</time>
      </trkpt>
      <trkpt lat="4.6981483" lon="-74.23989">
        <ele>2518.021</ele>
        <time>2021-01-15T11:16:46Z</time>
      </trkpt>
      <trkpt lat="4.698041" lon="-74.24003">
        <ele>2518.568</ele>
        <time>2021-01-15T11:16:51Z</time>
      </trkpt>
      <trkpt lat="4.697933" lon="-74.240166">
        <ele>2518.01</ele>
        <time>2021-01-15T11:16:56Z</time>
      </trkpt>
      <trkpt lat="4.697827" lon="-74.240295">
        <ele>2518.198</ele>
        <time>2021-01-15T11:17:01Z</time>
      </trkpt>
      <trkpt lat="4.697723" lon="-74.240425">
        <ele>2518.169</ele>
        <time>2021-01-15T11:17:06Z</time>
      </trkpt>
      <trkpt lat="4.69761" lon="-74.24057">
        <ele>2517.995</ele>
        <time>2021-01-15T11:17:11Z</time>
      </trkpt>
      <trkpt lat="4.6974893" lon="-74.24072">
        <ele>2518.14</ele>
        <time>2021-01-15T11:17:16Z</time>
      </trkpt>
      <trkpt lat="4.6973624" lon="-74.24089">
        <ele>2518.351</ele>
        <time>2021-01-15T11:17:21Z</time>
      </trkpt>
      <trkpt lat="4.697227" lon="-74.241066">
        <ele>2518.579</ele>
        <time>2021-01-15T11:17:26Z</time>
      </trkpt>
      <trkpt lat="4.697083" lon="-74.24124">
        <ele>2518.055</ele>
        <time>2021-01-15T11:17:31Z</time>
      </trkpt>
      <trkpt lat="4.6969357" lon="-74.24143">
        <ele>2518.365</ele>
        <time>2021-01-15T11:17:36Z</time>
      </trkpt>
      <trkpt lat="4.696783" lon="-74.24162">
        <ele>2518.179</ele>
        <time>2021-01-15T11:17:41Z</time>
      </trkpt>
      <trkpt lat="4.6966224" lon="-74.24183">
        <ele>2518.008</ele>
        <time>2021-01-15T11:17:46Z</time>
      </trkpt>
      <trkpt lat="4.696462" lon="-74.24203">
        <ele>2517.913</ele>
        <time>2021-01-15T11:17:51Z</time>
      </trkpt>
      <trkpt lat="4.696307" lon="-74.24222">
        <ele>2517.812</ele>
        <time>2021-01-15T11:17:56Z</time>
      </trkpt>
      <trkpt lat="4.6961517" lon="-74.24242">
        <ele>2518.058</ele>
        <time>2021-01-15T11:18:01Z</time>
      </trkpt>
      <trkpt lat="4.6959906" lon="-74.242615">
        <ele>2518.037</ele>
        <time>2021-01-15T11:18:06Z</time>
      </trkpt>
      <trkpt lat="4.6958284" lon="-74.24283">
        <ele>2517.984</ele>
        <time>2021-01-15T11:18:11Z</time>
      </trkpt>
      <trkpt lat="4.695657" lon="-74.24304">
        <ele>2518.272</ele>
        <time>2021-01-15T11:18:16Z</time>
      </trkpt>
      <trkpt lat="4.695449" lon="-74.24329">
        <ele>2518.137</ele>
        <time>2021-01-15T11:18:22Z</time>
      </trkpt>
      <trkpt lat="4.695265" lon="-74.24349">
        <ele>2518.61</ele>
        <time>2021-01-15T11:18:27Z</time>
      </trkpt>
      <trkpt lat="4.695103" lon="-74.24366">
        <ele>2518.917</ele>
        <time>2021-01-15T11:18:32Z</time>
      </trkpt>
      <trkpt lat="4.694939" lon="-74.24382">
        <ele>2520.037</ele>
        <time>2021-01-15T11:18:37Z</time>
      </trkpt>
      <trkpt lat="4.694768" lon="-74.24396">
        <ele>2520.129</ele>
        <time>2021-01-15T11:18:42Z</time>
      </trkpt>
      <trkpt lat="4.6946154" lon="-74.244095">
        <ele>2520.455</ele>
        <time>2021-01-15T11:18:47Z</time>
      </trkpt>
      <trkpt lat="4.694469" lon="-74.244255">
        <ele>2520.682</ele>
        <time>2021-01-15T11:18:52Z</time>
      </trkpt>
      <trkpt lat="4.6943197" lon="-74.2444">
        <ele>2521.567</ele>
        <time>2021-01-15T11:18:57Z</time>
      </trkpt>
      <trkpt lat="4.6941605" lon="-74.244545">
        <ele>2521.287</ele>
        <time>2021-01-15T11:19:02Z</time>
      </trkpt>
      <trkpt lat="4.694003" lon="-74.24469">
        <ele>2521.44</ele>
        <time>2021-01-15T11:19:07Z</time>
      </trkpt>
      <trkpt lat="4.6938753" lon="-74.24482">
        <ele>2521.929</ele>
        <time>2021-01-15T11:19:12Z</time>
      </trkpt>
      <trkpt lat="4.6937695" lon="-74.2449">
        <ele>2521.797</ele>
        <time>2021-01-15T11:19:17Z</time>
      </trkpt>
      <trkpt lat="4.6937203" lon="-74.24495">
        <ele>2521.673</ele>
        <time>2021-01-15T11:19:22Z</time>
      </trkpt>
      <trkpt lat="4.693255" lon="-74.2454">
        <ele>2521.699</ele>
        <time>2021-01-15T11:22:50Z</time>
      </trkpt>
      <trkpt lat="4.6930013" lon="-74.24564">
        <ele>2523.477</ele>
        <time>2021-01-15T11:22:59Z</time>
      </trkpt>
      <trkpt lat="4.692832" lon="-74.24581">
        <ele>2521.876</ele>
        <time>2021-01-15T11:23:04Z</time>
      </trkpt>
      <trkpt lat="4.6926675" lon="-74.24597">
        <ele>2520.716</ele>
        <time>2021-01-15T11:23:09Z</time>
      </trkpt>
      <trkpt lat="4.692496" lon="-74.24614">
        <ele>2521.34</ele>
        <time>2021-01-15T11:23:14Z</time>
      </trkpt>
      <trkpt lat="4.692261" lon="-74.246346">
        <ele>2519.548</ele>
        <time>2021-01-15T11:23:20Z</time>
      </trkpt>
      <trkpt lat="4.692055" lon="-74.24653">
        <ele>2521.009</ele>
        <time>2021-01-15T11:23:25Z</time>
      </trkpt>
      <trkpt lat="4.691723" lon="-74.24685">
        <ele>2521.649</ele>
        <time>2021-01-15T11:23:34Z</time>
      </trkpt>
      <trkpt lat="4.691543" lon="-74.247025">
        <ele>2520.69</ele>
        <time>2021-01-15T11:23:39Z</time>
      </trkpt>
      <trkpt lat="4.6913753" lon="-74.247185">
        <ele>2520.626</ele>
        <time>2021-01-15T11:23:44Z</time>
      </trkpt>
      <trkpt lat="4.691221" lon="-74.24733">
        <ele>2521.2</ele>
        <time>2021-01-15T11:23:49Z</time>
      </trkpt>
      <trkpt lat="4.6910534" lon="-74.24748">
        <ele>2521.149</ele>
        <time>2021-01-15T11:23:54Z</time>
      </trkpt>
      <trkpt lat="4.6908817" lon="-74.24765">
        <ele>2521.68</ele>
        <time>2021-01-15T11:23:59Z</time>
      </trkpt>
      <trkpt lat="4.690699" lon="-74.24781">
        <ele>2521.316</ele>
        <time>2021-01-15T11:24:04Z</time>
      </trkpt>
      <trkpt lat="4.690517" lon="-74.24796">
        <ele>2521.496</ele>
        <time>2021-01-15T11:24:09Z</time>
      </trkpt>
      <trkpt lat="4.6903453" lon="-74.2481">
        <ele>2521.208</ele>
        <time>2021-01-15T11:24:14Z</time>
      </trkpt>
      <trkpt lat="4.690168" lon="-74.248215">
        <ele>2522.177</ele>
        <time>2021-01-15T11:24:19Z</time>
      </trkpt>
      <trkpt lat="4.6899796" lon="-74.24834">
        <ele>2521.802</ele>
        <time>2021-01-15T11:24:24Z</time>
      </trkpt>
      <trkpt lat="4.6897645" lon="-74.248436">
        <ele>2521.955</ele>
        <time>2021-01-15T11:24:29Z</time>
      </trkpt>
      <trkpt lat="4.6893578" lon="-74.24865">
        <ele>2521.969</ele>
        <time>2021-01-15T11:24:38Z</time>
      </trkpt>
      <trkpt lat="4.6891317" lon="-74.24875">
        <ele>2522.101</ele>
        <time>2021-01-15T11:24:43Z</time>
      </trkpt>
      <trkpt lat="4.6887727" lon="-74.24894">
        <ele>2521.884</ele>
        <time>2021-01-15T11:24:51Z</time>
      </trkpt>
      <trkpt lat="4.6885552" lon="-74.24908">
        <ele>2522.378</ele>
        <time>2021-01-15T11:24:56Z</time>
      </trkpt>
      <trkpt lat="4.6883564" lon="-74.24922">
        <ele>2522.315</ele>
        <time>2021-01-15T11:25:01Z</time>
      </trkpt>
      <trkpt lat="4.68819" lon="-74.24937">
        <ele>2522.423</ele>
        <time>2021-01-15T11:25:06Z</time>
      </trkpt>
      <trkpt lat="4.6880393" lon="-74.24952">
        <ele>2522.508</ele>
        <time>2021-01-15T11:25:11Z</time>
      </trkpt>
      <trkpt lat="4.687893" lon="-74.24967">
        <ele>2522.991</ele>
        <time>2021-01-15T11:25:16Z</time>
      </trkpt>
      <trkpt lat="4.687745" lon="-74.24983">
        <ele>2523.197</ele>
        <time>2021-01-15T11:25:21Z</time>
      </trkpt>
      <trkpt lat="4.687649" lon="-74.249954">
        <ele>2522.497</ele>
        <time>2021-01-15T11:25:26Z</time>
      </trkpt>
      <trkpt lat="4.687622" lon="-74.250015">
        <ele>2521.046</ele>
        <time>2021-01-15T11:25:31Z</time>
      </trkpt>
      <trkpt lat="4.687583" lon="-74.25018">
        <ele>2522.521</ele>
        <time>2021-01-15T11:25:53Z</time>
      </trkpt>
      <trkpt lat="4.6874313" lon="-74.25034">
        <ele>2521.969</ele>
        <time>2021-01-15T11:26:00Z</time>
      </trkpt>
      <trkpt lat="4.687286" lon="-74.250496">
        <ele>2522.212</ele>
        <time>2021-01-15T11:26:06Z</time>
      </trkpt>
      <trkpt lat="4.6871567" lon="-74.25064">
        <ele>2522.095</ele>
        <time>2021-01-15T11:26:11Z</time>
      </trkpt>
      <trkpt lat="4.6870127" lon="-74.250786">
        <ele>2521.279</ele>
        <time>2021-01-15T11:26:16Z</time>
      </trkpt>
      <trkpt lat="4.686862" lon="-74.250946">
        <ele>2521.506</ele>
        <time>2021-01-15T11:26:21Z</time>
      </trkpt>
      <trkpt lat="4.6867013" lon="-74.25112">
        <ele>2521.231</ele>
        <time>2021-01-15T11:26:26Z</time>
      </trkpt>
      <trkpt lat="4.686532" lon="-74.251305">
        <ele>2520.885</ele>
        <time>2021-01-15T11:26:31Z</time>
      </trkpt>
      <trkpt lat="4.686355" lon="-74.25149">
        <ele>2520.946</ele>
        <time>2021-01-15T11:26:36Z</time>
      </trkpt>
      <trkpt lat="4.6861825" lon="-74.25167">
        <ele>2520.103</ele>
        <time>2021-01-15T11:26:41Z</time>
      </trkpt>
      <trkpt lat="4.6860275" lon="-74.25185">
        <ele>2519.699</ele>
        <time>2021-01-15T11:26:46Z</time>
      </trkpt>
      <trkpt lat="4.685856" lon="-74.25202">
        <ele>2518.845</ele>
        <time>2021-01-15T11:26:51Z</time>
      </trkpt>
      <trkpt lat="4.685692" lon="-74.252205">
        <ele>2519.189</ele>
        <time>2021-01-15T11:26:56Z</time>
      </trkpt>
      <trkpt lat="4.685523" lon="-74.252396">
        <ele>2519.017</ele>
        <time>2021-01-15T11:27:01Z</time>
      </trkpt>
      <trkpt lat="4.685346" lon="-74.25258">
        <ele>2516.261</ele>
        <time>2021-01-15T11:27:06Z</time>
      </trkpt>
      <trkpt lat="4.6851616" lon="-74.25277">
        <ele>2518.087</ele>
        <time>2021-01-15T11:27:11Z</time>
      </trkpt>
      <trkpt lat="4.6849637" lon="-74.25297">
        <ele>2517.915</ele>
        <time>2021-01-15T11:27:16Z</time>
      </trkpt>
      <trkpt lat="4.684748" lon="-74.25318">
        <ele>2517.738</ele>
        <time>2021-01-15T11:27:21Z</time>
      </trkpt>
      <trkpt lat="4.684533" lon="-74.25341">
        <ele>2517.205</ele>
        <time>2021-01-15T11:27:26Z</time>
      </trkpt>
      <trkpt lat="4.6843176" lon="-74.25364">
        <ele>2516.943</ele>
        <time>2021-01-15T11:27:31Z</time>
      </trkpt>
      <trkpt lat="4.68411" lon="-74.25386">
        <ele>2517.21</ele>
        <time>2021-01-15T11:27:36Z</time>
      </trkpt>
      <trkpt lat="4.6839166" lon="-74.25408">
        <ele>2517.511</ele>
        <time>2021-01-15T11:27:41Z</time>
      </trkpt>
      <trkpt lat="4.6837225" lon="-74.25428">
        <ele>2518.251</ele>
        <time>2021-01-15T11:27:46Z</time>
      </trkpt>
      <trkpt lat="4.6835327" lon="-74.25448">
        <ele>2518.394</ele>
        <time>2021-01-15T11:27:51Z</time>
      </trkpt>
      <trkpt lat="4.68335" lon="-74.254684">
        <ele>2518.737</ele>
        <time>2021-01-15T11:27:56Z</time>
      </trkpt>
      <trkpt lat="4.683162" lon="-74.25489">
        <ele>2519.318</ele>
        <time>2021-01-15T11:28:01Z</time>
      </trkpt>
      <trkpt lat="4.6829796" lon="-74.25507">
        <ele>2520.048</ele>
        <time>2021-01-15T11:28:06Z</time>
      </trkpt>
      <trkpt lat="4.6828" lon="-74.25526">
        <ele>2520.415</ele>
        <time>2021-01-15T11:28:11Z</time>
      </trkpt>
      <trkpt lat="4.6826205" lon="-74.25543">
        <ele>2520.996</ele>
        <time>2021-01-15T11:28:16Z</time>
      </trkpt>
      <trkpt lat="4.6824026" lon="-74.25563">
        <ele>2521.752</ele>
        <time>2021-01-15T11:28:22Z</time>
      </trkpt>
      <trkpt lat="4.682214" lon="-74.25579">
        <ele>2522.367</ele>
        <time>2021-01-15T11:28:27Z</time>
      </trkpt>
      <trkpt lat="4.68202" lon="-74.25595">
        <ele>2522.722</ele>
        <time>2021-01-15T11:28:32Z</time>
      </trkpt>
      <trkpt lat="4.6818132" lon="-74.256096">
        <ele>2523.406</ele>
        <time>2021-01-15T11:28:37Z</time>
      </trkpt>
      <trkpt lat="4.681596" lon="-74.256226">
        <ele>2523.414</ele>
        <time>2021-01-15T11:28:42Z</time>
      </trkpt>
      <trkpt lat="4.681378" lon="-74.256355">
        <ele>2523.731</ele>
        <time>2021-01-15T11:28:47Z</time>
      </trkpt>
      <trkpt lat="4.6811543" lon="-74.256485">
        <ele>2523.847</ele>
        <time>2021-01-15T11:28:52Z</time>
      </trkpt>
      <trkpt lat="4.680924" lon="-74.2566">
        <ele>2523.594</ele>
        <time>2021-01-15T11:28:57Z</time>
      </trkpt>
      <trkpt lat="4.680674" lon="-74.256714">
        <ele>2523.794</ele>
        <time>2021-01-15T11:29:02Z</time>
      </trkpt>
      <trkpt lat="4.6804147" lon="-74.25681">
        <ele>2522.88</ele>
        <time>2021-01-15T11:29:07Z</time>
      </trkpt>
      <trkpt lat="4.680141" lon="-74.25693">
        <ele>2522.695</ele>
        <time>2021-01-15T11:29:12Z</time>
      </trkpt>
      <trkpt lat="4.6798644" lon="-74.257034">
        <ele>2521.58</ele>
        <time>2021-01-15T11:29:17Z</time>
      </trkpt>
      <trkpt lat="4.6795607" lon="-74.25716">
        <ele>2521.242</ele>
        <time>2021-01-15T11:29:22Z</time>
      </trkpt>
      <trkpt lat="4.6792417" lon="-74.25728">
        <ele>2520.436</ele>
        <time>2021-01-15T11:29:27Z</time>
      </trkpt>
      <trkpt lat="4.678932" lon="-74.2574">
        <ele>2519.775</ele>
        <time>2021-01-15T11:29:32Z</time>
      </trkpt>
      <trkpt lat="4.6786327" lon="-74.257515">
        <ele>2520.402</ele>
        <time>2021-01-15T11:29:37Z</time>
      </trkpt>
      <trkpt lat="4.6783476" lon="-74.25762">
        <ele>2519.21</ele>
        <time>2021-01-15T11:29:42Z</time>
      </trkpt>
      <trkpt lat="4.6781054" lon="-74.25773">
        <ele>2519.178</ele>
        <time>2021-01-15T11:29:47Z</time>
      </trkpt>
      <trkpt lat="4.67791" lon="-74.25781">
        <ele>2518.906</ele>
        <time>2021-01-15T11:29:52Z</time>
      </trkpt>
      <trkpt lat="4.677819" lon="-74.257866">
        <ele>2518.354</ele>
        <time>2021-01-15T11:29:57Z</time>
      </trkpt>
      <trkpt lat="4.677733" lon="-74.25797">
        <ele>2518.948</ele>
        <time>2021-01-15T11:30:07Z</time>
      </trkpt>
      <trkpt lat="4.67759" lon="-74.258">
        <ele>2519.247</ele>
        <time>2021-01-15T11:30:12Z</time>
      </trkpt>
      <trkpt lat="4.6773953" lon="-74.258064">
        <ele>2519.717</ele>
        <time>2021-01-15T11:30:17Z</time>
      </trkpt>
      <trkpt lat="4.677037" lon="-74.25816">
        <ele>2519.916</ele>
        <time>2021-01-15T11:30:25Z</time>
      </trkpt>
      <trkpt lat="4.6768007" lon="-74.25824">
        <ele>2520.764</ele>
        <time>2021-01-15T11:30:30Z</time>
      </trkpt>
      <trkpt lat="4.6765566" lon="-74.25832">
        <ele>2520.489</ele>
        <time>2021-01-15T11:30:35Z</time>
      </trkpt>
      <trkpt lat="4.6762915" lon="-74.258415">
        <ele>2520.378</ele>
        <time>2021-01-15T11:30:40Z</time>
      </trkpt>
      <trkpt lat="4.676019" lon="-74.25851">
        <ele>2520.238</ele>
        <time>2021-01-15T11:30:45Z</time>
      </trkpt>
      <trkpt lat="4.6757407" lon="-74.25858">
        <ele>2521.34</ele>
        <time>2021-01-15T11:30:50Z</time>
      </trkpt>
      <trkpt lat="4.675457" lon="-74.25867">
        <ele>2520.518</ele>
        <time>2021-01-15T11:30:55Z</time>
      </trkpt>
      <trkpt lat="4.67522" lon="-74.258736">
        <ele>2521.53</ele>
        <time>2021-01-15T11:31:00Z</time>
      </trkpt>
      <trkpt lat="4.674977" lon="-74.25885">
        <ele>2522.87</ele>
        <time>2021-01-15T11:31:05Z</time>
      </trkpt>
      <trkpt lat="4.6747975" lon="-74.259">
        <ele>2523.488</ele>
        <time>2021-01-15T11:31:10Z</time>
      </trkpt>
      <trkpt lat="4.674656" lon="-74.25917">
        <ele>2525.092</ele>
        <time>2021-01-15T11:31:15Z</time>
      </trkpt>
      <trkpt lat="4.6744695" lon="-74.25938">
        <ele>2526.204</ele>
        <time>2021-01-15T11:31:22Z</time>
      </trkpt>
      <trkpt lat="4.6743426" lon="-74.25952">
        <ele>2526.5</ele>
        <time>2021-01-15T11:31:27Z</time>
      </trkpt>
      <trkpt lat="4.6742215" lon="-74.25965">
        <ele>2527.792</ele>
        <time>2021-01-15T11:31:32Z</time>
      </trkpt>
      <trkpt lat="4.6741056" lon="-74.25978">
        <ele>2529.576</ele>
        <time>2021-01-15T11:31:37Z</time>
      </trkpt>
      <trkpt lat="4.673992" lon="-74.25992">
        <ele>2531.092</ele>
        <time>2021-01-15T11:31:42Z</time>
      </trkpt>
      <trkpt lat="4.673871" lon="-74.26005">
        <ele>2531.787</ele>
        <time>2021-01-15T11:31:47Z</time>
      </trkpt>
      <trkpt lat="4.6737394" lon="-74.26017">
        <ele>2533.238</ele>
        <time>2021-01-15T11:31:52Z</time>
      </trkpt>
      <trkpt lat="4.673602" lon="-74.2603">
        <ele>2534.546</ele>
        <time>2021-01-15T11:31:57Z</time>
      </trkpt>
      <trkpt lat="4.6734557" lon="-74.26043">
        <ele>2535.563</ele>
        <time>2021-01-15T11:32:02Z</time>
      </trkpt>
      <trkpt lat="4.673306" lon="-74.26055">
        <ele>2536.271</ele>
        <time>2021-01-15T11:32:07Z</time>
      </trkpt>
      <trkpt lat="4.673153" lon="-74.26068">
        <ele>2536.837</ele>
        <time>2021-01-15T11:32:12Z</time>
      </trkpt>
      <trkpt lat="4.672996" lon="-74.26081">
        <ele>2537.489</ele>
        <time>2021-01-15T11:32:17Z</time>
      </trkpt>
      <trkpt lat="4.672836" lon="-74.26094">
        <ele>2538.25</ele>
        <time>2021-01-15T11:32:22Z</time>
      </trkpt>
      <trkpt lat="4.672671" lon="-74.26108">
        <ele>2538.554</ele>
        <time>2021-01-15T11:32:27Z</time>
      </trkpt>
      <trkpt lat="4.6724973" lon="-74.261215">
        <ele>2539.297</ele>
        <time>2021-01-15T11:32:32Z</time>
      </trkpt>
      <trkpt lat="4.672339" lon="-74.261375">
        <ele>2539.989</ele>
        <time>2021-01-15T11:32:37Z</time>
      </trkpt>
      <trkpt lat="4.672222" lon="-74.26156">
        <ele>2540.522</ele>
        <time>2021-01-15T11:32:42Z</time>
      </trkpt>
      <trkpt lat="4.6721616" lon="-74.26177">
        <ele>2540.642</ele>
        <time>2021-01-15T11:32:47Z</time>
      </trkpt>
      <trkpt lat="4.6721573" lon="-74.26198">
        <ele>2542.005</ele>
        <time>2021-01-15T11:32:52Z</time>
      </trkpt>
      <trkpt lat="4.6721716" lon="-74.26218">
        <ele>2543.054</ele>
        <time>2021-01-15T11:32:57Z</time>
      </trkpt>
      <trkpt lat="4.6721873" lon="-74.262375">
        <ele>2543.49</ele>
        <time>2021-01-15T11:33:02Z</time>
      </trkpt>
      <trkpt lat="4.6722198" lon="-74.262566">
        <ele>2545.165</ele>
        <time>2021-01-15T11:33:07Z</time>
      </trkpt>
      <trkpt lat="4.6722713" lon="-74.26274">
        <ele>2546.769</ele>
        <time>2021-01-15T11:33:12Z</time>
      </trkpt>
      <trkpt lat="4.6723466" lon="-74.26291">
        <ele>2547.419</ele>
        <time>2021-01-15T11:33:17Z</time>
      </trkpt>
      <trkpt lat="4.6724324" lon="-74.26308">
        <ele>2548.573</ele>
        <time>2021-01-15T11:33:22Z</time>
      </trkpt>
      <trkpt lat="4.6725073" lon="-74.26324">
        <ele>2550.122</ele>
        <time>2021-01-15T11:33:27Z</time>
      </trkpt>
      <trkpt lat="4.672569" lon="-74.2634">
        <ele>2550.989</ele>
        <time>2021-01-15T11:33:32Z</time>
      </trkpt>
      <trkpt lat="4.672604" lon="-74.263565">
        <ele>2551.306</ele>
        <time>2021-01-15T11:33:37Z</time>
      </trkpt>
      <trkpt lat="4.6726203" lon="-74.26374">
        <ele>2552.952</ele>
        <time>2021-01-15T11:33:42Z</time>
      </trkpt>
      <trkpt lat="4.6725965" lon="-74.263916">
        <ele>2554.439</ele>
        <time>2021-01-15T11:33:47Z</time>
      </trkpt>
      <trkpt lat="4.672551" lon="-74.264084">
        <ele>2554.976</ele>
        <time>2021-01-15T11:33:52Z</time>
      </trkpt>
      <trkpt lat="4.6724935" lon="-74.26425">
        <ele>2555.657</ele>
        <time>2021-01-15T11:33:57Z</time>
      </trkpt>
      <trkpt lat="4.672434" lon="-74.26441">
        <ele>2557.211</ele>
        <time>2021-01-15T11:34:02Z</time>
      </trkpt>
      <trkpt lat="4.672372" lon="-74.264565">
        <ele>2558.543</ele>
        <time>2021-01-15T11:34:07Z</time>
      </trkpt>
      <trkpt lat="4.6723027" lon="-74.26472">
        <ele>2559.658</ele>
        <time>2021-01-15T11:34:12Z</time>
      </trkpt>
      <trkpt lat="4.6722226" lon="-74.26487">
        <ele>2560.86</ele>
        <time>2021-01-15T11:34:17Z</time>
      </trkpt>
      <trkpt lat="4.6721377" lon="-74.26502">
        <ele>2561.367</ele>
        <time>2021-01-15T11:34:22Z</time>
      </trkpt>
      <trkpt lat="4.672052" lon="-74.265175">
        <ele>2562.723</ele>
        <time>2021-01-15T11:34:27Z</time>
      </trkpt>
      <trkpt lat="4.671961" lon="-74.26532">
        <ele>2563.849</ele>
        <time>2021-01-15T11:34:32Z</time>
      </trkpt>
      <trkpt lat="4.6718774" lon="-74.265465">
        <ele>2564.874</ele>
        <time>2021-01-15T11:34:37Z</time>
      </trkpt>
      <trkpt lat="4.6717954" lon="-74.26561">
        <ele>2566.533</ele>
        <time>2021-01-15T11:34:42Z</time>
      </trkpt>
      <trkpt lat="4.6717124" lon="-74.26574">
        <ele>2567.014</ele>
        <time>2021-01-15T11:34:47Z</time>
      </trkpt>
      <trkpt lat="4.671624" lon="-74.26588">
        <ele>2568.002</ele>
        <time>2021-01-15T11:34:52Z</time>
      </trkpt>
      <trkpt lat="4.6715355" lon="-74.26599">
        <ele>2569.392</ele>
        <time>2021-01-15T11:34:57Z</time>
      </trkpt>
      <trkpt lat="4.671428" lon="-74.266106">
        <ele>2569.743</ele>
        <time>2021-01-15T11:35:02Z</time>
      </trkpt>
      <trkpt lat="4.671314" lon="-74.266205">
        <ele>2571.22</ele>
        <time>2021-01-15T11:35:07Z</time>
      </trkpt>
      <trkpt lat="4.6711907" lon="-74.2663">
        <ele>2571.984</ele>
        <time>2021-01-15T11:35:12Z</time>
      </trkpt>
      <trkpt lat="4.6710663" lon="-74.266396">
        <ele>2572.536</ele>
        <time>2021-01-15T11:35:17Z</time>
      </trkpt>
      <trkpt lat="4.6709156" lon="-74.2665">
        <ele>2573.955</ele>
        <time>2021-01-15T11:35:23Z</time>
      </trkpt>
      <trkpt lat="4.6707945" lon="-74.266594">
        <ele>2575.163</ele>
        <time>2021-01-15T11:35:28Z</time>
      </trkpt>
      <trkpt lat="4.6706676" lon="-74.26668">
        <ele>2575.892</ele>
        <time>2021-01-15T11:35:33Z</time>
      </trkpt>
      <trkpt lat="4.670532" lon="-74.26677">
        <ele>2577.234</ele>
        <time>2021-01-15T11:35:38Z</time>
      </trkpt>
      <trkpt lat="4.6703944" lon="-74.266846">
        <ele>2577.351</ele>
        <time>2021-01-15T11:35:43Z</time>
      </trkpt>
      <trkpt lat="4.670261" lon="-74.26692">
        <ele>2578.812</ele>
        <time>2021-01-15T11:35:48Z</time>
      </trkpt>
      <trkpt lat="4.6701293" lon="-74.26699">
        <ele>2579.546</ele>
        <time>2021-01-15T11:35:53Z</time>
      </trkpt>
      <trkpt lat="4.669995" lon="-74.26705">
        <ele>2580.455</ele>
        <time>2021-01-15T11:35:58Z</time>
      </trkpt>
      <trkpt lat="4.6698556" lon="-74.26711">
        <ele>2581.568</ele>
        <time>2021-01-15T11:36:03Z</time>
      </trkpt>
      <trkpt lat="4.669717" lon="-74.26717">
        <ele>2582.403</ele>
        <time>2021-01-15T11:36:08Z</time>
      </trkpt>
      <trkpt lat="4.669577" lon="-74.26723">
        <ele>2583.129</ele>
        <time>2021-01-15T11:36:13Z</time>
      </trkpt>
      <trkpt lat="4.6694393" lon="-74.26728">
        <ele>2584.117</ele>
        <time>2021-01-15T11:36:18Z</time>
      </trkpt>
      <trkpt lat="4.669301" lon="-74.26734">
        <ele>2585.452</ele>
        <time>2021-01-15T11:36:23Z</time>
      </trkpt>
      <trkpt lat="4.669164" lon="-74.267395">
        <ele>2586.311</ele>
        <time>2021-01-15T11:36:28Z</time>
      </trkpt>
      <trkpt lat="4.669027" lon="-74.267456">
        <ele>2586.683</ele>
        <time>2021-01-15T11:36:33Z</time>
      </trkpt>
      <trkpt lat="4.668891" lon="-74.26751">
        <ele>2587.846</ele>
        <time>2021-01-15T11:36:38Z</time>
      </trkpt>
      <trkpt lat="4.668756" lon="-74.26757">
        <ele>2589.339</ele>
        <time>2021-01-15T11:36:43Z</time>
      </trkpt>
      <trkpt lat="4.668618" lon="-74.26763">
        <ele>2589.539</ele>
        <time>2021-01-15T11:36:48Z</time>
      </trkpt>
      <trkpt lat="4.6684976" lon="-74.26771">
        <ele>2590.734</ele>
        <time>2021-01-15T11:36:53Z</time>
      </trkpt>
      <trkpt lat="4.668382" lon="-74.267815">
        <ele>2591.925</ele>
        <time>2021-01-15T11:36:58Z</time>
      </trkpt>
      <trkpt lat="4.66828" lon="-74.26794">
        <ele>2592.837</ele>
        <time>2021-01-15T11:37:03Z</time>
      </trkpt>
      <trkpt lat="4.6682024" lon="-74.26807">
        <ele>2593.439</ele>
        <time>2021-01-15T11:37:08Z</time>
      </trkpt>
      <trkpt lat="4.6681523" lon="-74.2682">
        <ele>2594.324</ele>
        <time>2021-01-15T11:37:13Z</time>
      </trkpt>
      <trkpt lat="4.6681237" lon="-74.26834">
        <ele>2595.381</ele>
        <time>2021-01-15T11:37:18Z</time>
      </trkpt>
      <trkpt lat="4.6681085" lon="-74.26848">
        <ele>2596.055</ele>
        <time>2021-01-15T11:37:23Z</time>
      </trkpt>
      <trkpt lat="4.6681056" lon="-74.26862">
        <ele>2597.363</ele>
        <time>2021-01-15T11:37:28Z</time>
      </trkpt>
      <trkpt lat="4.66811" lon="-74.26878">
        <ele>2598.24</ele>
        <time>2021-01-15T11:37:33Z</time>
      </trkpt>
      <trkpt lat="4.6681166" lon="-74.26894">
        <ele>2599.239</ele>
        <time>2021-01-15T11:37:38Z</time>
      </trkpt>
      <trkpt lat="4.668123" lon="-74.26912">
        <ele>2600.711</ele>
        <time>2021-01-15T11:37:43Z</time>
      </trkpt>
      <trkpt lat="4.6681333" lon="-74.26929">
        <ele>2601.747</ele>
        <time>2021-01-15T11:37:48Z</time>
      </trkpt>
      <trkpt lat="4.6681404" lon="-74.26945">
        <ele>2602.384</ele>
        <time>2021-01-15T11:37:53Z</time>
      </trkpt>
      <trkpt lat="4.6681404" lon="-74.26962">
        <ele>2603.16</ele>
        <time>2021-01-15T11:37:58Z</time>
      </trkpt>
      <trkpt lat="4.6681266" lon="-74.2698">
        <ele>2603.594</ele>
        <time>2021-01-15T11:38:03Z</time>
      </trkpt>
      <trkpt lat="4.6680923" lon="-74.27">
        <ele>2604.167</ele>
        <time>2021-01-15T11:38:08Z</time>
      </trkpt>
      <trkpt lat="4.6680317" lon="-74.270195">
        <ele>2604.09</ele>
        <time>2021-01-15T11:38:13Z</time>
      </trkpt>
      <trkpt lat="4.667955" lon="-74.27044">
        <ele>2605.287</ele>
        <time>2021-01-15T11:38:18Z</time>
      </trkpt>
      <trkpt lat="4.6678686" lon="-74.27071">
        <ele>2606.112</ele>
        <time>2021-01-15T11:38:23Z</time>
      </trkpt>
      <trkpt lat="4.667783" lon="-74.27097">
        <ele>2606.249</ele>
        <time>2021-01-15T11:38:28Z</time>
      </trkpt>
      <trkpt lat="4.667659" lon="-74.2712">
        <ele>2607.034</ele>
        <time>2021-01-15T11:38:33Z</time>
      </trkpt>
      <trkpt lat="4.6674786" lon="-74.27139">
        <ele>2607.187</ele>
        <time>2021-01-15T11:38:38Z</time>
      </trkpt>
      <trkpt lat="4.6672564" lon="-74.27154">
        <ele>2607.533</ele>
        <time>2021-01-15T11:38:43Z</time>
      </trkpt>
      <trkpt lat="4.6670337" lon="-74.27167">
        <ele>2608.35</ele>
        <time>2021-01-15T11:38:48Z</time>
      </trkpt>
      <trkpt lat="4.6668234" lon="-74.27183">
        <ele>2608.609</ele>
        <time>2021-01-15T11:38:53Z</time>
      </trkpt>
      <trkpt lat="4.666713" lon="-74.27205">
        <ele>2609.156</ele>
        <time>2021-01-15T11:38:58Z</time>
      </trkpt>
      <trkpt lat="4.6667323" lon="-74.2723">
        <ele>2610.775</ele>
        <time>2021-01-15T11:39:03Z</time>
      </trkpt>
      <trkpt lat="4.666802" lon="-74.272545">
        <ele>2611.264</ele>
        <time>2021-01-15T11:39:08Z</time>
      </trkpt>
      <trkpt lat="4.666865" lon="-74.27282">
        <ele>2613.827</ele>
        <time>2021-01-15T11:39:13Z</time>
      </trkpt>
      <trkpt lat="4.6669884" lon="-74.273224">
        <ele>2615.822</ele>
        <time>2021-01-15T11:39:21Z</time>
      </trkpt>
      <trkpt lat="4.667033" lon="-74.27344">
        <ele>2616.691</ele>
        <time>2021-01-15T11:39:26Z</time>
      </trkpt>
      <trkpt lat="4.667036" lon="-74.27362">
        <ele>2617.801</ele>
        <time>2021-01-15T11:39:31Z</time>
      </trkpt>
      <trkpt lat="4.667002" lon="-74.27378">
        <ele>2618.488</ele>
        <time>2021-01-15T11:39:36Z</time>
      </trkpt>
      <trkpt lat="4.6669545" lon="-74.27393">
        <ele>2619.838</ele>
        <time>2021-01-15T11:39:41Z</time>
      </trkpt>
      <trkpt lat="4.666903" lon="-74.27408">
        <ele>2620.229</ele>
        <time>2021-01-15T11:39:46Z</time>
      </trkpt>
      <trkpt lat="4.6668553" lon="-74.274216">
        <ele>2620.898</ele>
        <time>2021-01-15T11:39:51Z</time>
      </trkpt>
      <trkpt lat="4.6668115" lon="-74.274345">
        <ele>2621.968</ele>
        <time>2021-01-15T11:39:56Z</time>
      </trkpt>
      <trkpt lat="4.6667633" lon="-74.274475">
        <ele>2623.279</ele>
        <time>2021-01-15T11:40:01Z</time>
      </trkpt>
      <trkpt lat="4.6667128" lon="-74.274605">
        <ele>2624.24</ele>
        <time>2021-01-15T11:40:06Z</time>
      </trkpt>
      <trkpt lat="4.6666617" lon="-74.274734">
        <ele>2624.975</ele>
        <time>2021-01-15T11:40:11Z</time>
      </trkpt>
      <trkpt lat="4.6666007" lon="-74.274864">
        <ele>2626.127</ele>
        <time>2021-01-15T11:40:16Z</time>
      </trkpt>
      <trkpt lat="4.666537" lon="-74.27498">
        <ele>2627.054</ele>
        <time>2021-01-15T11:40:21Z</time>
      </trkpt>
      <trkpt lat="4.6664543" lon="-74.2751">
        <ele>2628.061</ele>
        <time>2021-01-15T11:40:26Z</time>
      </trkpt>
      <trkpt lat="4.666364" lon="-74.27523">
        <ele>2628.917</ele>
        <time>2021-01-15T11:40:31Z</time>
      </trkpt>
      <trkpt lat="4.6662745" lon="-74.27535">
        <ele>2629.72</ele>
        <time>2021-01-15T11:40:36Z</time>
      </trkpt>
      <trkpt lat="4.6661882" lon="-74.27547">
        <ele>2630.637</ele>
        <time>2021-01-15T11:40:41Z</time>
      </trkpt>
      <trkpt lat="4.6661034" lon="-74.27558">
        <ele>2631.861</ele>
        <time>2021-01-15T11:40:46Z</time>
      </trkpt>
      <trkpt lat="4.666021" lon="-74.275696">
        <ele>2632.688</ele>
        <time>2021-01-15T11:40:51Z</time>
      </trkpt>
      <trkpt lat="4.665933" lon="-74.2758">
        <ele>2633.776</ele>
        <time>2021-01-15T11:40:56Z</time>
      </trkpt>
      <trkpt lat="4.6658454" lon="-74.275925">
        <ele>2634.403</ele>
        <time>2021-01-15T11:41:01Z</time>
      </trkpt>
      <trkpt lat="4.665755" lon="-74.27604">
        <ele>2635.486</ele>
        <time>2021-01-15T11:41:06Z</time>
      </trkpt>
      <trkpt lat="4.6656694" lon="-74.27615">
        <ele>2636.59</ele>
        <time>2021-01-15T11:41:11Z</time>
      </trkpt>
      <trkpt lat="4.665587" lon="-74.27627">
        <ele>2637.438</ele>
        <time>2021-01-15T11:41:16Z</time>
      </trkpt>
      <trkpt lat="4.665516" lon="-74.27638">
        <ele>2638.131</ele>
        <time>2021-01-15T11:41:21Z</time>
      </trkpt>
      <trkpt lat="4.6654525" lon="-74.27651">
        <ele>2639.211</ele>
        <time>2021-01-15T11:41:26Z</time>
      </trkpt>
      <trkpt lat="4.6654077" lon="-74.276634">
        <ele>2640.297</ele>
        <time>2021-01-15T11:41:31Z</time>
      </trkpt>
      <trkpt lat="4.6653714" lon="-74.276764">
        <ele>2641.302</ele>
        <time>2021-01-15T11:41:36Z</time>
      </trkpt>
      <trkpt lat="4.6653357" lon="-74.2769">
        <ele>2641.774</ele>
        <time>2021-01-15T11:41:41Z</time>
      </trkpt>
      <trkpt lat="4.6652994" lon="-74.27704">
        <ele>2642.876</ele>
        <time>2021-01-15T11:41:46Z</time>
      </trkpt>
      <trkpt lat="4.665262" lon="-74.27718">
        <ele>2643.835</ele>
        <time>2021-01-15T11:41:51Z</time>
      </trkpt>
      <trkpt lat="4.665216" lon="-74.27732">
        <ele>2644.742</ele>
        <time>2021-01-15T11:41:56Z</time>
      </trkpt>
      <trkpt lat="4.665172" lon="-74.27746">
        <ele>2645.426</ele>
        <time>2021-01-15T11:42:01Z</time>
      </trkpt>
      <trkpt lat="4.6651187" lon="-74.2776">
        <ele>2646.364</ele>
        <time>2021-01-15T11:42:06Z</time>
      </trkpt>
      <trkpt lat="4.6650567" lon="-74.27774">
        <ele>2647.207</ele>
        <time>2021-01-15T11:42:11Z</time>
      </trkpt>
      <trkpt lat="4.664997" lon="-74.27788">
        <ele>2647.791</ele>
        <time>2021-01-15T11:42:16Z</time>
      </trkpt>
      <trkpt lat="4.664929" lon="-74.278015">
        <ele>2649.104</ele>
        <time>2021-01-15T11:42:21Z</time>
      </trkpt>
      <trkpt lat="4.664853" lon="-74.27816">
        <ele>2649.944</ele>
        <time>2021-01-15T11:42:26Z</time>
      </trkpt>
      <trkpt lat="4.6647906" lon="-74.2783">
        <ele>2651.089</ele>
        <time>2021-01-15T11:42:31Z</time>
      </trkpt>
      <trkpt lat="4.664732" lon="-74.27842">
        <ele>2652.175</ele>
        <time>2021-01-15T11:42:36Z</time>
      </trkpt>
      <trkpt lat="4.6646686" lon="-74.27855">
        <ele>2652.695</ele>
        <time>2021-01-15T11:42:41Z</time>
      </trkpt>
      <trkpt lat="4.664613" lon="-74.27868">
        <ele>2654.111</ele>
        <time>2021-01-15T11:42:46Z</time>
      </trkpt>
      <trkpt lat="4.664558" lon="-74.27882">
        <ele>2655.422</ele>
        <time>2021-01-15T11:42:51Z</time>
      </trkpt>
      <trkpt lat="4.6645136" lon="-74.278946">
        <ele>2656.175</ele>
        <time>2021-01-15T11:42:56Z</time>
      </trkpt>
      <trkpt lat="4.6644716" lon="-74.27908">
        <ele>2657.11</ele>
        <time>2021-01-15T11:43:01Z</time>
      </trkpt>
      <trkpt lat="4.6644416" lon="-74.27922">
        <ele>2658.318</ele>
        <time>2021-01-15T11:43:06Z</time>
      </trkpt>
      <trkpt lat="4.664408" lon="-74.27936">
        <ele>2659.38</ele>
        <time>2021-01-15T11:43:11Z</time>
      </trkpt>
      <trkpt lat="4.6643786" lon="-74.279495">
        <ele>2660.123</ele>
        <time>2021-01-15T11:43:16Z</time>
      </trkpt>
      <trkpt lat="4.6643467" lon="-74.279625">
        <ele>2661.272</ele>
        <time>2021-01-15T11:43:21Z</time>
      </trkpt>
      <trkpt lat="4.664317" lon="-74.27976">
        <ele>2662.897</ele>
        <time>2021-01-15T11:43:26Z</time>
      </trkpt>
      <trkpt lat="4.6642814" lon="-74.2799">
        <ele>2663.584</ele>
        <time>2021-01-15T11:43:31Z</time>
      </trkpt>
      <trkpt lat="4.6642513" lon="-74.28003">
        <ele>2664.361</ele>
        <time>2021-01-15T11:43:36Z</time>
      </trkpt>
      <trkpt lat="4.6642203" lon="-74.28016">
        <ele>2665.507</ele>
        <time>2021-01-15T11:43:41Z</time>
      </trkpt>
      <trkpt lat="4.6641917" lon="-74.28029">
        <ele>2666.173</ele>
        <time>2021-01-15T11:43:46Z</time>
      </trkpt>
      <trkpt lat="4.664167" lon="-74.28042">
        <ele>2667.257</ele>
        <time>2021-01-15T11:43:51Z</time>
      </trkpt>
      <trkpt lat="4.6641407" lon="-74.28054">
        <ele>2668.425</ele>
        <time>2021-01-15T11:43:56Z</time>
      </trkpt>
      <trkpt lat="4.66411" lon="-74.28068">
        <ele>2669.378</ele>
        <time>2021-01-15T11:44:01Z</time>
      </trkpt>
      <trkpt lat="4.664078" lon="-74.28082">
        <ele>2670.562</ele>
        <time>2021-01-15T11:44:06Z</time>
      </trkpt>
      <trkpt lat="4.664046" lon="-74.28097">
        <ele>2671.606</ele>
        <time>2021-01-15T11:44:11Z</time>
      </trkpt>
      <trkpt lat="4.6640162" lon="-74.281105">
        <ele>2672.438</ele>
        <time>2021-01-15T11:44:16Z</time>
      </trkpt>
      <trkpt lat="4.663986" lon="-74.28125">
        <ele>2673.558</ele>
        <time>2021-01-15T11:44:21Z</time>
      </trkpt>
      <trkpt lat="4.6639566" lon="-74.28139">
        <ele>2675.091</ele>
        <time>2021-01-15T11:44:26Z</time>
      </trkpt>
      <trkpt lat="4.6639137" lon="-74.28159">
        <ele>2676.314</ele>
        <time>2021-01-15T11:44:34Z</time>
      </trkpt>
      <trkpt lat="4.663882" lon="-74.28173">
        <ele>2677.717</ele>
        <time>2021-01-15T11:44:39Z</time>
      </trkpt>
      <trkpt lat="4.663841" lon="-74.28188">
        <ele>2678.653</ele>
        <time>2021-01-15T11:44:44Z</time>
      </trkpt>
      <trkpt lat="4.6637964" lon="-74.28202">
        <ele>2679.585</ele>
        <time>2021-01-15T11:44:49Z</time>
      </trkpt>
      <trkpt lat="4.663746" lon="-74.28216">
        <ele>2680.558</ele>
        <time>2021-01-15T11:44:54Z</time>
      </trkpt>
      <trkpt lat="4.6636906" lon="-74.28229">
        <ele>2682.328</ele>
        <time>2021-01-15T11:44:59Z</time>
      </trkpt>
      <trkpt lat="4.663627" lon="-74.282425">
        <ele>2683.126</ele>
        <time>2021-01-15T11:45:04Z</time>
      </trkpt>
      <trkpt lat="4.66356" lon="-74.282555">
        <ele>2683.906</ele>
        <time>2021-01-15T11:45:09Z</time>
      </trkpt>
      <trkpt lat="4.6634974" lon="-74.282684">
        <ele>2684.926</ele>
        <time>2021-01-15T11:45:14Z</time>
      </trkpt>
      <trkpt lat="4.6634393" lon="-74.2828">
        <ele>2685.599</ele>
        <time>2021-01-15T11:45:19Z</time>
      </trkpt>
      <trkpt lat="4.6633825" lon="-74.28291">
        <ele>2686.104</ele>
        <time>2021-01-15T11:45:24Z</time>
      </trkpt>
      <trkpt lat="4.6633234" lon="-74.28303">
        <ele>2687.7</ele>
        <time>2021-01-15T11:45:29Z</time>
      </trkpt>
      <trkpt lat="4.663251" lon="-74.28317">
        <ele>2688.722</ele>
        <time>2021-01-15T11:45:34Z</time>
      </trkpt>
      <trkpt lat="4.663179" lon="-74.28332">
        <ele>2689.975</ele>
        <time>2021-01-15T11:45:39Z</time>
      </trkpt>
      <trkpt lat="4.6631074" lon="-74.28346">
        <ele>2691.021</ele>
        <time>2021-01-15T11:45:44Z</time>
      </trkpt>
      <trkpt lat="4.6630416" lon="-74.283585">
        <ele>2692.197</ele>
        <time>2021-01-15T11:45:49Z</time>
      </trkpt>
      <trkpt lat="4.662978" lon="-74.28372">
        <ele>2693.23</ele>
        <time>2021-01-15T11:45:54Z</time>
      </trkpt>
      <trkpt lat="4.662913" lon="-74.28385">
        <ele>2694.398</ele>
        <time>2021-01-15T11:45:59Z</time>
      </trkpt>
      <trkpt lat="4.662843" lon="-74.28398">
        <ele>2695.254</ele>
        <time>2021-01-15T11:46:04Z</time>
      </trkpt>
      <trkpt lat="4.66276" lon="-74.2841">
        <ele>2696.644</ele>
        <time>2021-01-15T11:46:09Z</time>
      </trkpt>
      <trkpt lat="4.6626225" lon="-74.28426">
        <ele>2696.673</ele>
        <time>2021-01-15T11:46:14Z</time>
      </trkpt>
      <trkpt lat="4.6624684" lon="-74.284424">
        <ele>2697.675</ele>
        <time>2021-01-15T11:46:19Z</time>
      </trkpt>
      <trkpt lat="4.662298" lon="-74.28458">
        <ele>2697.997</ele>
        <time>2021-01-15T11:46:24Z</time>
      </trkpt>
      <trkpt lat="4.662127" lon="-74.28469">
        <ele>2698.578</ele>
        <time>2021-01-15T11:46:29Z</time>
      </trkpt>
      <trkpt lat="4.66193" lon="-74.284775">
        <ele>2699.413</ele>
        <time>2021-01-15T11:46:34Z</time>
      </trkpt>
      <trkpt lat="4.661722" lon="-74.28482">
        <ele>2699.669</ele>
        <time>2021-01-15T11:46:39Z</time>
      </trkpt>
      <trkpt lat="4.6614957" lon="-74.28486">
        <ele>2699.294</ele>
        <time>2021-01-15T11:46:44Z</time>
      </trkpt>
      <trkpt lat="4.661285" lon="-74.2849">
        <ele>2699.448</ele>
        <time>2021-01-15T11:46:49Z</time>
      </trkpt>
      <trkpt lat="4.6611133" lon="-74.284935">
        <ele>2696.702</ele>
        <time>2021-01-15T11:46:54Z</time>
      </trkpt>
      <trkpt lat="4.6608796" lon="-74.28506">
        <ele>2693.724</ele>
        <time>2021-01-15T11:54:02Z</time>
      </trkpt>
      <trkpt lat="4.660415" lon="-74.28529">
        <ele>2692.049</ele>
        <time>2021-01-15T11:54:13Z</time>
      </trkpt>
      <trkpt lat="4.6601014" lon="-74.285446">
        <ele>2689.896</ele>
        <time>2021-01-15T11:54:18Z</time>
      </trkpt>
      <trkpt lat="4.6597276" lon="-74.285614">
        <ele>2687.132</ele>
        <time>2021-01-15T11:54:23Z</time>
      </trkpt>
      <trkpt lat="4.6593156" lon="-74.28578">
        <ele>2683.245</ele>
        <time>2021-01-15T11:54:28Z</time>
      </trkpt>
      <trkpt lat="4.658868" lon="-74.28595">
        <ele>2683.256</ele>
        <time>2021-01-15T11:54:33Z</time>
      </trkpt>
      <trkpt lat="4.6583824" lon="-74.28596">
        <ele>2680.315</ele>
        <time>2021-01-15T11:54:38Z</time>
      </trkpt>
      <trkpt lat="4.6579137" lon="-74.285866">
        <ele>2679.221</ele>
        <time>2021-01-15T11:54:43Z</time>
      </trkpt>
      <trkpt lat="4.6574583" lon="-74.28578">
        <ele>2677.54</ele>
        <time>2021-01-15T11:54:48Z</time>
      </trkpt>
      <trkpt lat="4.6569986" lon="-74.28577">
        <ele>2675.236</ele>
        <time>2021-01-15T11:54:53Z</time>
      </trkpt>
      <trkpt lat="4.6565576" lon="-74.28588">
        <ele>2671.688</ele>
        <time>2021-01-15T11:54:58Z</time>
      </trkpt>
      <trkpt lat="4.6557093" lon="-74.28612">
        <ele>2667.965</ele>
        <time>2021-01-15T11:55:07Z</time>
      </trkpt>
      <trkpt lat="4.6552014" lon="-74.286255">
        <ele>2665.79</ele>
        <time>2021-01-15T11:55:12Z</time>
      </trkpt>
      <trkpt lat="4.654669" lon="-74.28638">
        <ele>2662.276</ele>
        <time>2021-01-15T11:55:17Z</time>
      </trkpt>
      <trkpt lat="4.654132" lon="-74.28654">
        <ele>2658.653</ele>
        <time>2021-01-15T11:55:22Z</time>
      </trkpt>
      <trkpt lat="4.653595" lon="-74.28671">
        <ele>2655.792</ele>
        <time>2021-01-15T11:55:27Z</time>
      </trkpt>
      <trkpt lat="4.6530495" lon="-74.286804">
        <ele>2653.118</ele>
        <time>2021-01-15T11:55:32Z</time>
      </trkpt>
      <trkpt lat="4.652527" lon="-74.286865">
        <ele>2651.897</ele>
        <time>2021-01-15T11:55:37Z</time>
      </trkpt>
      <trkpt lat="4.6520205" lon="-74.2869">
        <ele>2649.064</ele>
        <time>2021-01-15T11:55:42Z</time>
      </trkpt>
      <trkpt lat="4.651523" lon="-74.286896">
        <ele>2647.741</ele>
        <time>2021-01-15T11:55:47Z</time>
      </trkpt>
      <trkpt lat="4.6510177" lon="-74.286865">
        <ele>2644.163</ele>
        <time>2021-01-15T11:55:52Z</time>
      </trkpt>
      <trkpt lat="4.6505075" lon="-74.286804">
        <ele>2640.977</ele>
        <time>2021-01-15T11:55:57Z</time>
      </trkpt>
      <trkpt lat="4.64999" lon="-74.28674">
        <ele>2639.151</ele>
        <time>2021-01-15T11:56:02Z</time>
      </trkpt>
      <trkpt lat="4.649482" lon="-74.28658">
        <ele>2637.473</ele>
        <time>2021-01-15T11:56:07Z</time>
      </trkpt>
      <trkpt lat="4.649051" lon="-74.28633">
        <ele>2637.409</ele>
        <time>2021-01-15T11:56:12Z</time>
      </trkpt>
      <trkpt lat="4.6486697" lon="-74.28612">
        <ele>2637.795</ele>
        <time>2021-01-15T11:56:17Z</time>
      </trkpt>
      <trkpt lat="4.6483154" lon="-74.28594">
        <ele>2636.937</ele>
        <time>2021-01-15T11:56:22Z</time>
      </trkpt>
      <trkpt lat="4.647983" lon="-74.285774">
        <ele>2637.238</ele>
        <time>2021-01-15T11:56:27Z</time>
      </trkpt>
      <trkpt lat="4.647409" lon="-74.2855">
        <ele>2637.552</ele>
        <time>2021-01-15T11:56:36Z</time>
      </trkpt>
      <trkpt lat="4.6470923" lon="-74.28538">
        <ele>2638.363</ele>
        <time>2021-01-15T11:56:41Z</time>
      </trkpt>
      <trkpt lat="4.6467795" lon="-74.28537">
        <ele>2638.836</ele>
        <time>2021-01-15T11:56:46Z</time>
      </trkpt>
      <trkpt lat="4.6465273" lon="-74.285484">
        <ele>2639.238</ele>
        <time>2021-01-15T11:56:51Z</time>
      </trkpt>
      <trkpt lat="4.6463547" lon="-74.28566">
        <ele>2640.511</ele>
        <time>2021-01-15T11:56:56Z</time>
      </trkpt>
      <trkpt lat="4.646238" lon="-74.28584">
        <ele>2641.101</ele>
        <time>2021-01-15T11:57:01Z</time>
      </trkpt>
      <trkpt lat="4.646114" lon="-74.28602">
        <ele>2642.705</ele>
        <time>2021-01-15T11:57:06Z</time>
      </trkpt>
      <trkpt lat="4.6459947" lon="-74.286194">
        <ele>2642.897</ele>
        <time>2021-01-15T11:57:11Z</time>
      </trkpt>
      <trkpt lat="4.6458726" lon="-74.28637">
        <ele>2643.492</ele>
        <time>2021-01-15T11:57:16Z</time>
      </trkpt>
      <trkpt lat="4.6457467" lon="-74.286545">
        <ele>2644.351</ele>
        <time>2021-01-15T11:57:21Z</time>
      </trkpt>
      <trkpt lat="4.6456184" lon="-74.28671">
        <ele>2645.426</ele>
        <time>2021-01-15T11:57:26Z</time>
      </trkpt>
      <trkpt lat="4.6454883" lon="-74.286896">
        <ele>2645.785</ele>
        <time>2021-01-15T11:57:31Z</time>
      </trkpt>
      <trkpt lat="4.645359" lon="-74.28708">
        <ele>2647.101</ele>
        <time>2021-01-15T11:57:36Z</time>
      </trkpt>
      <trkpt lat="4.6452312" lon="-74.28726">
        <ele>2647.997</ele>
        <time>2021-01-15T11:57:41Z</time>
      </trkpt>
      <trkpt lat="4.6450987" lon="-74.28744">
        <ele>2648.774</ele>
        <time>2021-01-15T11:57:46Z</time>
      </trkpt>
      <trkpt lat="4.6449566" lon="-74.287605">
        <ele>2649.596</ele>
        <time>2021-01-15T11:57:51Z</time>
      </trkpt>
      <trkpt lat="4.6447964" lon="-74.28774">
        <ele>2650.663</ele>
        <time>2021-01-15T11:57:56Z</time>
      </trkpt>
      <trkpt lat="4.644601" lon="-74.28785">
        <ele>2651.147</ele>
        <time>2021-01-15T11:58:01Z</time>
      </trkpt>
      <trkpt lat="4.6443844" lon="-74.287926">
        <ele>2651.659</ele>
        <time>2021-01-15T11:58:06Z</time>
      </trkpt>
      <trkpt lat="4.6441665" lon="-74.28801">
        <ele>2652.84</ele>
        <time>2021-01-15T11:58:11Z</time>
      </trkpt>
      <trkpt lat="4.643955" lon="-74.28809">
        <ele>2653.149</ele>
        <time>2021-01-15T11:58:16Z</time>
      </trkpt>
      <trkpt lat="4.6437426" lon="-74.28818">
        <ele>2653.562</ele>
        <time>2021-01-15T11:58:21Z</time>
      </trkpt>
      <trkpt lat="4.6435285" lon="-74.28826">
        <ele>2654.846</ele>
        <time>2021-01-15T11:58:26Z</time>
      </trkpt>
      <trkpt lat="4.643314" lon="-74.288345">
        <ele>2655.665</ele>
        <time>2021-01-15T11:58:31Z</time>
      </trkpt>
      <trkpt lat="4.64311" lon="-74.28842">
        <ele>2655.942</ele>
        <time>2021-01-15T11:58:36Z</time>
      </trkpt>
      <trkpt lat="4.6429" lon="-74.28849">
        <ele>2656.999</ele>
        <time>2021-01-15T11:58:41Z</time>
      </trkpt>
      <trkpt lat="4.642666" lon="-74.28854">
        <ele>2657.33</ele>
        <time>2021-01-15T11:58:46Z</time>
      </trkpt>
      <trkpt lat="4.6424146" lon="-74.28858">
        <ele>2658.881</ele>
        <time>2021-01-15T11:58:51Z</time>
      </trkpt>
      <trkpt lat="4.642156" lon="-74.28862">
        <ele>2658.756</ele>
        <time>2021-01-15T11:58:56Z</time>
      </trkpt>
      <trkpt lat="4.641911" lon="-74.28865">
        <ele>2659.887</ele>
        <time>2021-01-15T11:59:01Z</time>
      </trkpt>
      <trkpt lat="4.641674" lon="-74.28868">
        <ele>2660.461</ele>
        <time>2021-01-15T11:59:06Z</time>
      </trkpt>
      <trkpt lat="4.641444" lon="-74.28875">
        <ele>2661.174</ele>
        <time>2021-01-15T11:59:11Z</time>
      </trkpt>
      <trkpt lat="4.641237" lon="-74.28886">
        <ele>2662.556</ele>
        <time>2021-01-15T11:59:16Z</time>
      </trkpt>
      <trkpt lat="4.641062" lon="-74.289">
        <ele>2663.042</ele>
        <time>2021-01-15T11:59:21Z</time>
      </trkpt>
      <trkpt lat="4.640919" lon="-74.289185">
        <ele>2664.321</ele>
        <time>2021-01-15T11:59:26Z</time>
      </trkpt>
      <trkpt lat="4.640789" lon="-74.28946">
        <ele>2664.741</ele>
        <time>2021-01-15T11:59:33Z</time>
      </trkpt>
      <trkpt lat="4.640694" lon="-74.28966">
        <ele>2664.543</ele>
        <time>2021-01-15T11:59:38Z</time>
      </trkpt>
      <trkpt lat="4.640606" lon="-74.28989">
        <ele>2663.845</ele>
        <time>2021-01-15T11:59:43Z</time>
      </trkpt>
      <trkpt lat="4.64056" lon="-74.29015">
        <ele>2663.457</ele>
        <time>2021-01-15T11:59:48Z</time>
      </trkpt>
      <trkpt lat="4.6405954" lon="-74.29047">
        <ele>2661.018</ele>
        <time>2021-01-15T11:59:53Z</time>
      </trkpt>
      <trkpt lat="4.640754" lon="-74.2908">
        <ele>2657.821</ele>
        <time>2021-01-15T11:59:58Z</time>
      </trkpt>
      <trkpt lat="4.640993" lon="-74.29119">
        <ele>2655.356</ele>
        <time>2021-01-15T12:00:03Z</time>
      </trkpt>
      <trkpt lat="4.6412563" lon="-74.29164">
        <ele>2653.556</ele>
        <time>2021-01-15T12:00:08Z</time>
      </trkpt>
      <trkpt lat="4.6413784" lon="-74.292145">
        <ele>2650.692</ele>
        <time>2021-01-15T12:00:13Z</time>
      </trkpt>
      <trkpt lat="4.641386" lon="-74.29267">
        <ele>2647.751</ele>
        <time>2021-01-15T12:00:18Z</time>
      </trkpt>
      <trkpt lat="4.6413164" lon="-74.2932">
        <ele>2644.847</ele>
        <time>2021-01-15T12:00:23Z</time>
      </trkpt>
      <trkpt lat="4.640974" lon="-74.29363">
        <ele>2641.484</ele>
        <time>2021-01-15T12:00:28Z</time>
      </trkpt>
      <trkpt lat="4.640435" lon="-74.293816">
        <ele>2639.653</ele>
        <time>2021-01-15T12:00:33Z</time>
      </trkpt>
      <trkpt lat="4.639862" lon="-74.29387">
        <ele>2638.617</ele>
        <time>2021-01-15T12:00:38Z</time>
      </trkpt>
      <trkpt lat="4.6393313" lon="-74.29391">
        <ele>2638.038</ele>
        <time>2021-01-15T12:00:43Z</time>
      </trkpt>
      <trkpt lat="4.638888" lon="-74.29399">
        <ele>2638.316</ele>
        <time>2021-01-15T12:00:48Z</time>
      </trkpt>
      <trkpt lat="4.638625" lon="-74.2941">
        <ele>2638.776</ele>
        <time>2021-01-15T12:00:53Z</time>
      </trkpt>
      <trkpt lat="4.6384735" lon="-74.29413">
        <ele>2638.287</ele>
        <time>2021-01-15T12:00:58Z</time>
      </trkpt>
      <trkpt lat="4.6383595" lon="-74.29418">
        <ele>2639.943</ele>
        <time>2021-01-15T12:01:03Z</time>
      </trkpt>
      <trkpt lat="4.6382127" lon="-74.294205">
        <ele>2640.929</ele>
        <time>2021-01-15T12:01:08Z</time>
      </trkpt>
      <trkpt lat="4.638044" lon="-74.29421">
        <ele>2639.954</ele>
        <time>2021-01-15T12:01:15Z</time>
      </trkpt>
      <trkpt lat="4.63792" lon="-74.29425">
        <ele>2639.972</ele>
        <time>2021-01-15T12:01:20Z</time>
      </trkpt>
      <trkpt lat="4.63777" lon="-74.2943">
        <ele>2641.31</ele>
        <time>2021-01-15T12:01:25Z</time>
      </trkpt>
      <trkpt lat="4.63759" lon="-74.29436">
        <ele>2641.687</ele>
        <time>2021-01-15T12:01:30Z</time>
      </trkpt>
      <trkpt lat="4.6373944" lon="-74.29442">
        <ele>2642.813</ele>
        <time>2021-01-15T12:01:35Z</time>
      </trkpt>
      <trkpt lat="4.637169" lon="-74.29448">
        <ele>2643.587</ele>
        <time>2021-01-15T12:01:40Z</time>
      </trkpt>
      <trkpt lat="4.6369367" lon="-74.29451">
        <ele>2643.931</ele>
        <time>2021-01-15T12:01:45Z</time>
      </trkpt>
      <trkpt lat="4.636693" lon="-74.29448">
        <ele>2644.596</ele>
        <time>2021-01-15T12:01:50Z</time>
      </trkpt>
      <trkpt lat="4.636456" lon="-74.294426">
        <ele>2645.994</ele>
        <time>2021-01-15T12:01:55Z</time>
      </trkpt>
      <trkpt lat="4.636223" lon="-74.294365">
        <ele>2646.655</ele>
        <time>2021-01-15T12:02:00Z</time>
      </trkpt>
      <trkpt lat="4.6359873" lon="-74.29431">
        <ele>2647.286</ele>
        <time>2021-01-15T12:02:05Z</time>
      </trkpt>
      <trkpt lat="4.635758" lon="-74.29432">
        <ele>2648.827</ele>
        <time>2021-01-15T12:02:10Z</time>
      </trkpt>
      <trkpt lat="4.63556" lon="-74.29441">
        <ele>2650.047</ele>
        <time>2021-01-15T12:02:15Z</time>
      </trkpt>
      <trkpt lat="4.635408" lon="-74.29457">
        <ele>2651.099</ele>
        <time>2021-01-15T12:02:20Z</time>
      </trkpt>
      <trkpt lat="4.6353245" lon="-74.29478">
        <ele>2652.412</ele>
        <time>2021-01-15T12:02:25Z</time>
      </trkpt>
      <trkpt lat="4.6352954" lon="-74.295">
        <ele>2653.538</ele>
        <time>2021-01-15T12:02:30Z</time>
      </trkpt>
      <trkpt lat="4.6352687" lon="-74.29521">
        <ele>2654.494</ele>
        <time>2021-01-15T12:02:35Z</time>
      </trkpt>
      <trkpt lat="4.63525" lon="-74.29543">
        <ele>2655.903</ele>
        <time>2021-01-15T12:02:40Z</time>
      </trkpt>
      <trkpt lat="4.635232" lon="-74.29565">
        <ele>2657.245</ele>
        <time>2021-01-15T12:02:45Z</time>
      </trkpt>
      <trkpt lat="4.6352186" lon="-74.29587">
        <ele>2658.225</ele>
        <time>2021-01-15T12:02:50Z</time>
      </trkpt>
      <trkpt lat="4.635256" lon="-74.29608">
        <ele>2658.714</ele>
        <time>2021-01-15T12:02:55Z</time>
      </trkpt>
      <trkpt lat="4.635347" lon="-74.296295">
        <ele>2658.809</ele>
        <time>2021-01-15T12:03:00Z</time>
      </trkpt>
      <trkpt lat="4.6355057" lon="-74.29649">
        <ele>2658.165</ele>
        <time>2021-01-15T12:03:05Z</time>
      </trkpt>
      <trkpt lat="4.6357093" lon="-74.29672">
        <ele>2657.47</ele>
        <time>2021-01-15T12:03:10Z</time>
      </trkpt>
      <trkpt lat="4.635961" lon="-74.297">
        <ele>2656.783</ele>
        <time>2021-01-15T12:03:15Z</time>
      </trkpt>
      <trkpt lat="4.6362457" lon="-74.2973">
        <ele>2654.286</ele>
        <time>2021-01-15T12:03:20Z</time>
      </trkpt>
      <trkpt lat="4.6365523" lon="-74.29762">
        <ele>2652.428</ele>
        <time>2021-01-15T12:03:25Z</time>
      </trkpt>
      <trkpt lat="4.636875" lon="-74.297966">
        <ele>2649.487</ele>
        <time>2021-01-15T12:03:30Z</time>
      </trkpt>
      <trkpt lat="4.6373205" lon="-74.298386">
        <ele>2644.015</ele>
        <time>2021-01-15T12:03:35Z</time>
      </trkpt>
      <trkpt lat="4.637826" lon="-74.29882">
        <ele>2642.145</ele>
        <time>2021-01-15T12:03:42Z</time>
      </trkpt>
      <trkpt lat="4.638356" lon="-74.29927">
        <ele>2639.436</ele>
        <time>2021-01-15T12:03:47Z</time>
      </trkpt>
      <trkpt lat="4.638798" lon="-74.29993">
        <ele>2638.369</ele>
        <time>2021-01-15T12:03:55Z</time>
      </trkpt>
      <trkpt lat="4.6388373" lon="-74.30052">
        <ele>2636.392</ele>
        <time>2021-01-15T12:04:01Z</time>
      </trkpt>
      <trkpt lat="4.6389265" lon="-74.300934">
        <ele>2632.323</ele>
        <time>2021-01-15T12:04:06Z</time>
      </trkpt>
      <trkpt lat="4.639272" lon="-74.301384">
        <ele>2627.39</ele>
        <time>2021-01-15T12:04:11Z</time>
      </trkpt>
      <trkpt lat="4.6398964" lon="-74.30188">
        <ele>2624.653</ele>
        <time>2021-01-15T12:04:18Z</time>
      </trkpt>
      <trkpt lat="4.640599" lon="-74.30224">
        <ele>2622.364</ele>
        <time>2021-01-15T12:04:25Z</time>
      </trkpt>
      <trkpt lat="4.6412954" lon="-74.302475">
        <ele>2621.017</ele>
        <time>2021-01-15T12:04:31Z</time>
      </trkpt>
      <trkpt lat="4.641723" lon="-74.302704">
        <ele>2619.474</ele>
        <time>2021-01-15T12:04:36Z</time>
      </trkpt>
      <trkpt lat="4.6420765" lon="-74.303375">
        <ele>2619.144</ele>
        <time>2021-01-15T12:04:44Z</time>
      </trkpt>
      <trkpt lat="4.6420293" lon="-74.30382">
        <ele>2619.608</ele>
        <time>2021-01-15T12:04:49Z</time>
      </trkpt>
      <trkpt lat="4.641853" lon="-74.30418">
        <ele>2620.845</ele>
        <time>2021-01-15T12:04:54Z</time>
      </trkpt>
      <trkpt lat="4.6416764" lon="-74.304474">
        <ele>2622.28</ele>
        <time>2021-01-15T12:04:59Z</time>
      </trkpt>
      <trkpt lat="4.641496" lon="-74.30475">
        <ele>2623.469</ele>
        <time>2021-01-15T12:05:04Z</time>
      </trkpt>
      <trkpt lat="4.6412835" lon="-74.30494">
        <ele>2624.531</ele>
        <time>2021-01-15T12:05:09Z</time>
      </trkpt>
      <trkpt lat="4.641029" lon="-74.30505">
        <ele>2626.217</ele>
        <time>2021-01-15T12:05:14Z</time>
      </trkpt>
      <trkpt lat="4.6407056" lon="-74.30508">
        <ele>2627.353</ele>
        <time>2021-01-15T12:05:20Z</time>
      </trkpt>
      <trkpt lat="4.6404395" lon="-74.30499">
        <ele>2628.169</ele>
        <time>2021-01-15T12:05:25Z</time>
      </trkpt>
      <trkpt lat="4.6401744" lon="-74.30489">
        <ele>2628.912</ele>
        <time>2021-01-15T12:05:30Z</time>
      </trkpt>
      <trkpt lat="4.6399117" lon="-74.30479">
        <ele>2630.006</ele>
        <time>2021-01-15T12:05:35Z</time>
      </trkpt>
      <trkpt lat="4.6396503" lon="-74.304756">
        <ele>2630.983</ele>
        <time>2021-01-15T12:05:40Z</time>
      </trkpt>
      <trkpt lat="4.639421" lon="-74.304855">
        <ele>2632.191</ele>
        <time>2021-01-15T12:05:45Z</time>
      </trkpt>
      <trkpt lat="4.6392775" lon="-74.30506">
        <ele>2633.274</ele>
        <time>2021-01-15T12:05:50Z</time>
      </trkpt>
      <trkpt lat="4.639264" lon="-74.3053">
        <ele>2635.095</ele>
        <time>2021-01-15T12:05:55Z</time>
      </trkpt>
      <trkpt lat="4.639466" lon="-74.305595">
        <ele>2636.643</ele>
        <time>2021-01-15T12:06:03Z</time>
      </trkpt>
      <trkpt lat="4.639636" lon="-74.305695">
        <ele>2637.581</ele>
        <time>2021-01-15T12:06:08Z</time>
      </trkpt>
      <trkpt lat="4.639815" lon="-74.30578">
        <ele>2638.472</ele>
        <time>2021-01-15T12:06:13Z</time>
      </trkpt>
      <trkpt lat="4.6399894" lon="-74.305855">
        <ele>2640.052</ele>
        <time>2021-01-15T12:06:18Z</time>
      </trkpt>
      <trkpt lat="4.640165" lon="-74.30593">
        <ele>2640.168</ele>
        <time>2021-01-15T12:06:23Z</time>
      </trkpt>
      <trkpt lat="4.640342" lon="-74.30601">
        <ele>2641.809</ele>
        <time>2021-01-15T12:06:28Z</time>
      </trkpt>
      <trkpt lat="4.6405187" lon="-74.30608">
        <ele>2643.13</ele>
        <time>2021-01-15T12:06:33Z</time>
      </trkpt>
      <trkpt lat="4.6406913" lon="-74.30617">
        <ele>2644.652</ele>
        <time>2021-01-15T12:06:38Z</time>
      </trkpt>
      <trkpt lat="4.6408505" lon="-74.30626">
        <ele>2645.371</ele>
        <time>2021-01-15T12:06:43Z</time>
      </trkpt>
      <trkpt lat="4.6409917" lon="-74.30637">
        <ele>2646.14</ele>
        <time>2021-01-15T12:06:48Z</time>
      </trkpt>
      <trkpt lat="4.641105" lon="-74.3065">
        <ele>2647.136</ele>
        <time>2021-01-15T12:06:53Z</time>
      </trkpt>
      <trkpt lat="4.641205" lon="-74.30667">
        <ele>2648.399</ele>
        <time>2021-01-15T12:06:58Z</time>
      </trkpt>
      <trkpt lat="4.641288" lon="-74.30687">
        <ele>2648.634</ele>
        <time>2021-01-15T12:07:03Z</time>
      </trkpt>
      <trkpt lat="4.6413317" lon="-74.30707">
        <ele>2649.939</ele>
        <time>2021-01-15T12:07:08Z</time>
      </trkpt>
      <trkpt lat="4.6413627" lon="-74.30725">
        <ele>2651.033</ele>
        <time>2021-01-15T12:07:13Z</time>
      </trkpt>
      <trkpt lat="4.641407" lon="-74.30743">
        <ele>2651.958</ele>
        <time>2021-01-15T12:07:18Z</time>
      </trkpt>
      <trkpt lat="4.641444" lon="-74.30762">
        <ele>2652.856</ele>
        <time>2021-01-15T12:07:23Z</time>
      </trkpt>
      <trkpt lat="4.6414795" lon="-74.30781">
        <ele>2653.543</ele>
        <time>2021-01-15T12:07:28Z</time>
      </trkpt>
      <trkpt lat="4.6415215" lon="-74.308">
        <ele>2653.81</ele>
        <time>2021-01-15T12:07:33Z</time>
      </trkpt>
      <trkpt lat="4.641558" lon="-74.30821">
        <ele>2654.341</ele>
        <time>2021-01-15T12:07:38Z</time>
      </trkpt>
      <trkpt lat="4.6416078" lon="-74.30844">
        <ele>2654.111</ele>
        <time>2021-01-15T12:07:43Z</time>
      </trkpt>
      <trkpt lat="4.6416616" lon="-74.30871">
        <ele>2654.169</ele>
        <time>2021-01-15T12:07:48Z</time>
      </trkpt>
      <trkpt lat="4.641718" lon="-74.309006">
        <ele>2653.617</ele>
        <time>2021-01-15T12:07:53Z</time>
      </trkpt>
      <trkpt lat="4.641779" lon="-74.30934">
        <ele>2653.868</ele>
        <time>2021-01-15T12:07:58Z</time>
      </trkpt>
      <trkpt lat="4.6418433" lon="-74.30968">
        <ele>2653.221</ele>
        <time>2021-01-15T12:08:03Z</time>
      </trkpt>
      <trkpt lat="4.641906" lon="-74.31">
        <ele>2652.774</ele>
        <time>2021-01-15T12:08:08Z</time>
      </trkpt>
      <trkpt lat="4.641972" lon="-74.31031">
        <ele>2652.021</ele>
        <time>2021-01-15T12:08:13Z</time>
      </trkpt>
      <trkpt lat="4.642088" lon="-74.31088">
        <ele>2651.998</ele>
        <time>2021-01-15T12:08:22Z</time>
      </trkpt>
      <trkpt lat="4.642155" lon="-74.31121">
        <ele>2651.176</ele>
        <time>2021-01-15T12:08:27Z</time>
      </trkpt>
      <trkpt lat="4.64222" lon="-74.31156">
        <ele>2651.305</ele>
        <time>2021-01-15T12:08:32Z</time>
      </trkpt>
      <trkpt lat="4.642287" lon="-74.31191">
        <ele>2651.321</ele>
        <time>2021-01-15T12:08:37Z</time>
      </trkpt>
      <trkpt lat="4.6423607" lon="-74.31228">
        <ele>2650.84</ele>
        <time>2021-01-15T12:08:42Z</time>
      </trkpt>
      <trkpt lat="4.642431" lon="-74.312645">
        <ele>2650.325</ele>
        <time>2021-01-15T12:08:47Z</time>
      </trkpt>
      <trkpt lat="4.6425023" lon="-74.31302">
        <ele>2649.26</ele>
        <time>2021-01-15T12:08:52Z</time>
      </trkpt>
      <trkpt lat="4.642576" lon="-74.3134">
        <ele>2648.906</ele>
        <time>2021-01-15T12:08:57Z</time>
      </trkpt>
      <trkpt lat="4.6426506" lon="-74.31378">
        <ele>2648.813</ele>
        <time>2021-01-15T12:09:02Z</time>
      </trkpt>
      <trkpt lat="4.642725" lon="-74.31416">
        <ele>2648.393</ele>
        <time>2021-01-15T12:09:07Z</time>
      </trkpt>
      <trkpt lat="4.6427965" lon="-74.314545">
        <ele>2648.116</ele>
        <time>2021-01-15T12:09:12Z</time>
      </trkpt>
      <trkpt lat="4.6428704" lon="-74.31492">
        <ele>2647.704</ele>
        <time>2021-01-15T12:09:17Z</time>
      </trkpt>
      <trkpt lat="4.6429744" lon="-74.315285">
        <ele>2647.144</ele>
        <time>2021-01-15T12:09:22Z</time>
      </trkpt>
      <trkpt lat="4.6431584" lon="-74.31565">
        <ele>2646.935</ele>
        <time>2021-01-15T12:09:27Z</time>
      </trkpt>
      <trkpt lat="4.643407" lon="-74.31594">
        <ele>2645.949</ele>
        <time>2021-01-15T12:09:32Z</time>
      </trkpt>
      <trkpt lat="4.643683" lon="-74.31622">
        <ele>2644.409</ele>
        <time>2021-01-15T12:09:37Z</time>
      </trkpt>
      <trkpt lat="4.6439724" lon="-74.31652">
        <ele>2643.627</ele>
        <time>2021-01-15T12:09:42Z</time>
      </trkpt>
      <trkpt lat="4.6442733" lon="-74.31683">
        <ele>2641.722</ele>
        <time>2021-01-15T12:09:47Z</time>
      </trkpt>
      <trkpt lat="4.6446023" lon="-74.31718">
        <ele>2640.274</ele>
        <time>2021-01-15T12:09:52Z</time>
      </trkpt>
      <trkpt lat="4.644954" lon="-74.31753">
        <ele>2638.104</ele>
        <time>2021-01-15T12:09:57Z</time>
      </trkpt>
      <trkpt lat="4.645318" lon="-74.31791">
        <ele>2636.419</ele>
        <time>2021-01-15T12:10:02Z</time>
      </trkpt>
      <trkpt lat="4.6456914" lon="-74.31829">
        <ele>2634.173</ele>
        <time>2021-01-15T12:10:07Z</time>
      </trkpt>
      <trkpt lat="4.646022" lon="-74.318695">
        <ele>2631.705</ele>
        <time>2021-01-15T12:10:12Z</time>
      </trkpt>
      <trkpt lat="4.646185" lon="-74.31919">
        <ele>2628.838</ele>
        <time>2021-01-15T12:10:17Z</time>
      </trkpt>
      <trkpt lat="4.6463413" lon="-74.31971">
        <ele>2625.342</ele>
        <time>2021-01-15T12:10:22Z</time>
      </trkpt>
      <trkpt lat="4.6467524" lon="-74.320114">
        <ele>2621.952</ele>
        <time>2021-01-15T12:10:27Z</time>
      </trkpt>
      <trkpt lat="4.647062" lon="-74.320625">
        <ele>2618.811</ele>
        <time>2021-01-15T12:10:32Z</time>
      </trkpt>
      <trkpt lat="4.6473026" lon="-74.321205">
        <ele>2613.254</ele>
        <time>2021-01-15T12:10:37Z</time>
      </trkpt>
      <trkpt lat="4.6478105" lon="-74.32162">
        <ele>2608.561</ele>
        <time>2021-01-15T12:10:42Z</time>
      </trkpt>
      <trkpt lat="4.6478324" lon="-74.32241">
        <ele>2603.652</ele>
        <time>2021-01-15T12:10:48Z</time>
      </trkpt>
      <trkpt lat="4.6480603" lon="-74.323074">
        <ele>2597.818</ele>
        <time>2021-01-15T12:10:53Z</time>
      </trkpt>
      <trkpt lat="4.648418" lon="-74.3237">
        <ele>2593.357</ele>
        <time>2021-01-15T12:10:58Z</time>
      </trkpt>
      <trkpt lat="4.6489444" lon="-74.32423">
        <ele>2590.488</ele>
        <time>2021-01-15T12:11:03Z</time>
      </trkpt>
      <trkpt lat="4.6494927" lon="-74.32473">
        <ele>2584.347</ele>
        <time>2021-01-15T12:11:08Z</time>
      </trkpt>
      <trkpt lat="4.649762" lon="-74.32538">
        <ele>2577.707</ele>
        <time>2021-01-15T12:11:13Z</time>
      </trkpt>
      <trkpt lat="4.6493382" lon="-74.3259">
        <ele>2571.53</ele>
        <time>2021-01-15T12:11:18Z</time>
      </trkpt>
      <trkpt lat="4.648714" lon="-74.32629">
        <ele>2567.474</ele>
        <time>2021-01-15T12:11:23Z</time>
      </trkpt>
      <trkpt lat="4.648121" lon="-74.32667">
        <ele>2560.86</ele>
        <time>2021-01-15T12:11:28Z</time>
      </trkpt>
      <trkpt lat="4.647999" lon="-74.32735">
        <ele>2557.481</ele>
        <time>2021-01-15T12:11:33Z</time>
      </trkpt>
      <trkpt lat="4.6484804" lon="-74.327896">
        <ele>2552.069</ele>
        <time>2021-01-15T12:11:38Z</time>
      </trkpt>
      <trkpt lat="4.6491914" lon="-74.328125">
        <ele>2547.921</ele>
        <time>2021-01-15T12:11:43Z</time>
      </trkpt>
      <trkpt lat="4.6499157" lon="-74.32802">
        <ele>2540.705</ele>
        <time>2021-01-15T12:11:48Z</time>
      </trkpt>
      <trkpt lat="4.650747" lon="-74.328354">
        <ele>2533.539</ele>
        <time>2021-01-15T12:11:55Z</time>
      </trkpt>
      <trkpt lat="4.6509356" lon="-74.329025">
        <ele>2529.502</ele>
        <time>2021-01-15T12:12:00Z</time>
      </trkpt>
      <trkpt lat="4.651101" lon="-74.32972">
        <ele>2524.167</ele>
        <time>2021-01-15T12:12:05Z</time>
      </trkpt>
      <trkpt lat="4.6515417" lon="-74.330215">
        <ele>2519.49</ele>
        <time>2021-01-15T12:12:10Z</time>
      </trkpt>
      <trkpt lat="4.652221" lon="-74.330185">
        <ele>2512.892</ele>
        <time>2021-01-15T12:12:15Z</time>
      </trkpt>
      <trkpt lat="4.6528044" lon="-74.33041">
        <ele>2508.855</ele>
        <time>2021-01-15T12:12:20Z</time>
      </trkpt>
      <trkpt lat="4.6531353" lon="-74.33096">
        <ele>2502.677</ele>
        <time>2021-01-15T12:12:25Z</time>
      </trkpt>
      <trkpt lat="4.65372" lon="-74.33123">
        <ele>2498.344</ele>
        <time>2021-01-15T12:12:30Z</time>
      </trkpt>
      <trkpt lat="4.6543803" lon="-74.331474">
        <ele>2492.629</ele>
        <time>2021-01-15T12:12:35Z</time>
      </trkpt>
      <trkpt lat="4.6549716" lon="-74.331856">
        <ele>2488.327</ele>
        <time>2021-01-15T12:12:40Z</time>
      </trkpt>
      <trkpt lat="4.655511" lon="-74.33232">
        <ele>2482.76</ele>
        <time>2021-01-15T12:12:45Z</time>
      </trkpt>
      <trkpt lat="4.656183" lon="-74.33244">
        <ele>2474.733</ele>
        <time>2021-01-15T12:12:50Z</time>
      </trkpt>
      <trkpt lat="4.657009" lon="-74.33322">
        <ele>2470.74</ele>
        <time>2021-01-15T12:12:59Z</time>
      </trkpt>
      <trkpt lat="4.657517" lon="-74.333595">
        <ele>2466.74</ele>
        <time>2021-01-15T12:13:04Z</time>
      </trkpt>
      <trkpt lat="4.658094" lon="-74.333725">
        <ele>2462.198</ele>
        <time>2021-01-15T12:13:09Z</time>
      </trkpt>
      <trkpt lat="4.6586" lon="-74.33402">
        <ele>2458.189</ele>
        <time>2021-01-15T12:13:14Z</time>
      </trkpt>
      <trkpt lat="4.659117" lon="-74.3338">
        <ele>2455.325</ele>
        <time>2021-01-15T12:13:19Z</time>
      </trkpt>
      <trkpt lat="4.659627" lon="-74.33385">
        <ele>2451.681</ele>
        <time>2021-01-15T12:13:24Z</time>
      </trkpt>
      <trkpt lat="4.6601415" lon="-74.334">
        <ele>2448.984</ele>
        <time>2021-01-15T12:13:29Z</time>
      </trkpt>
      <trkpt lat="4.660457" lon="-74.33353">
        <ele>2444.925</ele>
        <time>2021-01-15T12:13:34Z</time>
      </trkpt>
      <trkpt lat="4.660685" lon="-74.33295">
        <ele>2440.507</ele>
        <time>2021-01-15T12:13:39Z</time>
      </trkpt>
      <trkpt lat="4.661218" lon="-74.33258">
        <ele>2436.145</ele>
        <time>2021-01-15T12:13:44Z</time>
      </trkpt>
      <trkpt lat="4.661858" lon="-74.33242">
        <ele>2432.808</ele>
        <time>2021-01-15T12:13:49Z</time>
      </trkpt>
      <trkpt lat="4.66237" lon="-74.33201">
        <ele>2422.896</ele>
        <time>2021-01-15T12:13:54Z</time>
      </trkpt>
      <trkpt lat="4.6632533" lon="-74.33207">
        <ele>2419.044</ele>
        <time>2021-01-15T12:14:02Z</time>
      </trkpt>
      <trkpt lat="4.6638384" lon="-74.33245">
        <ele>2414.317</ele>
        <time>2021-01-15T12:14:07Z</time>
      </trkpt>
      <trkpt lat="4.664189" lon="-74.333015">
        <ele>2409.561</ele>
        <time>2021-01-15T12:14:12Z</time>
      </trkpt>
      <trkpt lat="4.664716" lon="-74.333374">
        <ele>2404.187</ele>
        <time>2021-01-15T12:14:17Z</time>
      </trkpt>
      <trkpt lat="4.6653857" lon="-74.33323">
        <ele>2399.679</ele>
        <time>2021-01-15T12:14:22Z</time>
      </trkpt>
      <trkpt lat="4.6658177" lon="-74.33272">
        <ele>2393.895</ele>
        <time>2021-01-15T12:14:27Z</time>
      </trkpt>
      <trkpt lat="4.6662693" lon="-74.33227">
        <ele>2389.107</ele>
        <time>2021-01-15T12:14:32Z</time>
      </trkpt>
      <trkpt lat="4.6668696" lon="-74.33203">
        <ele>2385.334</ele>
        <time>2021-01-15T12:14:37Z</time>
      </trkpt>
      <trkpt lat="4.667196" lon="-74.33153">
        <ele>2378.221</ele>
        <time>2021-01-15T12:14:42Z</time>
      </trkpt>
      <trkpt lat="4.667117" lon="-74.33094">
        <ele>2375.124</ele>
        <time>2021-01-15T12:14:47Z</time>
      </trkpt>
      <trkpt lat="4.667494" lon="-74.330536">
        <ele>2372.376</ele>
        <time>2021-01-15T12:14:52Z</time>
      </trkpt>
      <trkpt lat="4.667982" lon="-74.33036">
        <ele>2368.051</ele>
        <time>2021-01-15T12:14:57Z</time>
      </trkpt>
      <trkpt lat="4.6681433" lon="-74.330345">
        <ele>2366.193</ele>
        <time>2021-01-15T12:15:02Z</time>
      </trkpt>
      <trkpt lat="4.668185" lon="-74.33032">
        <time>2021-01-15T12:15:07Z</time>
      </trkpt>
      <trkpt lat="4.6681023" lon="-74.33051">
        <ele>2275.643</ele>
        <time>2021-01-15T12:36:42Z</time>
      </trkpt>
      <trkpt lat="4.6676435" lon="-74.330475">
        <ele>2276.422</ele>
        <time>2021-01-15T12:36:58Z</time>
      </trkpt>
      <trkpt lat="4.6674714" lon="-74.33057">
        <ele>2276.932</ele>
        <time>2021-01-15T12:37:03Z</time>
      </trkpt>
      <trkpt lat="4.6673403" lon="-74.33068">
        <ele>2279.262</ele>
        <time>2021-01-15T12:37:08Z</time>
      </trkpt>
      <trkpt lat="4.66723" lon="-74.3308">
        <ele>2281.199</ele>
        <time>2021-01-15T12:37:13Z</time>
      </trkpt>
      <trkpt lat="4.6671715" lon="-74.33093">
        <ele>2281.344</ele>
        <time>2021-01-15T12:37:18Z</time>
      </trkpt>
      <trkpt lat="4.6671453" lon="-74.331085">
        <ele>2283.136</ele>
        <time>2021-01-15T12:37:23Z</time>
      </trkpt>
      <trkpt lat="4.6671104" lon="-74.33128">
        <ele>2284.653</ele>
        <time>2021-01-15T12:37:28Z</time>
      </trkpt>
      <trkpt lat="4.6671386" lon="-74.331474">
        <ele>2287.681</ele>
        <time>2021-01-15T12:37:33Z</time>
      </trkpt>
      <trkpt lat="4.6671476" lon="-74.33166">
        <ele>2288.389</ele>
        <time>2021-01-15T12:37:38Z</time>
      </trkpt>
      <trkpt lat="4.6671486" lon="-74.33181">
        <ele>2288.915</ele>
        <time>2021-01-15T12:37:43Z</time>
      </trkpt>
      <trkpt lat="4.6670675" lon="-74.3319">
        <ele>2290.08</ele>
        <time>2021-01-15T12:37:48Z</time>
      </trkpt>
      <trkpt lat="4.6669297" lon="-74.33199">
        <ele>2291.11</ele>
        <time>2021-01-15T12:37:53Z</time>
      </trkpt>
      <trkpt lat="4.66677" lon="-74.332054">
        <ele>2293.071</ele>
        <time>2021-01-15T12:37:58Z</time>
      </trkpt>
      <trkpt lat="4.666618" lon="-74.332115">
        <ele>2293.946</ele>
        <time>2021-01-15T12:38:03Z</time>
      </trkpt>
      <trkpt lat="4.6664624" lon="-74.33218">
        <ele>2294.215</ele>
        <time>2021-01-15T12:38:08Z</time>
      </trkpt>
      <trkpt lat="4.6663184" lon="-74.332245">
        <ele>2296.271</ele>
        <time>2021-01-15T12:38:13Z</time>
      </trkpt>
      <trkpt lat="4.666173" lon="-74.33234">
        <ele>2297.695</ele>
        <time>2021-01-15T12:38:18Z</time>
      </trkpt>
      <trkpt lat="4.6660385" lon="-74.332436">
        <ele>2297.914</ele>
        <time>2021-01-15T12:38:23Z</time>
      </trkpt>
      <trkpt lat="4.665929" lon="-74.33254">
        <ele>2298.258</ele>
        <time>2021-01-15T12:38:28Z</time>
      </trkpt>
      <trkpt lat="4.665848" lon="-74.332664">
        <ele>2300.747</ele>
        <time>2021-01-15T12:38:33Z</time>
      </trkpt>
      <trkpt lat="4.6657753" lon="-74.33277">
        <ele>2302.094</ele>
        <time>2021-01-15T12:38:38Z</time>
      </trkpt>
      <trkpt lat="4.6657076" lon="-74.33289">
        <ele>2302.454</ele>
        <time>2021-01-15T12:38:43Z</time>
      </trkpt>
      <trkpt lat="4.6656384" lon="-74.33299">
        <ele>2304.858</ele>
        <time>2021-01-15T12:38:48Z</time>
      </trkpt>
      <trkpt lat="4.6655664" lon="-74.333084">
        <ele>2305.032</ele>
        <time>2021-01-15T12:38:53Z</time>
      </trkpt>
      <trkpt lat="4.6654644" lon="-74.33317">
        <ele>2305.957</ele>
        <time>2021-01-15T12:38:58Z</time>
      </trkpt>
      <trkpt lat="4.665365" lon="-74.33323">
        <ele>2306.518</ele>
        <time>2021-01-15T12:39:03Z</time>
      </trkpt>
      <trkpt lat="4.6652493" lon="-74.33327">
        <ele>2307.4</ele>
        <time>2021-01-15T12:39:08Z</time>
      </trkpt>
      <trkpt lat="4.665121" lon="-74.3333">
        <ele>2307.733</ele>
        <time>2021-01-15T12:39:13Z</time>
      </trkpt>
      <trkpt lat="4.6649914" lon="-74.33332">
        <ele>2308.896</ele>
        <time>2021-01-15T12:39:18Z</time>
      </trkpt>
      <trkpt lat="4.664862" lon="-74.33334">
        <ele>2310.507</ele>
        <time>2021-01-15T12:39:23Z</time>
      </trkpt>
      <trkpt lat="4.6647415" lon="-74.33337">
        <ele>2311.163</ele>
        <time>2021-01-15T12:39:28Z</time>
      </trkpt>
      <trkpt lat="4.664627" lon="-74.333374">
        <ele>2311.773</ele>
        <time>2021-01-15T12:39:33Z</time>
      </trkpt>
      <trkpt lat="4.66451" lon="-74.333374">
        <ele>2313.567</ele>
        <time>2021-01-15T12:39:38Z</time>
      </trkpt>
      <trkpt lat="4.6643915" lon="-74.333336">
        <ele>2314.214</ele>
        <time>2021-01-15T12:39:43Z</time>
      </trkpt>
      <trkpt lat="4.6642933" lon="-74.333244">
        <ele>2315.163</ele>
        <time>2021-01-15T12:39:48Z</time>
      </trkpt>
      <trkpt lat="4.6642184" lon="-74.33312">
        <ele>2316.252</ele>
        <time>2021-01-15T12:39:53Z</time>
      </trkpt>
      <trkpt lat="4.664156" lon="-74.333">
        <ele>2316.912</ele>
        <time>2021-01-15T12:39:58Z</time>
      </trkpt>
      <trkpt lat="4.664106" lon="-74.33288">
        <ele>2317.475</ele>
        <time>2021-01-15T12:40:03Z</time>
      </trkpt>
      <trkpt lat="4.664037" lon="-74.33275">
        <ele>2318.524</ele>
        <time>2021-01-15T12:40:08Z</time>
      </trkpt>
      <trkpt lat="4.663964" lon="-74.33264">
        <ele>2319.528</ele>
        <time>2021-01-15T12:40:13Z</time>
      </trkpt>
      <trkpt lat="4.6639037" lon="-74.332535">
        <ele>2320.865</ele>
        <time>2021-01-15T12:40:18Z</time>
      </trkpt>
      <trkpt lat="4.663835" lon="-74.33245">
        <ele>2322.273</ele>
        <time>2021-01-15T12:40:23Z</time>
      </trkpt>
      <trkpt lat="4.6637197" lon="-74.33237">
        <ele>2322.773</ele>
        <time>2021-01-15T12:40:28Z</time>
      </trkpt>
      <trkpt lat="4.663575" lon="-74.33229">
        <ele>2324.216</ele>
        <time>2021-01-15T12:40:33Z</time>
      </trkpt>
      <trkpt lat="4.6633506" lon="-74.33216">
        <ele>2325.864</ele>
        <time>2021-01-15T12:40:42Z</time>
      </trkpt>
      <trkpt lat="4.663209" lon="-74.33208">
        <ele>2327.402</ele>
        <time>2021-01-15T12:40:47Z</time>
      </trkpt>
      <trkpt lat="4.663098" lon="-74.332">
        <ele>2328.258</ele>
        <time>2021-01-15T12:40:52Z</time>
      </trkpt>
      <trkpt lat="4.662984" lon="-74.33195">
        <ele>2328.617</ele>
        <time>2021-01-15T12:40:57Z</time>
      </trkpt>
      <trkpt lat="4.662848" lon="-74.331894">
        <ele>2329.471</ele>
        <time>2021-01-15T12:41:02Z</time>
      </trkpt>
      <trkpt lat="4.662712" lon="-74.33188">
        <ele>2331.379</ele>
        <time>2021-01-15T12:41:07Z</time>
      </trkpt>
      <trkpt lat="4.662583" lon="-74.33192">
        <ele>2332.573</ele>
        <time>2021-01-15T12:41:12Z</time>
      </trkpt>
      <trkpt lat="4.6624575" lon="-74.331955">
        <ele>2333.931</ele>
        <time>2021-01-15T12:41:17Z</time>
      </trkpt>
      <trkpt lat="4.6623335" lon="-74.332016">
        <ele>2334.607</ele>
        <time>2021-01-15T12:41:22Z</time>
      </trkpt>
      <trkpt lat="4.6622195" lon="-74.332115">
        <ele>2336.045</ele>
        <time>2021-01-15T12:41:27Z</time>
      </trkpt>
      <trkpt lat="4.662139" lon="-74.33222">
        <ele>2337.583</ele>
        <time>2021-01-15T12:41:32Z</time>
      </trkpt>
      <trkpt lat="4.662036" lon="-74.33232">
        <ele>2337.924</ele>
        <time>2021-01-15T12:41:37Z</time>
      </trkpt>
      <trkpt lat="4.6619153" lon="-74.332405">
        <ele>2338.925</ele>
        <time>2021-01-15T12:41:42Z</time>
      </trkpt>
      <trkpt lat="4.6617737" lon="-74.332466">
        <ele>2339.839</ele>
        <time>2021-01-15T12:41:47Z</time>
      </trkpt>
      <trkpt lat="4.6616206" lon="-74.33251">
        <ele>2340.954</ele>
        <time>2021-01-15T12:41:52Z</time>
      </trkpt>
      <trkpt lat="4.6614704" lon="-74.33254">
        <ele>2341.411</ele>
        <time>2021-01-15T12:41:57Z</time>
      </trkpt>
      <trkpt lat="4.6613216" lon="-74.33258">
        <ele>2342.844</ele>
        <time>2021-01-15T12:42:02Z</time>
      </trkpt>
      <trkpt lat="4.6611686" lon="-74.332634">
        <ele>2343.985</ele>
        <time>2021-01-15T12:42:07Z</time>
      </trkpt>
      <trkpt lat="4.661015" lon="-74.332695">
        <ele>2345.224</ele>
        <time>2021-01-15T12:42:12Z</time>
      </trkpt>
      <trkpt lat="4.660878" lon="-74.33278">
        <ele>2346.337</ele>
        <time>2021-01-15T12:42:17Z</time>
      </trkpt>
      <trkpt lat="4.6607556" lon="-74.3329">
        <ele>2346.326</ele>
        <time>2021-01-15T12:42:22Z</time>
      </trkpt>
      <trkpt lat="4.660659" lon="-74.33304">
        <ele>2347.298</ele>
        <time>2021-01-15T12:42:27Z</time>
      </trkpt>
      <trkpt lat="4.660591" lon="-74.333176">
        <ele>2348.361</ele>
        <time>2021-01-15T12:42:32Z</time>
      </trkpt>
      <trkpt lat="4.660543" lon="-74.33332">
        <ele>2349.806</ele>
        <time>2021-01-15T12:42:37Z</time>
      </trkpt>
      <trkpt lat="4.66049" lon="-74.33347">
        <ele>2350.157</ele>
        <time>2021-01-15T12:42:42Z</time>
      </trkpt>
      <trkpt lat="4.660446" lon="-74.33362">
        <ele>2351.492</ele>
        <time>2021-01-15T12:42:47Z</time>
      </trkpt>
      <trkpt lat="4.660405" lon="-74.333755">
        <ele>2352.831</ele>
        <time>2021-01-15T12:42:52Z</time>
      </trkpt>
      <trkpt lat="4.660342" lon="-74.33388">
        <ele>2354.065</ele>
        <time>2021-01-15T12:42:57Z</time>
      </trkpt>
      <trkpt lat="4.660243" lon="-74.33398">
        <ele>2355.426</ele>
        <time>2021-01-15T12:43:02Z</time>
      </trkpt>
      <trkpt lat="4.660126" lon="-74.334045">
        <ele>2356.507</ele>
        <time>2021-01-15T12:43:07Z</time>
      </trkpt>
      <trkpt lat="4.660002" lon="-74.33407">
        <ele>2356.457</ele>
        <time>2021-01-15T12:43:12Z</time>
      </trkpt>
      <trkpt lat="4.659872" lon="-74.334045">
        <ele>2358.1</ele>
        <time>2021-01-15T12:43:17Z</time>
      </trkpt>
      <trkpt lat="4.659743" lon="-74.33398">
        <ele>2358.502</ele>
        <time>2021-01-15T12:43:22Z</time>
      </trkpt>
      <trkpt lat="4.6596174" lon="-74.333885">
        <ele>2359.408</ele>
        <time>2021-01-15T12:43:27Z</time>
      </trkpt>
      <trkpt lat="4.6594872" lon="-74.333824">
        <ele>2360.024</ele>
        <time>2021-01-15T12:43:32Z</time>
      </trkpt>
      <trkpt lat="4.6593437" lon="-74.33379">
        <ele>2361.271</ele>
        <time>2021-01-15T12:43:37Z</time>
      </trkpt>
      <trkpt lat="4.6592045" lon="-74.3338">
        <ele>2361.892</ele>
        <time>2021-01-15T12:43:42Z</time>
      </trkpt>
      <trkpt lat="4.659069" lon="-74.33387">
        <ele>2363.052</ele>
        <time>2021-01-15T12:43:47Z</time>
      </trkpt>
      <trkpt lat="4.658939" lon="-74.33393">
        <ele>2364.616</ele>
        <time>2021-01-15T12:43:52Z</time>
      </trkpt>
      <trkpt lat="4.6587996" lon="-74.33401">
        <ele>2365.889</ele>
        <time>2021-01-15T12:43:57Z</time>
      </trkpt>
      <trkpt lat="4.658648" lon="-74.33404">
        <ele>2366.944</ele>
        <time>2021-01-15T12:44:02Z</time>
      </trkpt>
      <trkpt lat="4.6584897" lon="-74.334015">
        <ele>2368.027</ele>
        <time>2021-01-15T12:44:07Z</time>
      </trkpt>
      <trkpt lat="4.658361" lon="-74.33395">
        <ele>2369.05</ele>
        <time>2021-01-15T12:44:12Z</time>
      </trkpt>
      <trkpt lat="4.658253" lon="-74.33384">
        <ele>2369.607</ele>
        <time>2021-01-15T12:44:17Z</time>
      </trkpt>
      <trkpt lat="4.6581383" lon="-74.33373">
        <ele>2369.781</ele>
        <time>2021-01-15T12:44:22Z</time>
      </trkpt>
      <trkpt lat="4.6580467" lon="-74.33367">
        <ele>2370.741</ele>
        <time>2021-01-15T12:44:27Z</time>
      </trkpt>
      <trkpt lat="4.6578717" lon="-74.33364">
        <ele>2372.027</ele>
        <time>2021-01-15T12:44:32Z</time>
      </trkpt>
      <trkpt lat="4.6576986" lon="-74.333626">
        <ele>2373.121</ele>
        <time>2021-01-15T12:44:37Z</time>
      </trkpt>
      <trkpt lat="4.6575365" lon="-74.33361">
        <ele>2373.848</ele>
        <time>2021-01-15T12:44:42Z</time>
      </trkpt>
      <trkpt lat="4.6573825" lon="-74.333565">
        <ele>2375.026</ele>
        <time>2021-01-15T12:44:47Z</time>
      </trkpt>
      <trkpt lat="4.6572423" lon="-74.333466">
        <ele>2375.568</ele>
        <time>2021-01-15T12:44:52Z</time>
      </trkpt>
      <trkpt lat="4.6571326" lon="-74.333374">
        <ele>2376.593</ele>
        <time>2021-01-15T12:44:57Z</time>
      </trkpt>
      <trkpt lat="4.657036" lon="-74.33326">
        <ele>2377.32</ele>
        <time>2021-01-15T12:45:02Z</time>
      </trkpt>
      <trkpt lat="4.6569443" lon="-74.33316">
        <ele>2378.047</ele>
        <time>2021-01-15T12:45:07Z</time>
      </trkpt>
      <trkpt lat="4.656831" lon="-74.33301">
        <ele>2378.345</ele>
        <time>2021-01-15T12:45:12Z</time>
      </trkpt>
      <trkpt lat="4.6566925" lon="-74.33282">
        <ele>2380.543</ele>
        <time>2021-01-15T12:45:20Z</time>
      </trkpt>
      <trkpt lat="4.6566105" lon="-74.33269">
        <ele>2382.668</ele>
        <time>2021-01-15T12:45:26Z</time>
      </trkpt>
      <trkpt lat="4.6564264" lon="-74.33253">
        <ele>2384.544</ele>
        <time>2021-01-15T12:45:36Z</time>
      </trkpt>
      <trkpt lat="4.656269" lon="-74.332436">
        <ele>2386.126</ele>
        <time>2021-01-15T12:45:41Z</time>
      </trkpt>
      <trkpt lat="4.6560855" lon="-74.33238">
        <ele>2386.507</ele>
        <time>2021-01-15T12:45:46Z</time>
      </trkpt>
      <trkpt lat="4.6559334" lon="-74.332344">
        <ele>2387.976</ele>
        <time>2021-01-15T12:45:51Z</time>
      </trkpt>
      <trkpt lat="4.655778" lon="-74.33232">
        <ele>2389.086</ele>
        <time>2021-01-15T12:45:56Z</time>
      </trkpt>
      <trkpt lat="4.6556516" lon="-74.33231">
        <ele>2390.296</ele>
        <time>2021-01-15T12:46:01Z</time>
      </trkpt>
      <trkpt lat="4.6555357" lon="-74.332275">
        <ele>2391.327</ele>
        <time>2021-01-15T12:46:06Z</time>
      </trkpt>
      <trkpt lat="4.655432" lon="-74.33224">
        <ele>2392.106</ele>
        <time>2021-01-15T12:46:11Z</time>
      </trkpt>
      <trkpt lat="4.655342" lon="-74.33215">
        <ele>2392.782</ele>
        <time>2021-01-15T12:46:16Z</time>
      </trkpt>
      <trkpt lat="4.655231" lon="-74.33206">
        <ele>2394.175</ele>
        <time>2021-01-15T12:46:21Z</time>
      </trkpt>
      <trkpt lat="4.6551194" lon="-74.33197">
        <ele>2393.94</ele>
        <time>2021-01-15T12:46:26Z</time>
      </trkpt>
      <trkpt lat="4.6550407" lon="-74.33189">
        <ele>2394.777</ele>
        <time>2021-01-15T12:46:31Z</time>
      </trkpt>
      <trkpt lat="4.6549606" lon="-74.3318">
        <ele>2396.867</ele>
        <time>2021-01-15T12:46:36Z</time>
      </trkpt>
      <trkpt lat="4.654882" lon="-74.331726">
        <ele>2398.004</ele>
        <time>2021-01-15T12:46:41Z</time>
      </trkpt>
      <trkpt lat="4.65477" lon="-74.331665">
        <ele>2398.913</ele>
        <time>2021-01-15T12:46:46Z</time>
      </trkpt>
      <trkpt lat="4.6546307" lon="-74.331604">
        <ele>2399.142</ele>
        <time>2021-01-15T12:46:51Z</time>
      </trkpt>
      <trkpt lat="4.6544785" lon="-74.331535">
        <ele>2400.741</ele>
        <time>2021-01-15T12:46:56Z</time>
      </trkpt>
      <trkpt lat="4.6543417" lon="-74.33147">
        <ele>2401.909</ele>
        <time>2021-01-15T12:47:01Z</time>
      </trkpt>
      <trkpt lat="4.654196" lon="-74.33137">
        <ele>2402.168</ele>
        <time>2021-01-15T12:47:06Z</time>
      </trkpt>
      <trkpt lat="4.654048" lon="-74.33131">
        <ele>2402.955</ele>
        <time>2021-01-15T12:47:11Z</time>
      </trkpt>
      <trkpt lat="4.6538644" lon="-74.33124">
        <ele>2404.847</ele>
        <time>2021-01-15T12:47:17Z</time>
      </trkpt>
      <trkpt lat="4.653718" lon="-74.33118">
        <ele>2405.584</ele>
        <time>2021-01-15T12:47:22Z</time>
      </trkpt>
      <trkpt lat="4.6535873" lon="-74.33114">
        <ele>2406.417</ele>
        <time>2021-01-15T12:47:27Z</time>
      </trkpt>
      <trkpt lat="4.65346" lon="-74.33109">
        <ele>2407.267</ele>
        <time>2021-01-15T12:47:32Z</time>
      </trkpt>
      <trkpt lat="4.6533413" lon="-74.331024">
        <ele>2408.932</ele>
        <time>2021-01-15T12:47:37Z</time>
      </trkpt>
      <trkpt lat="4.65321" lon="-74.33097">
        <ele>2409.635</ele>
        <time>2021-01-15T12:47:42Z</time>
      </trkpt>
      <trkpt lat="4.653091" lon="-74.33092">
        <ele>2411.22</ele>
        <time>2021-01-15T12:47:47Z</time>
      </trkpt>
      <trkpt lat="4.6529875" lon="-74.33083">
        <ele>2411.529</ele>
        <time>2021-01-15T12:47:52Z</time>
      </trkpt>
      <trkpt lat="4.652925" lon="-74.330734">
        <ele>2412.438</ele>
        <time>2021-01-15T12:47:57Z</time>
      </trkpt>
      <trkpt lat="4.6528435" lon="-74.330605">
        <ele>2413.783</ele>
        <time>2021-01-15T12:48:02Z</time>
      </trkpt>
      <trkpt lat="4.652767" lon="-74.33051">
        <ele>2414.639</ele>
        <time>2021-01-15T12:48:07Z</time>
      </trkpt>
      <trkpt lat="4.652689" lon="-74.3304">
        <ele>2415.535</ele>
        <time>2021-01-15T12:48:12Z</time>
      </trkpt>
      <trkpt lat="4.6526074" lon="-74.33031">
        <ele>2416.613</ele>
        <time>2021-01-15T12:48:17Z</time>
      </trkpt>
      <trkpt lat="4.6524906" lon="-74.33021">
        <ele>2417.086</ele>
        <time>2021-01-15T12:48:22Z</time>
      </trkpt>
      <trkpt lat="4.6523476" lon="-74.33015">
        <ele>2418.7</ele>
        <time>2021-01-15T12:48:27Z</time>
      </trkpt>
      <trkpt lat="4.65218" lon="-74.33013">
        <ele>2420.508</ele>
        <time>2021-01-15T12:48:32Z</time>
      </trkpt>
      <trkpt lat="4.6520233" lon="-74.33014">
        <ele>2422.059</ele>
        <time>2021-01-15T12:48:37Z</time>
      </trkpt>
      <trkpt lat="4.651899" lon="-74.33017">
        <ele>2422.466</ele>
        <time>2021-01-15T12:48:42Z</time>
      </trkpt>
      <trkpt lat="4.651792" lon="-74.33018">
        <ele>2423.346</ele>
        <time>2021-01-15T12:48:47Z</time>
      </trkpt>
      <trkpt lat="4.6516743" lon="-74.33019">
        <ele>2424.704</ele>
        <time>2021-01-15T12:48:52Z</time>
      </trkpt>
      <trkpt lat="4.6515574" lon="-74.33018">
        <ele>2424.672</ele>
        <time>2021-01-15T12:48:57Z</time>
      </trkpt>
      <trkpt lat="4.651437" lon="-74.33017">
        <ele>2426.247</ele>
        <time>2021-01-15T12:49:02Z</time>
      </trkpt>
      <trkpt lat="4.6513286" lon="-74.330124">
        <ele>2427.447</ele>
        <time>2021-01-15T12:49:07Z</time>
      </trkpt>
      <trkpt lat="4.651233" lon="-74.33005">
        <ele>2428.406</ele>
        <time>2021-01-15T12:49:12Z</time>
      </trkpt>
      <trkpt lat="4.6511545" lon="-74.32995">
        <ele>2429.193</ele>
        <time>2021-01-15T12:49:17Z</time>
      </trkpt>
      <trkpt lat="4.651097" lon="-74.329834">
        <ele>2430.202</ele>
        <time>2021-01-15T12:49:22Z</time>
      </trkpt>
      <trkpt lat="4.6510525" lon="-74.32972">
        <ele>2430.157</ele>
        <time>2021-01-15T12:49:27Z</time>
      </trkpt>
      <trkpt lat="4.651019" lon="-74.32959">
        <ele>2431.576</ele>
        <time>2021-01-15T12:49:32Z</time>
      </trkpt>
      <trkpt lat="4.6509867" lon="-74.329445">
        <ele>2432.599</ele>
        <time>2021-01-15T12:49:37Z</time>
      </trkpt>
      <trkpt lat="4.6509438" lon="-74.329315">
        <ele>2433.006</ele>
        <time>2021-01-15T12:49:42Z</time>
      </trkpt>
      <trkpt lat="4.6509075" lon="-74.32917">
        <ele>2433.791</ele>
        <time>2021-01-15T12:49:47Z</time>
      </trkpt>
      <trkpt lat="4.650874" lon="-74.32905">
        <ele>2435.191</ele>
        <time>2021-01-15T12:49:52Z</time>
      </trkpt>
      <trkpt lat="4.6508427" lon="-74.328926">
        <ele>2435.97</ele>
        <time>2021-01-15T12:49:57Z</time>
      </trkpt>
      <trkpt lat="4.6508236" lon="-74.328804">
        <ele>2437.13</ele>
        <time>2021-01-15T12:50:02Z</time>
      </trkpt>
      <trkpt lat="4.6507854" lon="-74.32867">
        <ele>2438.095</ele>
        <time>2021-01-15T12:50:07Z</time>
      </trkpt>
      <trkpt lat="4.6507554" lon="-74.32853">
        <ele>2439.532</ele>
        <time>2021-01-15T12:50:12Z</time>
      </trkpt>
      <trkpt lat="4.650709" lon="-74.328415">
        <ele>2440.217</ele>
        <time>2021-01-15T12:50:17Z</time>
      </trkpt>
      <trkpt lat="4.6506543" lon="-74.32829">
        <ele>2441.099</ele>
        <time>2021-01-15T12:50:22Z</time>
      </trkpt>
      <trkpt lat="4.650586" lon="-74.3282">
        <ele>2441.815</ele>
        <time>2021-01-15T12:50:27Z</time>
      </trkpt>
      <trkpt lat="4.650484" lon="-74.32811">
        <ele>2442.373</ele>
        <time>2021-01-15T12:50:32Z</time>
      </trkpt>
      <trkpt lat="4.650386" lon="-74.32806">
        <ele>2443.879</ele>
        <time>2021-01-15T12:50:37Z</time>
      </trkpt>
      <trkpt lat="4.6502686" lon="-74.328026">
        <ele>2444.785</ele>
        <time>2021-01-15T12:50:42Z</time>
      </trkpt>
      <trkpt lat="4.650146" lon="-74.328026">
        <ele>2445.712</ele>
        <time>2021-01-15T12:50:47Z</time>
      </trkpt>
      <trkpt lat="4.650023" lon="-74.32806">
        <ele>2446.748</ele>
        <time>2021-01-15T12:50:52Z</time>
      </trkpt>
      <trkpt lat="4.649894" lon="-74.32809">
        <ele>2448.307</ele>
        <time>2021-01-15T12:50:57Z</time>
      </trkpt>
      <trkpt lat="4.6497717" lon="-74.328125">
        <ele>2449.486</ele>
        <time>2021-01-15T12:51:02Z</time>
      </trkpt>
      <trkpt lat="4.649652" lon="-74.328156">
        <ele>2450.569</ele>
        <time>2021-01-15T12:51:07Z</time>
      </trkpt>
      <trkpt lat="4.649525" lon="-74.328186">
        <ele>2451.531</ele>
        <time>2021-01-15T12:51:12Z</time>
      </trkpt>
      <trkpt lat="4.6493917" lon="-74.32819">
        <ele>2452.368</ele>
        <time>2021-01-15T12:51:17Z</time>
      </trkpt>
      <trkpt lat="4.649265" lon="-74.32818">
        <ele>2453.254</ele>
        <time>2021-01-15T12:51:22Z</time>
      </trkpt>
      <trkpt lat="4.649142" lon="-74.328156">
        <ele>2454.366</ele>
        <time>2021-01-15T12:51:27Z</time>
      </trkpt>
      <trkpt lat="4.649009" lon="-74.32811">
        <ele>2455.206</ele>
        <time>2021-01-15T12:51:32Z</time>
      </trkpt>
      <trkpt lat="4.6488776" lon="-74.32806">
        <ele>2455.753</ele>
        <time>2021-01-15T12:51:37Z</time>
      </trkpt>
      <trkpt lat="4.6487474" lon="-74.32802">
        <ele>2457.053</ele>
        <time>2021-01-15T12:51:42Z</time>
      </trkpt>
      <trkpt lat="4.648625" lon="-74.32797">
        <ele>2457.65</ele>
        <time>2021-01-15T12:51:47Z</time>
      </trkpt>
      <trkpt lat="4.648507" lon="-74.32794">
        <ele>2458.216</ele>
        <time>2021-01-15T12:51:52Z</time>
      </trkpt>
      <trkpt lat="4.6483965" lon="-74.327896">
        <ele>2460.137</ele>
        <time>2021-01-15T12:51:57Z</time>
      </trkpt>
      <trkpt lat="4.648282" lon="-74.327835">
        <ele>2460.652</ele>
        <time>2021-01-15T12:52:02Z</time>
      </trkpt>
      <trkpt lat="4.648167" lon="-74.327736">
        <ele>2462.819</ele>
        <time>2021-01-15T12:52:07Z</time>
      </trkpt>
      <trkpt lat="4.6480713" lon="-74.32762">
        <ele>2463.144</ele>
        <time>2021-01-15T12:52:12Z</time>
      </trkpt>
      <trkpt lat="4.647999" lon="-74.3275">
        <ele>2464.327</ele>
        <time>2021-01-15T12:52:17Z</time>
      </trkpt>
      <trkpt lat="4.647937" lon="-74.32736">
        <ele>2465.152</ele>
        <time>2021-01-15T12:52:22Z</time>
      </trkpt>
      <trkpt lat="4.647901" lon="-74.327225">
        <ele>2465.799</ele>
        <time>2021-01-15T12:52:27Z</time>
      </trkpt>
      <trkpt lat="4.6478987" lon="-74.327095">
        <ele>2466.851</ele>
        <time>2021-01-15T12:52:32Z</time>
      </trkpt>
      <trkpt lat="4.647918" lon="-74.32696">
        <ele>2467.551</ele>
        <time>2021-01-15T12:52:37Z</time>
      </trkpt>
      <trkpt lat="4.647972" lon="-74.326805">
        <ele>2468.809</ele>
        <time>2021-01-15T12:52:42Z</time>
      </trkpt>
      <trkpt lat="4.648049" lon="-74.326675">
        <ele>2469.477</ele>
        <time>2021-01-15T12:52:47Z</time>
      </trkpt>
      <trkpt lat="4.648173" lon="-74.32653">
        <ele>2471.517</ele>
        <time>2021-01-15T12:52:53Z</time>
      </trkpt>
      <trkpt lat="4.6482706" lon="-74.32642">
        <ele>2472.437</ele>
        <time>2021-01-15T12:52:58Z</time>
      </trkpt>
      <trkpt lat="4.6483135" lon="-74.326355">
        <ele>2472.88</ele>
        <time>2021-01-15T12:53:03Z</time>
      </trkpt>
      <trkpt lat="4.6483107" lon="-74.32635">
        <ele>2471.298</ele>
        <time>2021-01-15T12:53:08Z</time>
      </trkpt>
      <trkpt lat="4.6485243" lon="-74.32628">
        <ele>2471.588</ele>
        <time>2021-01-15T13:17:39Z</time>
      </trkpt>
      <trkpt lat="4.6486397" lon="-74.3262">
        <ele>2472.347</ele>
        <time>2021-01-15T13:17:44Z</time>
      </trkpt>
      <trkpt lat="4.6487823" lon="-74.32612">
        <ele>2473.475</ele>
        <time>2021-01-15T13:17:49Z</time>
      </trkpt>
      <trkpt lat="4.648955" lon="-74.32602">
        <ele>2474.595</ele>
        <time>2021-01-15T13:17:55Z</time>
      </trkpt>
      <trkpt lat="4.6490903" lon="-74.325935">
        <ele>2475.882</ele>
        <time>2021-01-15T13:18:00Z</time>
      </trkpt>
      <trkpt lat="4.6492987" lon="-74.325806">
        <ele>2477.216</ele>
        <time>2021-01-15T13:18:09Z</time>
      </trkpt>
      <trkpt lat="4.649375" lon="-74.32577">
        <ele>2478.038</ele>
        <time>2021-01-15T13:18:14Z</time>
      </trkpt>
      <trkpt lat="4.649458" lon="-74.32571">
        <ele>2478.722</ele>
        <time>2021-01-15T13:18:19Z</time>
      </trkpt>
      <trkpt lat="4.649531" lon="-74.32564">
        <ele>2479.526</ele>
        <time>2021-01-15T13:18:24Z</time>
      </trkpt>
      <trkpt lat="4.649589" lon="-74.325554">
        <ele>2480.26</ele>
        <time>2021-01-15T13:18:29Z</time>
      </trkpt>
      <trkpt lat="4.64964" lon="-74.32546">
        <ele>2481.042</ele>
        <time>2021-01-15T13:18:34Z</time>
      </trkpt>
      <trkpt lat="4.649677" lon="-74.32535">
        <ele>2482.223</ele>
        <time>2021-01-15T13:18:39Z</time>
      </trkpt>
      <trkpt lat="4.6496854" lon="-74.32524">
        <ele>2483.172</ele>
        <time>2021-01-15T13:18:44Z</time>
      </trkpt>
      <trkpt lat="4.649672" lon="-74.32513">
        <ele>2483.872</ele>
        <time>2021-01-15T13:18:49Z</time>
      </trkpt>
      <trkpt lat="4.6496396" lon="-74.32501">
        <ele>2484.853</ele>
        <time>2021-01-15T13:18:54Z</time>
      </trkpt>
      <trkpt lat="4.649584" lon="-74.3249">
        <ele>2486.652</ele>
        <time>2021-01-15T13:18:59Z</time>
      </trkpt>
      <trkpt lat="4.649507" lon="-74.32481">
        <ele>2487.302</ele>
        <time>2021-01-15T13:19:04Z</time>
      </trkpt>
      <trkpt lat="4.6494083" lon="-74.32472">
        <ele>2488.068</ele>
        <time>2021-01-15T13:19:09Z</time>
      </trkpt>
      <trkpt lat="4.6493125" lon="-74.32462">
        <ele>2488.964</ele>
        <time>2021-01-15T13:19:14Z</time>
      </trkpt>
      <trkpt lat="4.6492133" lon="-74.324524">
        <ele>2490.322</ele>
        <time>2021-01-15T13:19:19Z</time>
      </trkpt>
      <trkpt lat="4.649111" lon="-74.32442">
        <ele>2491.477</ele>
        <time>2021-01-15T13:19:24Z</time>
      </trkpt>
      <trkpt lat="4.649005" lon="-74.32432">
        <ele>2492.497</ele>
        <time>2021-01-15T13:19:29Z</time>
      </trkpt>
      <trkpt lat="4.648901" lon="-74.32423">
        <ele>2493.295</ele>
        <time>2021-01-15T13:19:34Z</time>
      </trkpt>
      <trkpt lat="4.6488013" lon="-74.32413">
        <ele>2494.455</ele>
        <time>2021-01-15T13:19:39Z</time>
      </trkpt>
      <trkpt lat="4.6487126" lon="-74.324036">
        <ele>2495.773</ele>
        <time>2021-01-15T13:19:44Z</time>
      </trkpt>
      <trkpt lat="4.6486077" lon="-74.323944">
        <ele>2496.574</ele>
        <time>2021-01-15T13:19:49Z</time>
      </trkpt>
      <trkpt lat="4.6485057" lon="-74.32385">
        <ele>2497.789</ele>
        <time>2021-01-15T13:19:54Z</time>
      </trkpt>
      <trkpt lat="4.6484175" lon="-74.32375">
        <ele>2498.875</ele>
        <time>2021-01-15T13:19:59Z</time>
      </trkpt>
      <trkpt lat="4.6483364" lon="-74.32365">
        <ele>2500.098</ele>
        <time>2021-01-15T13:20:04Z</time>
      </trkpt>
      <trkpt lat="4.6482687" lon="-74.32353">
        <ele>2501.026</ele>
        <time>2021-01-15T13:20:09Z</time>
      </trkpt>
      <trkpt lat="4.648212" lon="-74.3234">
        <ele>2501.837</ele>
        <time>2021-01-15T13:20:14Z</time>
      </trkpt>
      <trkpt lat="4.648151" lon="-74.32328">
        <ele>2503.1</ele>
        <time>2021-01-15T13:20:19Z</time>
      </trkpt>
      <trkpt lat="4.648097" lon="-74.32316">
        <ele>2503.61</ele>
        <time>2021-01-15T13:20:24Z</time>
      </trkpt>
      <trkpt lat="4.648041" lon="-74.32304">
        <ele>2504.664</ele>
        <time>2021-01-15T13:20:29Z</time>
      </trkpt>
      <trkpt lat="4.647984" lon="-74.322914">
        <ele>2505.795</ele>
        <time>2021-01-15T13:20:34Z</time>
      </trkpt>
      <trkpt lat="4.6479297" lon="-74.32279">
        <ele>2506.609</ele>
        <time>2021-01-15T13:20:39Z</time>
      </trkpt>
      <trkpt lat="4.647879" lon="-74.32267">
        <ele>2507.687</ele>
        <time>2021-01-15T13:20:44Z</time>
      </trkpt>
      <trkpt lat="4.647847" lon="-74.32254">
        <ele>2508.633</ele>
        <time>2021-01-15T13:20:49Z</time>
      </trkpt>
      <trkpt lat="4.647823" lon="-74.3224">
        <ele>2509.664</ele>
        <time>2021-01-15T13:20:54Z</time>
      </trkpt>
      <trkpt lat="4.6478157" lon="-74.322266">
        <ele>2510.48</ele>
        <time>2021-01-15T13:20:59Z</time>
      </trkpt>
      <trkpt lat="4.6478395" lon="-74.32213">
        <ele>2510.736</ele>
        <time>2021-01-15T13:21:04Z</time>
      </trkpt>
      <trkpt lat="4.64786" lon="-74.32199">
        <ele>2512.232</ele>
        <time>2021-01-15T13:21:09Z</time>
      </trkpt>
      <trkpt lat="4.6478653" lon="-74.32186">
        <ele>2512.697</ele>
        <time>2021-01-15T13:21:14Z</time>
      </trkpt>
      <trkpt lat="4.6478395" lon="-74.32173">
        <ele>2513.669</ele>
        <time>2021-01-15T13:21:19Z</time>
      </trkpt>
      <trkpt lat="4.647783" lon="-74.32162">
        <ele>2514.75</ele>
        <time>2021-01-15T13:21:24Z</time>
      </trkpt>
      <trkpt lat="4.647695" lon="-74.32152">
        <ele>2515.685</ele>
        <time>2021-01-15T13:21:29Z</time>
      </trkpt>
      <trkpt lat="4.6475906" lon="-74.321434">
        <ele>2516.824</ele>
        <time>2021-01-15T13:21:34Z</time>
      </trkpt>
      <trkpt lat="4.6474795" lon="-74.321365">
        <ele>2517.68</ele>
        <time>2021-01-15T13:21:39Z</time>
      </trkpt>
      <trkpt lat="4.647363" lon="-74.32129">
        <ele>2519.014</ele>
        <time>2021-01-15T13:21:44Z</time>
      </trkpt>
      <trkpt lat="4.6472573" lon="-74.3212">
        <ele>2520.23</ele>
        <time>2021-01-15T13:21:49Z</time>
      </trkpt>
      <trkpt lat="4.647162" lon="-74.32109">
        <ele>2521.12</ele>
        <time>2021-01-15T13:21:54Z</time>
      </trkpt>
      <trkpt lat="4.64709" lon="-74.32095">
        <ele>2521.532</ele>
        <time>2021-01-15T13:21:59Z</time>
      </trkpt>
      <trkpt lat="4.6470456" lon="-74.32079">
        <ele>2522.613</ele>
        <time>2021-01-15T13:22:04Z</time>
      </trkpt>
      <trkpt lat="4.647019" lon="-74.320625">
        <ele>2523.422</ele>
        <time>2021-01-15T13:22:09Z</time>
      </trkpt>
      <trkpt lat="4.6469803" lon="-74.320465">
        <ele>2524.228</ele>
        <time>2021-01-15T13:22:14Z</time>
      </trkpt>
      <trkpt lat="4.6469097" lon="-74.32033">
        <ele>2525.012</ele>
        <time>2021-01-15T13:22:19Z</time>
      </trkpt>
      <trkpt lat="4.6468105" lon="-74.32021">
        <ele>2526.347</ele>
        <time>2021-01-15T13:22:24Z</time>
      </trkpt>
      <trkpt lat="4.646703" lon="-74.32013">
        <ele>2527.583</ele>
        <time>2021-01-15T13:22:29Z</time>
      </trkpt>
      <trkpt lat="4.6466055" lon="-74.320045">
        <ele>2528.783</ele>
        <time>2021-01-15T13:22:34Z</time>
      </trkpt>
      <trkpt lat="4.6464972" lon="-74.31997">
        <ele>2529.214</ele>
        <time>2021-01-15T13:22:39Z</time>
      </trkpt>
      <trkpt lat="4.646384" lon="-74.31983">
        <ele>2530.432</ele>
        <time>2021-01-15T13:22:45Z</time>
      </trkpt>
      <trkpt lat="4.646304" lon="-74.319695">
        <ele>2531.404</ele>
        <time>2021-01-15T13:22:50Z</time>
      </trkpt>
      <trkpt lat="4.6462474" lon="-74.319534">
        <ele>2532.012</ele>
        <time>2021-01-15T13:22:55Z</time>
      </trkpt>
      <trkpt lat="4.646195" lon="-74.319374">
        <ele>2533.288</ele>
        <time>2021-01-15T13:23:00Z</time>
      </trkpt>
      <trkpt lat="4.646149" lon="-74.319214">
        <ele>2534.091</ele>
        <time>2021-01-15T13:23:05Z</time>
      </trkpt>
      <trkpt lat="4.646106" lon="-74.31906">
        <ele>2534.892</ele>
        <time>2021-01-15T13:23:10Z</time>
      </trkpt>
      <trkpt lat="4.646063" lon="-74.3189">
        <ele>2535.647</ele>
        <time>2021-01-15T13:23:15Z</time>
      </trkpt>
      <trkpt lat="4.645994" lon="-74.31873">
        <ele>2536.097</ele>
        <time>2021-01-15T13:23:20Z</time>
      </trkpt>
      <trkpt lat="4.6459026" lon="-74.31857">
        <ele>2537.164</ele>
        <time>2021-01-15T13:23:25Z</time>
      </trkpt>
      <trkpt lat="4.6457887" lon="-74.31844">
        <ele>2537.775</ele>
        <time>2021-01-15T13:23:30Z</time>
      </trkpt>
      <trkpt lat="4.6456685" lon="-74.31832">
        <ele>2538.287</ele>
        <time>2021-01-15T13:23:35Z</time>
      </trkpt>
      <trkpt lat="4.6455436" lon="-74.31819">
        <ele>2539.4</ele>
        <time>2021-01-15T13:23:40Z</time>
      </trkpt>
      <trkpt lat="4.645392" lon="-74.31804">
        <ele>2540.38</ele>
        <time>2021-01-15T13:23:46Z</time>
      </trkpt>
      <trkpt lat="4.645234" lon="-74.31789">
        <ele>2540.702</ele>
        <time>2021-01-15T13:23:52Z</time>
      </trkpt>
      <trkpt lat="4.645075" lon="-74.317726">
        <ele>2541.458</ele>
        <time>2021-01-15T13:23:57Z</time>
      </trkpt>
      <trkpt lat="4.644867" lon="-74.31752">
        <ele>2542.798</ele>
        <time>2021-01-15T13:24:04Z</time>
      </trkpt>
      <trkpt lat="4.644665" lon="-74.31731">
        <ele>2543.733</ele>
        <time>2021-01-15T13:24:10Z</time>
      </trkpt>
      <trkpt lat="4.6444345" lon="-74.31709">
        <ele>2545.416</ele>
        <time>2021-01-15T13:24:16Z</time>
      </trkpt>
      <trkpt lat="4.6442466" lon="-74.31691">
        <ele>2546.19</ele>
        <time>2021-01-15T13:24:21Z</time>
      </trkpt>
      <trkpt lat="4.6440682" lon="-74.31674">
        <ele>2547.39</ele>
        <time>2021-01-15T13:24:26Z</time>
      </trkpt>
      <trkpt lat="4.6439066" lon="-74.316574">
        <ele>2547.939</ele>
        <time>2021-01-15T13:24:31Z</time>
      </trkpt>
      <trkpt lat="4.643753" lon="-74.316414">
        <ele>2548.745</ele>
        <time>2021-01-15T13:24:36Z</time>
      </trkpt>
      <trkpt lat="4.6436057" lon="-74.31627">
        <ele>2550.159</ele>
        <time>2021-01-15T13:24:41Z</time>
      </trkpt>
      <trkpt lat="4.6434593" lon="-74.31612">
        <ele>2550.576</ele>
        <time>2021-01-15T13:24:46Z</time>
      </trkpt>
      <trkpt lat="4.6433105" lon="-74.31596">
        <ele>2551.023</ele>
        <time>2021-01-15T13:24:51Z</time>
      </trkpt>
      <trkpt lat="4.643163" lon="-74.3158">
        <ele>2551.906</ele>
        <time>2021-01-15T13:24:56Z</time>
      </trkpt>
      <trkpt lat="4.643031" lon="-74.31561">
        <ele>2552.405</ele>
        <time>2021-01-15T13:25:01Z</time>
      </trkpt>
      <trkpt lat="4.6429124" lon="-74.31538">
        <ele>2552.584</ele>
        <time>2021-01-15T13:25:06Z</time>
      </trkpt>
      <trkpt lat="4.642834" lon="-74.31512">
        <ele>2552.667</ele>
        <time>2021-01-15T13:25:11Z</time>
      </trkpt>
      <trkpt lat="4.642776" lon="-74.314835">
        <ele>2553.139</ele>
        <time>2021-01-15T13:25:16Z</time>
      </trkpt>
      <trkpt lat="4.642712" lon="-74.31454">
        <ele>2553.161</ele>
        <time>2021-01-15T13:25:21Z</time>
      </trkpt>
      <trkpt lat="4.642653" lon="-74.31424">
        <ele>2552.875</ele>
        <time>2021-01-15T13:25:26Z</time>
      </trkpt>
      <trkpt lat="4.6426005" lon="-74.31393">
        <ele>2553.811</ele>
        <time>2021-01-15T13:25:31Z</time>
      </trkpt>
      <trkpt lat="4.642538" lon="-74.31363">
        <ele>2554.035</ele>
        <time>2021-01-15T13:25:36Z</time>
      </trkpt>
      <trkpt lat="4.6424828" lon="-74.31334">
        <ele>2554.661</ele>
        <time>2021-01-15T13:25:41Z</time>
      </trkpt>
      <trkpt lat="4.6424327" lon="-74.31305">
        <ele>2555.058</ele>
        <time>2021-01-15T13:25:46Z</time>
      </trkpt>
      <trkpt lat="4.6423726" lon="-74.31275">
        <ele>2555.037</ele>
        <time>2021-01-15T13:25:51Z</time>
      </trkpt>
      <trkpt lat="4.6423154" lon="-74.31246">
        <ele>2554.873</ele>
        <time>2021-01-15T13:25:56Z</time>
      </trkpt>
      <trkpt lat="4.642257" lon="-74.312164">
        <ele>2555.43</ele>
        <time>2021-01-15T13:26:01Z</time>
      </trkpt>
      <trkpt lat="4.642195" lon="-74.31186">
        <ele>2555.816</ele>
        <time>2021-01-15T13:26:06Z</time>
      </trkpt>
      <trkpt lat="4.6421165" lon="-74.31142">
        <ele>2555.998</ele>
        <time>2021-01-15T13:26:13Z</time>
      </trkpt>
      <trkpt lat="4.642056" lon="-74.3111">
        <ele>2557.04</ele>
        <time>2021-01-15T13:26:18Z</time>
      </trkpt>
      <trkpt lat="4.642" lon="-74.31079">
        <ele>2556.997</ele>
        <time>2021-01-15T13:26:23Z</time>
      </trkpt>
      <trkpt lat="4.641948" lon="-74.31049">
        <ele>2557.388</ele>
        <time>2021-01-15T13:26:28Z</time>
      </trkpt>
      <trkpt lat="4.6418934" lon="-74.310196">
        <ele>2556.944</ele>
        <time>2021-01-15T13:26:33Z</time>
      </trkpt>
      <trkpt lat="4.641833" lon="-74.30989">
        <ele>2557.605</ele>
        <time>2021-01-15T13:26:38Z</time>
      </trkpt>
      <trkpt lat="4.6417704" lon="-74.309586">
        <ele>2558.358</ele>
        <time>2021-01-15T13:26:43Z</time>
      </trkpt>
      <trkpt lat="4.641712" lon="-74.30927">
        <ele>2558.181</ele>
        <time>2021-01-15T13:26:48Z</time>
      </trkpt>
      <trkpt lat="4.6416497" lon="-74.308975">
        <ele>2558.797</ele>
        <time>2021-01-15T13:26:53Z</time>
      </trkpt>
      <trkpt lat="4.6415877" lon="-74.30866">
        <ele>2559.344</ele>
        <time>2021-01-15T13:26:58Z</time>
      </trkpt>
      <trkpt lat="4.641524" lon="-74.30834">
        <ele>2559.761</ele>
        <time>2021-01-15T13:27:03Z</time>
      </trkpt>
      <trkpt lat="4.641458" lon="-74.30799">
        <ele>2559.499</ele>
        <time>2021-01-15T13:27:08Z</time>
      </trkpt>
      <trkpt lat="4.6413755" lon="-74.30759">
        <ele>2557.864</ele>
        <time>2021-01-15T13:27:13Z</time>
      </trkpt>
      <trkpt lat="4.6412745" lon="-74.30712">
        <ele>2556.046</ele>
        <time>2021-01-15T13:27:18Z</time>
      </trkpt>
      <trkpt lat="4.641086" lon="-74.30661">
        <ele>2553.491</ele>
        <time>2021-01-15T13:27:23Z</time>
      </trkpt>
      <trkpt lat="4.6406565" lon="-74.30623">
        <ele>2550.317</ele>
        <time>2021-01-15T13:27:28Z</time>
      </trkpt>
      <trkpt lat="4.6401134" lon="-74.305984">
        <ele>2547.419</ele>
        <time>2021-01-15T13:27:33Z</time>
      </trkpt>
      <trkpt lat="4.639539" lon="-74.30573">
        <ele>2543.802</ele>
        <time>2021-01-15T13:27:38Z</time>
      </trkpt>
      <trkpt lat="4.6391425" lon="-74.305275">
        <ele>2542.444</ele>
        <time>2021-01-15T13:27:43Z</time>
      </trkpt>
      <trkpt lat="4.6393714" lon="-74.30478">
        <ele>2539.386</ele>
        <time>2021-01-15T13:27:48Z</time>
      </trkpt>
      <trkpt lat="4.639902" lon="-74.304695">
        <ele>2536.48</ele>
        <time>2021-01-15T13:27:53Z</time>
      </trkpt>
      <trkpt lat="4.6404495" lon="-74.3049">
        <ele>2533.845</ele>
        <time>2021-01-15T13:27:58Z</time>
      </trkpt>
      <trkpt lat="4.641045" lon="-74.30493">
        <ele>2531.135</ele>
        <time>2021-01-15T13:28:03Z</time>
      </trkpt>
      <trkpt lat="4.641646" lon="-74.304306">
        <ele>2527.776</ele>
        <time>2021-01-15T13:28:10Z</time>
      </trkpt>
      <trkpt lat="4.641948" lon="-74.30378">
        <ele>2524.584</ele>
        <time>2021-01-15T13:28:15Z</time>
      </trkpt>
      <trkpt lat="4.64196" lon="-74.30321">
        <ele>2523.332</ele>
        <time>2021-01-15T13:28:20Z</time>
      </trkpt>
      <trkpt lat="4.641732" lon="-74.302795">
        <ele>2523.208</ele>
        <time>2021-01-15T13:28:25Z</time>
      </trkpt>
      <trkpt lat="4.6413994" lon="-74.30256">
        <ele>2523.913</ele>
        <time>2021-01-15T13:28:30Z</time>
      </trkpt>
      <trkpt lat="4.64104" lon="-74.30243">
        <ele>2525.195</ele>
        <time>2021-01-15T13:28:35Z</time>
      </trkpt>
      <trkpt lat="4.640703" lon="-74.302315">
        <ele>2526.407</ele>
        <time>2021-01-15T13:28:40Z</time>
      </trkpt>
      <trkpt lat="4.64039" lon="-74.302185">
        <ele>2527.235</ele>
        <time>2021-01-15T13:28:45Z</time>
      </trkpt>
      <trkpt lat="4.640094" lon="-74.30204">
        <ele>2528.582</ele>
        <time>2021-01-15T13:28:50Z</time>
      </trkpt>
      <trkpt lat="4.6398435" lon="-74.30188">
        <ele>2529.364</ele>
        <time>2021-01-15T13:28:55Z</time>
      </trkpt>
      <trkpt lat="4.6396303" lon="-74.30173">
        <ele>2531.071</ele>
        <time>2021-01-15T13:29:00Z</time>
      </trkpt>
      <trkpt lat="4.639459" lon="-74.30158">
        <ele>2532.31</ele>
        <time>2021-01-15T13:29:05Z</time>
      </trkpt>
      <trkpt lat="4.6393127" lon="-74.301445">
        <ele>2533.692</ele>
        <time>2021-01-15T13:29:10Z</time>
      </trkpt>
      <trkpt lat="4.639173" lon="-74.30133">
        <ele>2534.955</ele>
        <time>2021-01-15T13:29:15Z</time>
      </trkpt>
      <trkpt lat="4.6390567" lon="-74.30121">
        <ele>2536.377</ele>
        <time>2021-01-15T13:29:20Z</time>
      </trkpt>
      <trkpt lat="4.6389537" lon="-74.30107">
        <ele>2537.357</ele>
        <time>2021-01-15T13:29:25Z</time>
      </trkpt>
      <trkpt lat="4.638875" lon="-74.30091">
        <ele>2538.581</ele>
        <time>2021-01-15T13:29:30Z</time>
      </trkpt>
      <trkpt lat="4.638818" lon="-74.300735">
        <ele>2539.931</ele>
        <time>2021-01-15T13:29:35Z</time>
      </trkpt>
      <trkpt lat="4.638788" lon="-74.30055">
        <ele>2540.486</ele>
        <time>2021-01-15T13:29:40Z</time>
      </trkpt>
      <trkpt lat="4.6387672" lon="-74.300354">
        <ele>2541.165</ele>
        <time>2021-01-15T13:29:45Z</time>
      </trkpt>
      <trkpt lat="4.638747" lon="-74.30014">
        <ele>2542.052</ele>
        <time>2021-01-15T13:29:50Z</time>
      </trkpt>
      <trkpt lat="4.638728" lon="-74.299904">
        <ele>2542.375</ele>
        <time>2021-01-15T13:29:55Z</time>
      </trkpt>
      <trkpt lat="4.638641" lon="-74.29967">
        <ele>2542.438</ele>
        <time>2021-01-15T13:30:00Z</time>
      </trkpt>
      <trkpt lat="4.6384897" lon="-74.29948">
        <ele>2543.176</ele>
        <time>2021-01-15T13:30:05Z</time>
      </trkpt>
      <trkpt lat="4.6383004" lon="-74.29932">
        <ele>2543.588</ele>
        <time>2021-01-15T13:30:10Z</time>
      </trkpt>
      <trkpt lat="4.638113" lon="-74.29915">
        <ele>2543.87</ele>
        <time>2021-01-15T13:30:15Z</time>
      </trkpt>
      <trkpt lat="4.6379166" lon="-74.29897">
        <ele>2544.927</ele>
        <time>2021-01-15T13:30:21Z</time>
      </trkpt>
      <trkpt lat="4.637768" lon="-74.29884">
        <ele>2546.167</ele>
        <time>2021-01-15T13:30:26Z</time>
      </trkpt>
      <trkpt lat="4.637642" lon="-74.29873">
        <ele>2547.976</ele>
        <time>2021-01-15T13:30:31Z</time>
      </trkpt>
      <trkpt lat="4.6375327" lon="-74.29861">
        <ele>2548.801</ele>
        <time>2021-01-15T13:30:36Z</time>
      </trkpt>
      <trkpt lat="4.6373796" lon="-74.2985">
        <ele>2549.781</ele>
        <time>2021-01-15T13:30:41Z</time>
      </trkpt>
      <trkpt lat="4.637264" lon="-74.2984">
        <ele>2551.203</ele>
        <time>2021-01-15T13:30:46Z</time>
      </trkpt>
      <trkpt lat="4.6371446" lon="-74.29829">
        <ele>2552.45</ele>
        <time>2021-01-15T13:30:51Z</time>
      </trkpt>
      <trkpt lat="4.637024" lon="-74.29817">
        <ele>2553.311</ele>
        <time>2021-01-15T13:30:56Z</time>
      </trkpt>
      <trkpt lat="4.636897" lon="-74.29805">
        <ele>2554.574</ele>
        <time>2021-01-15T13:31:01Z</time>
      </trkpt>
      <trkpt lat="4.6367774" lon="-74.29792">
        <ele>2555.303</ele>
        <time>2021-01-15T13:31:06Z</time>
      </trkpt>
      <trkpt lat="4.636643" lon="-74.29779">
        <ele>2556.014</ele>
        <time>2021-01-15T13:31:11Z</time>
      </trkpt>
      <trkpt lat="4.6365023" lon="-74.297646">
        <ele>2556.688</ele>
        <time>2021-01-15T13:31:16Z</time>
      </trkpt>
      <trkpt lat="4.636364" lon="-74.29749">
        <ele>2557.6</ele>
        <time>2021-01-15T13:31:21Z</time>
      </trkpt>
      <trkpt lat="4.6362276" lon="-74.29733">
        <ele>2558.625</ele>
        <time>2021-01-15T13:31:26Z</time>
      </trkpt>
      <trkpt lat="4.636068" lon="-74.29717">
        <ele>2559.502</ele>
        <time>2021-01-15T13:31:31Z</time>
      </trkpt>
      <trkpt lat="4.6359067" lon="-74.29702">
        <ele>2560.3</ele>
        <time>2021-01-15T13:31:36Z</time>
      </trkpt>
      <trkpt lat="4.635748" lon="-74.29685">
        <ele>2561.42</ele>
        <time>2021-01-15T13:31:41Z</time>
      </trkpt>
      <trkpt lat="4.6355796" lon="-74.29666">
        <ele>2561.899</ele>
        <time>2021-01-15T13:31:46Z</time>
      </trkpt>
      <trkpt lat="4.63541" lon="-74.296486">
        <ele>2562.879</ele>
        <time>2021-01-15T13:31:51Z</time>
      </trkpt>
      <trkpt lat="4.6352625" lon="-74.29629">
        <ele>2563.444</ele>
        <time>2021-01-15T13:31:56Z</time>
      </trkpt>
      <trkpt lat="4.635144" lon="-74.29603">
        <ele>2563.513</ele>
        <time>2021-01-15T13:32:01Z</time>
      </trkpt>
      <trkpt lat="4.635123" lon="-74.29564">
        <ele>2561.84</ele>
        <time>2021-01-15T13:32:06Z</time>
      </trkpt>
      <trkpt lat="4.6351657" lon="-74.29514">
        <ele>2558.545</ele>
        <time>2021-01-15T13:32:11Z</time>
      </trkpt>
      <trkpt lat="4.635256" lon="-74.294624">
        <ele>2556.561</ele>
        <time>2021-01-15T13:32:16Z</time>
      </trkpt>
      <trkpt lat="4.6356287" lon="-74.29425">
        <ele>2556.088</ele>
        <time>2021-01-15T13:32:21Z</time>
      </trkpt>
      <trkpt lat="4.636173" lon="-74.29426">
        <ele>2553.414</ele>
        <time>2021-01-15T13:32:26Z</time>
      </trkpt>
      <trkpt lat="4.636729" lon="-74.2944">
        <ele>2549.229</ele>
        <time>2021-01-15T13:32:31Z</time>
      </trkpt>
      <trkpt lat="4.637303" lon="-74.29436">
        <ele>2547.572</ele>
        <time>2021-01-15T13:32:36Z</time>
      </trkpt>
      <trkpt lat="4.6377444" lon="-74.29398">
        <ele>2546.565</ele>
        <time>2021-01-15T13:32:41Z</time>
      </trkpt>
      <trkpt lat="4.6382174" lon="-74.29377">
        <ele>2543.91</ele>
        <time>2021-01-15T13:32:46Z</time>
      </trkpt>
      <trkpt lat="4.63869" lon="-74.29369">
        <ele>2543.178</ele>
        <time>2021-01-15T13:32:51Z</time>
      </trkpt>
      <trkpt lat="4.6392717" lon="-74.29375">
        <ele>2542.684</ele>
        <time>2021-01-15T13:32:57Z</time>
      </trkpt>
      <trkpt lat="4.639717" lon="-74.29374">
        <ele>2542.301</ele>
        <time>2021-01-15T13:33:02Z</time>
      </trkpt>
      <trkpt lat="4.640117" lon="-74.293724">
        <ele>2542.705</ele>
        <time>2021-01-15T13:33:07Z</time>
      </trkpt>
      <trkpt lat="4.640462" lon="-74.29371">
        <ele>2543.635</ele>
        <time>2021-01-15T13:33:12Z</time>
      </trkpt>
      <trkpt lat="4.640778" lon="-74.293625">
        <ele>2545.012</ele>
        <time>2021-01-15T13:33:17Z</time>
      </trkpt>
      <trkpt lat="4.6410203" lon="-74.29345">
        <ele>2547.385</ele>
        <time>2021-01-15T13:33:22Z</time>
      </trkpt>
      <trkpt lat="4.6411753" lon="-74.29324">
        <ele>2548.238</ele>
        <time>2021-01-15T13:33:27Z</time>
      </trkpt>
      <trkpt lat="4.641256" lon="-74.293045">
        <ele>2549.329</ele>
        <time>2021-01-15T13:33:32Z</time>
      </trkpt>
      <trkpt lat="4.6412964" lon="-74.29285">
        <ele>2550.352</ele>
        <time>2021-01-15T13:33:37Z</time>
      </trkpt>
      <trkpt lat="4.641301" lon="-74.29266">
        <ele>2551.536</ele>
        <time>2021-01-15T13:33:42Z</time>
      </trkpt>
      <trkpt lat="4.6412992" lon="-74.29249">
        <ele>2552.542</ele>
        <time>2021-01-15T13:33:47Z</time>
      </trkpt>
      <trkpt lat="4.641298" lon="-74.29231">
        <ele>2553.383</ele>
        <time>2021-01-15T13:33:52Z</time>
      </trkpt>
      <trkpt lat="4.641297" lon="-74.292145">
        <ele>2554.244</ele>
        <time>2021-01-15T13:33:57Z</time>
      </trkpt>
      <trkpt lat="4.6412725" lon="-74.29197">
        <ele>2555.042</ele>
        <time>2021-01-15T13:34:02Z</time>
      </trkpt>
      <trkpt lat="4.6412354" lon="-74.291794">
        <ele>2555.776</ele>
        <time>2021-01-15T13:34:07Z</time>
      </trkpt>
      <trkpt lat="4.641169" lon="-74.29163">
        <ele>2556.833</ele>
        <time>2021-01-15T13:34:12Z</time>
      </trkpt>
      <trkpt lat="4.641098" lon="-74.2915">
        <ele>2557.853</ele>
        <time>2021-01-15T13:34:17Z</time>
      </trkpt>
      <trkpt lat="4.6410193" lon="-74.29137">
        <ele>2558.812</ele>
        <time>2021-01-15T13:34:22Z</time>
      </trkpt>
      <trkpt lat="4.6409335" lon="-74.29124">
        <ele>2559.79</ele>
        <time>2021-01-15T13:34:27Z</time>
      </trkpt>
      <trkpt lat="4.640855" lon="-74.29111">
        <ele>2561.161</ele>
        <time>2021-01-15T13:34:32Z</time>
      </trkpt>
      <trkpt lat="4.6407723" lon="-74.29098">
        <ele>2561.936</ele>
        <time>2021-01-15T13:34:37Z</time>
      </trkpt>
      <trkpt lat="4.640696" lon="-74.290855">
        <ele>2563.526</ele>
        <time>2021-01-15T13:34:42Z</time>
      </trkpt>
      <trkpt lat="4.640624" lon="-74.290726">
        <ele>2564.958</ele>
        <time>2021-01-15T13:34:47Z</time>
      </trkpt>
      <trkpt lat="4.640563" lon="-74.2906">
        <ele>2565.357</ele>
        <time>2021-01-15T13:34:52Z</time>
      </trkpt>
      <trkpt lat="4.6405163" lon="-74.29047">
        <ele>2566.356</ele>
        <time>2021-01-15T13:34:57Z</time>
      </trkpt>
      <trkpt lat="4.6404853" lon="-74.29032">
        <ele>2566.99</ele>
        <time>2021-01-15T13:35:02Z</time>
      </trkpt>
      <trkpt lat="4.6404715" lon="-74.29014">
        <ele>2567.698</ele>
        <time>2021-01-15T13:35:07Z</time>
      </trkpt>
      <trkpt lat="4.6404905" lon="-74.28995">
        <ele>2568.47</ele>
        <time>2021-01-15T13:35:12Z</time>
      </trkpt>
      <trkpt lat="4.6405444" lon="-74.28974">
        <ele>2568.359</ele>
        <time>2021-01-15T13:35:17Z</time>
      </trkpt>
      <trkpt lat="4.640643" lon="-74.289505">
        <ele>2568.356</ele>
        <time>2021-01-15T13:35:22Z</time>
      </trkpt>
      <trkpt lat="4.6407743" lon="-74.28924">
        <ele>2567.759</ele>
        <time>2021-01-15T13:35:27Z</time>
      </trkpt>
      <trkpt lat="4.6409607" lon="-74.28895">
        <ele>2567.828</ele>
        <time>2021-01-15T13:35:32Z</time>
      </trkpt>
      <trkpt lat="4.641491" lon="-74.28862">
        <ele>2566.314</ele>
        <time>2021-01-15T13:35:41Z</time>
      </trkpt>
      <trkpt lat="4.641862" lon="-74.28856">
        <ele>2564.652</ele>
        <time>2021-01-15T13:35:46Z</time>
      </trkpt>
      <trkpt lat="4.6422715" lon="-74.288506">
        <ele>2563.151</ele>
        <time>2021-01-15T13:35:51Z</time>
      </trkpt>
      <trkpt lat="4.6427865" lon="-74.288414">
        <ele>2562.078</ele>
        <time>2021-01-15T13:35:57Z</time>
      </trkpt>
      <trkpt lat="4.6432114" lon="-74.28827">
        <ele>2561.83</ele>
        <time>2021-01-15T13:36:02Z</time>
      </trkpt>
      <trkpt lat="4.6436377" lon="-74.28811">
        <ele>2558.807</ele>
        <time>2021-01-15T13:36:07Z</time>
      </trkpt>
      <trkpt lat="4.64408" lon="-74.28793">
        <ele>2557.119</ele>
        <time>2021-01-15T13:36:12Z</time>
      </trkpt>
      <trkpt lat="4.6445227" lon="-74.28774">
        <ele>2555.917</ele>
        <time>2021-01-15T13:36:17Z</time>
      </trkpt>
      <trkpt lat="4.644875" lon="-74.2874">
        <ele>2553.515</ele>
        <time>2021-01-15T13:36:22Z</time>
      </trkpt>
      <trkpt lat="4.645152" lon="-74.287">
        <ele>2551.588</ele>
        <time>2021-01-15T13:36:27Z</time>
      </trkpt>
      <trkpt lat="4.6454477" lon="-74.2866">
        <ele>2550.146</ele>
        <time>2021-01-15T13:36:32Z</time>
      </trkpt>
      <trkpt lat="4.645775" lon="-74.28616">
        <ele>2548.132</ele>
        <time>2021-01-15T13:36:37Z</time>
      </trkpt>
      <trkpt lat="4.6461086" lon="-74.28572">
        <ele>2546.579</ele>
        <time>2021-01-15T13:36:42Z</time>
      </trkpt>
      <trkpt lat="4.6464725" lon="-74.28534">
        <ele>2544.473</ele>
        <time>2021-01-15T13:36:47Z</time>
      </trkpt>
      <trkpt lat="4.6469707" lon="-74.28522">
        <ele>2543.815</ele>
        <time>2021-01-15T13:36:52Z</time>
      </trkpt>
      <trkpt lat="4.6474495" lon="-74.285385">
        <ele>2542.605</ele>
        <time>2021-01-15T13:36:57Z</time>
      </trkpt>
      <trkpt lat="4.647906" lon="-74.28562">
        <ele>2541.492</ele>
        <time>2021-01-15T13:37:02Z</time>
      </trkpt>
      <trkpt lat="4.648325" lon="-74.28585">
        <ele>2541.638</ele>
        <time>2021-01-15T13:37:07Z</time>
      </trkpt>
      <trkpt lat="4.6487365" lon="-74.286064">
        <ele>2541.696</ele>
        <time>2021-01-15T13:37:12Z</time>
      </trkpt>
      <trkpt lat="4.649122" lon="-74.28627">
        <ele>2541.545</ele>
        <time>2021-01-15T13:37:17Z</time>
      </trkpt>
      <trkpt lat="4.649481" lon="-74.28648">
        <ele>2541.355</ele>
        <time>2021-01-15T13:37:22Z</time>
      </trkpt>
      <trkpt lat="4.649822" lon="-74.28664">
        <ele>2541.902</ele>
        <time>2021-01-15T13:37:27Z</time>
      </trkpt>
      <trkpt lat="4.6502132" lon="-74.2867">
        <ele>2544.28</ele>
        <time>2021-01-15T13:37:34Z</time>
      </trkpt>
      <trkpt lat="4.650466" lon="-74.28672">
        <ele>2546.09</ele>
        <time>2021-01-15T13:37:39Z</time>
      </trkpt>
      <trkpt lat="4.6506925" lon="-74.28676">
        <ele>2546.769</ele>
        <time>2021-01-15T13:37:44Z</time>
      </trkpt>
      <trkpt lat="4.650926" lon="-74.28678">
        <ele>2547.945</ele>
        <time>2021-01-15T13:37:49Z</time>
      </trkpt>
      <trkpt lat="4.651131" lon="-74.2868">
        <ele>2548.793</ele>
        <time>2021-01-15T13:37:54Z</time>
      </trkpt>
      <trkpt lat="4.651323" lon="-74.286804">
        <ele>2549.715</ele>
        <time>2021-01-15T13:37:59Z</time>
      </trkpt>
      <trkpt lat="4.651503" lon="-74.28681">
        <ele>2550.981</ele>
        <time>2021-01-15T13:38:04Z</time>
      </trkpt>
      <trkpt lat="4.6516957" lon="-74.28681">
        <ele>2551.906</ele>
        <time>2021-01-15T13:38:09Z</time>
      </trkpt>
      <trkpt lat="4.651888" lon="-74.28681">
        <ele>2552.484</ele>
        <time>2021-01-15T13:38:14Z</time>
      </trkpt>
      <trkpt lat="4.6520767" lon="-74.286804">
        <ele>2553.343</ele>
        <time>2021-01-15T13:38:19Z</time>
      </trkpt>
      <trkpt lat="4.6522646" lon="-74.2868">
        <ele>2554.075</ele>
        <time>2021-01-15T13:38:24Z</time>
      </trkpt>
      <trkpt lat="4.652454" lon="-74.28678">
        <ele>2554.934</ele>
        <time>2021-01-15T13:38:29Z</time>
      </trkpt>
      <trkpt lat="4.652642" lon="-74.286766">
        <ele>2555.724</ele>
        <time>2021-01-15T13:38:34Z</time>
      </trkpt>
      <trkpt lat="4.652833" lon="-74.28675">
        <ele>2556.479</ele>
        <time>2021-01-15T13:38:39Z</time>
      </trkpt>
      <trkpt lat="4.6530123" lon="-74.28673">
        <ele>2557.441</ele>
        <time>2021-01-15T13:38:44Z</time>
      </trkpt>
      <trkpt lat="4.6532664" lon="-74.28669">
        <ele>2558.503</ele>
        <time>2021-01-15T13:38:51Z</time>
      </trkpt>
      <trkpt lat="4.6534452" lon="-74.28666">
        <ele>2559.256</ele>
        <time>2021-01-15T13:38:56Z</time>
      </trkpt>
      <trkpt lat="4.6536093" lon="-74.28662">
        <ele>2560.147</ele>
        <time>2021-01-15T13:39:01Z</time>
      </trkpt>
      <trkpt lat="4.6537585" lon="-74.28657">
        <ele>2560.939</ele>
        <time>2021-01-15T13:39:06Z</time>
      </trkpt>
      <trkpt lat="4.653913" lon="-74.28653">
        <ele>2562.279</ele>
        <time>2021-01-15T13:39:11Z</time>
      </trkpt>
      <trkpt lat="4.654079" lon="-74.28647">
        <ele>2563.566</ele>
        <time>2021-01-15T13:39:16Z</time>
      </trkpt>
      <trkpt lat="4.6542387" lon="-74.286415">
        <ele>2564.414</ele>
        <time>2021-01-15T13:39:21Z</time>
      </trkpt>
      <trkpt lat="4.654392" lon="-74.28636">
        <ele>2565.685</ele>
        <time>2021-01-15T13:39:26Z</time>
      </trkpt>
      <trkpt lat="4.654537" lon="-74.286316">
        <ele>2566.401</ele>
        <time>2021-01-15T13:39:31Z</time>
      </trkpt>
      <trkpt lat="4.654689" lon="-74.28628">
        <ele>2567.479</ele>
        <time>2021-01-15T13:39:36Z</time>
      </trkpt>
      <trkpt lat="4.654844" lon="-74.28624">
        <ele>2568.541</ele>
        <time>2021-01-15T13:39:41Z</time>
      </trkpt>
      <trkpt lat="4.6550016" lon="-74.28621">
        <ele>2569.17</ele>
        <time>2021-01-15T13:39:46Z</time>
      </trkpt>
      <trkpt lat="4.6551595" lon="-74.28616">
        <ele>2569.992</ele>
        <time>2021-01-15T13:39:51Z</time>
      </trkpt>
      <trkpt lat="4.6553116" lon="-74.28613">
        <ele>2570.835</ele>
        <time>2021-01-15T13:39:56Z</time>
      </trkpt>
      <trkpt lat="4.655462" lon="-74.286095">
        <ele>2572.169</ele>
        <time>2021-01-15T13:40:01Z</time>
      </trkpt>
      <trkpt lat="4.655603" lon="-74.28605">
        <ele>2573.279</ele>
        <time>2021-01-15T13:40:06Z</time>
      </trkpt>
      <trkpt lat="4.65574" lon="-74.28602">
        <ele>2573.725</ele>
        <time>2021-01-15T13:40:11Z</time>
      </trkpt>
      <trkpt lat="4.6558747" lon="-74.28597">
        <ele>2574.624</ele>
        <time>2021-01-15T13:40:16Z</time>
      </trkpt>
      <trkpt lat="4.656016" lon="-74.285934">
        <ele>2575.358</ele>
        <time>2021-01-15T13:40:21Z</time>
      </trkpt>
      <trkpt lat="4.656169" lon="-74.2859">
        <ele>2576.389</ele>
        <time>2021-01-15T13:40:26Z</time>
      </trkpt>
      <trkpt lat="4.656328" lon="-74.28585">
        <ele>2577.06</ele>
        <time>2021-01-15T13:40:31Z</time>
      </trkpt>
      <trkpt lat="4.6564817" lon="-74.285805">
        <ele>2578.204</ele>
        <time>2021-01-15T13:40:36Z</time>
      </trkpt>
      <trkpt lat="4.6566305" lon="-74.28577">
        <ele>2579.232</ele>
        <time>2021-01-15T13:40:41Z</time>
      </trkpt>
      <trkpt lat="4.656782" lon="-74.28573">
        <ele>2579.895</ele>
        <time>2021-01-15T13:40:46Z</time>
      </trkpt>
      <trkpt lat="4.656939" lon="-74.2857">
        <ele>2581.126</ele>
        <time>2021-01-15T13:40:51Z</time>
      </trkpt>
      <trkpt lat="4.6571107" lon="-74.285675">
        <ele>2581.504</ele>
        <time>2021-01-15T13:40:56Z</time>
      </trkpt>
      <trkpt lat="4.6572886" lon="-74.285675">
        <ele>2582.146</ele>
        <time>2021-01-15T13:41:01Z</time>
      </trkpt>
      <trkpt lat="4.6574683" lon="-74.2857">
        <ele>2582.717</ele>
        <time>2021-01-15T13:41:06Z</time>
      </trkpt>
      <trkpt lat="4.6576514" lon="-74.28573">
        <ele>2583.473</ele>
        <time>2021-01-15T13:41:11Z</time>
      </trkpt>
      <trkpt lat="4.6578274" lon="-74.28576">
        <ele>2583.798</ele>
        <time>2021-01-15T13:41:16Z</time>
      </trkpt>
      <trkpt lat="4.6579967" lon="-74.28579">
        <ele>2584.141</ele>
        <time>2021-01-15T13:41:21Z</time>
      </trkpt>
      <trkpt lat="4.6583056" lon="-74.28584">
        <ele>2585.513</ele>
        <time>2021-01-15T13:41:30Z</time>
      </trkpt>
      <trkpt lat="4.6584816" lon="-74.28587">
        <ele>2585.756</ele>
        <time>2021-01-15T13:41:35Z</time>
      </trkpt>
      <trkpt lat="4.658664" lon="-74.28587">
        <ele>2586.26</ele>
        <time>2021-01-15T13:41:40Z</time>
      </trkpt>
      <trkpt lat="4.658848" lon="-74.28585">
        <ele>2587.093</ele>
        <time>2021-01-15T13:41:45Z</time>
      </trkpt>
      <trkpt lat="4.6590185" lon="-74.28579">
        <ele>2588.419</ele>
        <time>2021-01-15T13:41:50Z</time>
      </trkpt>
      <trkpt lat="4.6591806" lon="-74.28573">
        <ele>2589.555</ele>
        <time>2021-01-15T13:41:55Z</time>
      </trkpt>
      <trkpt lat="4.6593337" lon="-74.28567">
        <ele>2590.401</ele>
        <time>2021-01-15T13:42:00Z</time>
      </trkpt>
      <trkpt lat="4.6594753" lon="-74.28561">
        <ele>2591.674</ele>
        <time>2021-01-15T13:42:05Z</time>
      </trkpt>
      <trkpt lat="4.6596146" lon="-74.285545">
        <ele>2592.338</ele>
        <time>2021-01-15T13:42:10Z</time>
      </trkpt>
      <trkpt lat="4.659752" lon="-74.28549">
        <ele>2593.471</ele>
        <time>2021-01-15T13:42:15Z</time>
      </trkpt>
      <trkpt lat="4.6598854" lon="-74.28543">
        <ele>2593.905</ele>
        <time>2021-01-15T13:42:20Z</time>
      </trkpt>
      <trkpt lat="4.6600175" lon="-74.28536">
        <ele>2594.634</ele>
        <time>2021-01-15T13:42:25Z</time>
      </trkpt>
      <trkpt lat="4.6601453" lon="-74.28531">
        <ele>2595.923</ele>
        <time>2021-01-15T13:42:30Z</time>
      </trkpt>
      <trkpt lat="4.660263" lon="-74.28525">
        <ele>2596.647</ele>
        <time>2021-01-15T13:42:35Z</time>
      </trkpt>
      <trkpt lat="4.6603847" lon="-74.285194">
        <ele>2597.482</ele>
        <time>2021-01-15T13:42:40Z</time>
      </trkpt>
      <trkpt lat="4.660517" lon="-74.285126">
        <ele>2598.708</ele>
        <time>2021-01-15T13:42:45Z</time>
      </trkpt>
      <trkpt lat="4.660646" lon="-74.28505">
        <ele>2599.699</ele>
        <time>2021-01-15T13:42:50Z</time>
      </trkpt>
      <trkpt lat="4.660774" lon="-74.28499">
        <ele>2600.817</ele>
        <time>2021-01-15T13:42:55Z</time>
      </trkpt>
      <trkpt lat="4.6609116" lon="-74.284935">
        <ele>2601.723</ele>
        <time>2021-01-15T13:43:00Z</time>
      </trkpt>
      <trkpt lat="4.6610603" lon="-74.28488">
        <ele>2601.908</ele>
        <time>2021-01-15T13:43:05Z</time>
      </trkpt>
      <trkpt lat="4.6612415" lon="-74.28482">
        <ele>2601.749</ele>
        <time>2021-01-15T13:43:10Z</time>
      </trkpt>
      <trkpt lat="4.661417" lon="-74.28479">
        <ele>2601.496</ele>
        <time>2021-01-15T13:43:15Z</time>
      </trkpt>
      <trkpt lat="4.6614623" lon="-74.28477">
        <ele>2601.041</ele>
        <time>2021-01-15T13:43:20Z</time>
      </trkpt>
      <trkpt lat="4.662021" lon="-74.2846">
        <ele>2599.535</ele>
        <time>2021-01-15T13:50:41Z</time>
      </trkpt>
      <trkpt lat="4.662256" lon="-74.284454">
        <ele>2599.065</ele>
        <time>2021-01-15T13:50:46Z</time>
      </trkpt>
      <trkpt lat="4.66248" lon="-74.28427">
        <ele>2598.412</ele>
        <time>2021-01-15T13:50:51Z</time>
      </trkpt>
      <trkpt lat="4.662691" lon="-74.28404">
        <ele>2597.646</ele>
        <time>2021-01-15T13:50:56Z</time>
      </trkpt>
      <trkpt lat="4.662861" lon="-74.28374">
        <ele>2595.928</ele>
        <time>2021-01-15T13:51:01Z</time>
      </trkpt>
      <trkpt lat="4.6630535" lon="-74.283356">
        <ele>2593.556</ele>
        <time>2021-01-15T13:51:06Z</time>
      </trkpt>
      <trkpt lat="4.66329" lon="-74.28291">
        <ele>2590.356</ele>
        <time>2021-01-15T13:51:11Z</time>
      </trkpt>
      <trkpt lat="4.663533" lon="-74.282425">
        <ele>2587.042</ele>
        <time>2021-01-15T13:51:16Z</time>
      </trkpt>
      <trkpt lat="4.663774" lon="-74.281876">
        <ele>2582.691</ele>
        <time>2021-01-15T13:51:21Z</time>
      </trkpt>
      <trkpt lat="4.6639214" lon="-74.28125">
        <ele>2578.275</ele>
        <time>2021-01-15T13:51:26Z</time>
      </trkpt>
      <trkpt lat="4.664067" lon="-74.28061">
        <ele>2573.926</ele>
        <time>2021-01-15T13:51:31Z</time>
      </trkpt>
      <trkpt lat="4.6642203" lon="-74.279976">
        <ele>2568.776</ele>
        <time>2021-01-15T13:51:36Z</time>
      </trkpt>
      <trkpt lat="4.6644325" lon="-74.279076">
        <ele>2563.325</ele>
        <time>2021-01-15T13:51:43Z</time>
      </trkpt>
      <trkpt lat="4.664644" lon="-74.278465">
        <ele>2557.158</ele>
        <time>2021-01-15T13:51:48Z</time>
      </trkpt>
      <trkpt lat="4.664925" lon="-74.27787">
        <ele>2552.563</ele>
        <time>2021-01-15T13:51:53Z</time>
      </trkpt>
      <trkpt lat="4.6651654" lon="-74.27727">
        <ele>2548.489</ele>
        <time>2021-01-15T13:51:58Z</time>
      </trkpt>
      <trkpt lat="4.6653337" lon="-74.27666">
        <ele>2544.824</ele>
        <time>2021-01-15T13:52:03Z</time>
      </trkpt>
      <trkpt lat="4.665553" lon="-74.27617">
        <ele>2538.549</ele>
        <time>2021-01-15T13:52:08Z</time>
      </trkpt>
      <trkpt lat="4.6658473" lon="-74.2758">
        <ele>2535.571</ele>
        <time>2021-01-15T13:52:13Z</time>
      </trkpt>
      <trkpt lat="4.666185" lon="-74.275345">
        <ele>2532.184</ele>
        <time>2021-01-15T13:52:18Z</time>
      </trkpt>
      <trkpt lat="4.6665106" lon="-74.27484">
        <ele>2528.772</ele>
        <time>2021-01-15T13:52:23Z</time>
      </trkpt>
      <trkpt lat="4.6667323" lon="-74.274284">
        <ele>2525.702</ele>
        <time>2021-01-15T13:52:28Z</time>
      </trkpt>
      <trkpt lat="4.666952" lon="-74.27366">
        <ele>2522.473</ele>
        <time>2021-01-15T13:52:33Z</time>
      </trkpt>
      <trkpt lat="4.6668687" lon="-74.27302">
        <ele>2517.937</ele>
        <time>2021-01-15T13:52:38Z</time>
      </trkpt>
      <trkpt lat="4.6666784" lon="-74.27239">
        <ele>2513.344</ele>
        <time>2021-01-15T13:52:43Z</time>
      </trkpt>
      <trkpt lat="4.6669493" lon="-74.27161">
        <ele>2511.423</ele>
        <time>2021-01-15T13:52:51Z</time>
      </trkpt>
      <trkpt lat="4.6674237" lon="-74.27131">
        <ele>2509.164</ele>
        <time>2021-01-15T13:52:56Z</time>
      </trkpt>
      <trkpt lat="4.6677213" lon="-74.27087">
        <ele>2507.774</ele>
        <time>2021-01-15T13:53:01Z</time>
      </trkpt>
      <trkpt lat="4.667886" lon="-74.270386">
        <ele>2506.736</ele>
        <time>2021-01-15T13:53:06Z</time>
      </trkpt>
      <trkpt lat="4.6680317" lon="-74.2699">
        <ele>2505.851</ele>
        <time>2021-01-15T13:53:11Z</time>
      </trkpt>
      <trkpt lat="4.668057" lon="-74.2694">
        <ele>2504.511</ele>
        <time>2021-01-15T13:53:16Z</time>
      </trkpt>
      <trkpt lat="4.668036" lon="-74.26889">
        <ele>2501.967</ele>
        <time>2021-01-15T13:53:21Z</time>
      </trkpt>
      <trkpt lat="4.668023" lon="-74.26835">
        <ele>2498.605</ele>
        <time>2021-01-15T13:53:26Z</time>
      </trkpt>
      <trkpt lat="4.668217" lon="-74.26783">
        <ele>2495.789</ele>
        <time>2021-01-15T13:53:31Z</time>
      </trkpt>
      <trkpt lat="4.6686883" lon="-74.26749">
        <ele>2491.606</ele>
        <time>2021-01-15T13:53:36Z</time>
      </trkpt>
      <trkpt lat="4.6692815" lon="-74.267235">
        <ele>2487.643</ele>
        <time>2021-01-15T13:53:41Z</time>
      </trkpt>
      <trkpt lat="4.669881" lon="-74.26699">
        <ele>2483.383</ele>
        <time>2021-01-15T13:53:46Z</time>
      </trkpt>
      <trkpt lat="4.6704655" lon="-74.26669">
        <ele>2480.001</ele>
        <time>2021-01-15T13:53:51Z</time>
      </trkpt>
      <trkpt lat="4.6710024" lon="-74.26631">
        <ele>2475.998</ele>
        <time>2021-01-15T13:53:56Z</time>
      </trkpt>
      <trkpt lat="4.6715" lon="-74.265884">
        <ele>2470.936</ele>
        <time>2021-01-15T13:54:01Z</time>
      </trkpt>
      <trkpt lat="4.671848" lon="-74.265335">
        <ele>2466.832</ele>
        <time>2021-01-15T13:54:06Z</time>
      </trkpt>
      <trkpt lat="4.6721244" lon="-74.26483">
        <ele>2462.285</ele>
        <time>2021-01-15T13:54:11Z</time>
      </trkpt>
      <trkpt lat="4.6724787" lon="-74.26392">
        <ele>2456.115</ele>
        <time>2021-01-15T13:54:20Z</time>
      </trkpt>
      <trkpt lat="4.672493" lon="-74.26339">
        <ele>2451.467</ele>
        <time>2021-01-15T13:54:25Z</time>
      </trkpt>
      <trkpt lat="4.672277" lon="-74.262886">
        <ele>2448.698</ele>
        <time>2021-01-15T13:54:30Z</time>
      </trkpt>
      <trkpt lat="4.672137" lon="-74.26236">
        <ele>2445.76</ele>
        <time>2021-01-15T13:54:35Z</time>
      </trkpt>
      <trkpt lat="4.672102" lon="-74.26182">
        <ele>2443.057</ele>
        <time>2021-01-15T13:54:40Z</time>
      </trkpt>
      <trkpt lat="4.6722083" lon="-74.2614">
        <ele>2441.818</ele>
        <time>2021-01-15T13:54:45Z</time>
      </trkpt>
      <trkpt lat="4.6724305" lon="-74.26115">
        <ele>2440.127</ele>
        <time>2021-01-15T13:54:50Z</time>
      </trkpt>
      <trkpt lat="4.672745" lon="-74.260895">
        <ele>2438.65</ele>
        <time>2021-01-15T13:54:55Z</time>
      </trkpt>
      <trkpt lat="4.673087" lon="-74.26061">
        <ele>2437.704</ele>
        <time>2021-01-15T13:55:00Z</time>
      </trkpt>
      <trkpt lat="4.673446" lon="-74.26032">
        <ele>2436.298</ele>
        <time>2021-01-15T13:55:05Z</time>
      </trkpt>
      <trkpt lat="4.6738224" lon="-74.25998">
        <ele>2432.845</ele>
        <time>2021-01-15T13:55:10Z</time>
      </trkpt>
      <trkpt lat="4.674196" lon="-74.259544">
        <ele>2429.13</ele>
        <time>2021-01-15T13:55:15Z</time>
      </trkpt>
      <trkpt lat="4.6745706" lon="-74.25908">
        <ele>2426.863</ele>
        <time>2021-01-15T13:55:20Z</time>
      </trkpt>
      <trkpt lat="4.6750045" lon="-74.258705">
        <ele>2425.465</ele>
        <time>2021-01-15T13:55:25Z</time>
      </trkpt>
      <trkpt lat="4.6755357" lon="-74.25851">
        <ele>2424.014</ele>
        <time>2021-01-15T13:55:30Z</time>
      </trkpt>
      <trkpt lat="4.676018" lon="-74.258354">
        <ele>2422.561</ele>
        <time>2021-01-15T13:55:35Z</time>
      </trkpt>
      <trkpt lat="4.6764345" lon="-74.25823">
        <ele>2422.27</ele>
        <time>2021-01-15T13:55:40Z</time>
      </trkpt>
      <trkpt lat="4.676917" lon="-74.25807">
        <ele>2421.858</ele>
        <time>2021-01-15T13:55:47Z</time>
      </trkpt>
      <trkpt lat="4.677209" lon="-74.257996">
        <ele>2420.278</ele>
        <time>2021-01-15T13:55:52Z</time>
      </trkpt>
      <trkpt lat="4.6774516" lon="-74.25795">
        <ele>2421.155</ele>
        <time>2021-01-15T13:55:57Z</time>
      </trkpt>
      <trkpt lat="4.6777406" lon="-74.25785">
        <ele>2420.904</ele>
        <time>2021-01-15T13:56:02Z</time>
      </trkpt>
      <trkpt lat="4.6780376" lon="-74.25774">
        <ele>2420.532</ele>
        <time>2021-01-15T13:56:07Z</time>
      </trkpt>
      <trkpt lat="4.6783295" lon="-74.25762">
        <ele>2420.738</ele>
        <time>2021-01-15T13:56:12Z</time>
      </trkpt>
      <trkpt lat="4.6785975" lon="-74.25752">
        <ele>2420.627</ele>
        <time>2021-01-15T13:56:17Z</time>
      </trkpt>
      <trkpt lat="4.678859" lon="-74.25743">
        <ele>2421.713</ele>
        <time>2021-01-15T13:56:22Z</time>
      </trkpt>
      <trkpt lat="4.6790833" lon="-74.25735">
        <ele>2421.192</ele>
        <time>2021-01-15T13:56:27Z</time>
      </trkpt>
      <trkpt lat="4.6792927" lon="-74.25727">
        <ele>2422.292</ele>
        <time>2021-01-15T13:56:32Z</time>
      </trkpt>
      <trkpt lat="4.67949" lon="-74.257195">
        <ele>2422.738</ele>
        <time>2021-01-15T13:56:37Z</time>
      </trkpt>
      <trkpt lat="4.6796823" lon="-74.25712">
        <ele>2422.49</ele>
        <time>2021-01-15T13:56:42Z</time>
      </trkpt>
      <trkpt lat="4.6798716" lon="-74.25705">
        <ele>2422.912</ele>
        <time>2021-01-15T13:56:47Z</time>
      </trkpt>
      <trkpt lat="4.6800656" lon="-74.25697">
        <ele>2423.723</ele>
        <time>2021-01-15T13:56:52Z</time>
      </trkpt>
      <trkpt lat="4.6802516" lon="-74.2569">
        <ele>2423.827</ele>
        <time>2021-01-15T13:56:57Z</time>
      </trkpt>
      <trkpt lat="4.6804423" lon="-74.25682">
        <ele>2423.972</ele>
        <time>2021-01-15T13:57:02Z</time>
      </trkpt>
      <trkpt lat="4.6806245" lon="-74.25674">
        <ele>2424.329</ele>
        <time>2021-01-15T13:57:07Z</time>
      </trkpt>
      <trkpt lat="4.680816" lon="-74.25664">
        <ele>2424.439</ele>
        <time>2021-01-15T13:57:12Z</time>
      </trkpt>
      <trkpt lat="4.6810246" lon="-74.25653">
        <ele>2424.868</ele>
        <time>2021-01-15T13:57:17Z</time>
      </trkpt>
      <trkpt lat="4.681234" lon="-74.25643">
        <ele>2424.862</ele>
        <time>2021-01-15T13:57:22Z</time>
      </trkpt>
      <trkpt lat="4.6814237" lon="-74.25633">
        <ele>2424.244</ele>
        <time>2021-01-15T13:57:27Z</time>
      </trkpt>
      <trkpt lat="4.68159" lon="-74.25623">
        <ele>2424.072</ele>
        <time>2021-01-15T13:57:32Z</time>
      </trkpt>
      <trkpt lat="4.6817727" lon="-74.25612">
        <ele>2424.101</ele>
        <time>2021-01-15T13:57:37Z</time>
      </trkpt>
      <trkpt lat="4.6819744" lon="-74.25599">
        <ele>2424.268</ele>
        <time>2021-01-15T13:57:42Z</time>
      </trkpt>
      <trkpt lat="4.6821704" lon="-74.255844">
        <ele>2423.216</ele>
        <time>2021-01-15T13:57:47Z</time>
      </trkpt>
      <trkpt lat="4.6823616" lon="-74.25569">
        <ele>2422.532</ele>
        <time>2021-01-15T13:57:52Z</time>
      </trkpt>
      <trkpt lat="4.6825566" lon="-74.25552">
        <ele>2422.059</ele>
        <time>2021-01-15T13:57:57Z</time>
      </trkpt>
      <trkpt lat="4.6827474" lon="-74.25533">
        <ele>2421.528</ele>
        <time>2021-01-15T13:58:02Z</time>
      </trkpt>
      <trkpt lat="4.6829343" lon="-74.255135">
        <ele>2420.97</ele>
        <time>2021-01-15T13:58:07Z</time>
      </trkpt>
      <trkpt lat="4.683128" lon="-74.25494">
        <ele>2420.598</ele>
        <time>2021-01-15T13:58:12Z</time>
      </trkpt>
      <trkpt lat="4.683317" lon="-74.25473">
        <ele>2419.49</ele>
        <time>2021-01-15T13:58:17Z</time>
      </trkpt>
      <trkpt lat="4.68351" lon="-74.25453">
        <ele>2419.01</ele>
        <time>2021-01-15T13:58:22Z</time>
      </trkpt>
      <trkpt lat="4.6837025" lon="-74.25433">
        <ele>2418.505</ele>
        <time>2021-01-15T13:58:27Z</time>
      </trkpt>
      <trkpt lat="4.683987" lon="-74.25403">
        <ele>2417.91</ele>
        <time>2021-01-15T13:58:35Z</time>
      </trkpt>
      <trkpt lat="4.6841593" lon="-74.253845">
        <ele>2417.715</ele>
        <time>2021-01-15T13:58:40Z</time>
      </trkpt>
      <trkpt lat="4.684333" lon="-74.25366">
        <ele>2418.085</ele>
        <time>2021-01-15T13:58:45Z</time>
      </trkpt>
      <trkpt lat="4.6845007" lon="-74.25349">
        <ele>2417.826</ele>
        <time>2021-01-15T13:58:50Z</time>
      </trkpt>
      <trkpt lat="4.684663" lon="-74.25332">
        <ele>2418.315</ele>
        <time>2021-01-15T13:58:55Z</time>
      </trkpt>
      <trkpt lat="4.6848187" lon="-74.25314">
        <ele>2418.658</ele>
        <time>2021-01-15T13:59:00Z</time>
      </trkpt>
      <trkpt lat="4.68497" lon="-74.252975">
        <ele>2418.619</ele>
        <time>2021-01-15T13:59:05Z</time>
      </trkpt>
      <trkpt lat="4.6851196" lon="-74.25282">
        <ele>2419.018</ele>
        <time>2021-01-15T13:59:10Z</time>
      </trkpt>
      <trkpt lat="4.685256" lon="-74.25268">
        <ele>2419.443</ele>
        <time>2021-01-15T13:59:15Z</time>
      </trkpt>
      <trkpt lat="4.6853976" lon="-74.25252">
        <ele>2418.938</ele>
        <time>2021-01-15T13:59:20Z</time>
      </trkpt>
      <trkpt lat="4.685529" lon="-74.25237">
        <ele>2419.353</ele>
        <time>2021-01-15T13:59:25Z</time>
      </trkpt>
      <trkpt lat="4.6856585" lon="-74.252235">
        <ele>2419.72</ele>
        <time>2021-01-15T13:59:30Z</time>
      </trkpt>
      <trkpt lat="4.685793" lon="-74.2521">
        <ele>2419.72</ele>
        <time>2021-01-15T13:59:35Z</time>
      </trkpt>
      <trkpt lat="4.6859303" lon="-74.25196">
        <ele>2420.289</ele>
        <time>2021-01-15T13:59:40Z</time>
      </trkpt>
      <trkpt lat="4.6860595" lon="-74.25183">
        <ele>2420.222</ele>
        <time>2021-01-15T13:59:45Z</time>
      </trkpt>
      <trkpt lat="4.6861935" lon="-74.25169">
        <ele>2420.64</ele>
        <time>2021-01-15T13:59:50Z</time>
      </trkpt>
      <trkpt lat="4.6863275" lon="-74.25155">
        <ele>2420.743</ele>
        <time>2021-01-15T13:59:55Z</time>
      </trkpt>
      <trkpt lat="4.686453" lon="-74.25141">
        <ele>2420.447</ele>
        <time>2021-01-15T14:00:00Z</time>
      </trkpt>
      <trkpt lat="4.6865616" lon="-74.2513">
        <ele>2420.925</ele>
        <time>2021-01-15T14:00:05Z</time>
      </trkpt>
      <trkpt lat="4.6866918" lon="-74.25115">
        <ele>2421.388</ele>
        <time>2021-01-15T14:00:10Z</time>
      </trkpt>
      <trkpt lat="4.686821" lon="-74.251015">
        <ele>2421.636</ele>
        <time>2021-01-15T14:00:15Z</time>
      </trkpt>
      <trkpt lat="4.6869497" lon="-74.250885">
        <ele>2421.911</ele>
        <time>2021-01-15T14:00:20Z</time>
      </trkpt>
      <trkpt lat="4.687075" lon="-74.250755">
        <ele>2421.948</ele>
        <time>2021-01-15T14:00:25Z</time>
      </trkpt>
      <trkpt lat="4.6871796" lon="-74.250626">
        <ele>2422.048</ele>
        <time>2021-01-15T14:00:30Z</time>
      </trkpt>
      <trkpt lat="4.6873035" lon="-74.250496">
        <ele>2422.18</ele>
        <time>2021-01-15T14:00:35Z</time>
      </trkpt>
      <trkpt lat="4.687431" lon="-74.25036">
        <ele>2422.447</ele>
        <time>2021-01-15T14:00:40Z</time>
      </trkpt>
      <trkpt lat="4.6875696" lon="-74.25021">
        <ele>2422.067</ele>
        <time>2021-01-15T14:00:45Z</time>
      </trkpt>
      <trkpt lat="4.687687" lon="-74.25006">
        <ele>2422.466</ele>
        <time>2021-01-15T14:00:50Z</time>
      </trkpt>
      <trkpt lat="4.6877565" lon="-74.24995">
        <ele>2422.569</ele>
        <time>2021-01-15T14:00:55Z</time>
      </trkpt>
      <trkpt lat="4.687788" lon="-74.24979">
        <ele>2422.101</ele>
        <time>2021-01-15T14:01:05Z</time>
      </trkpt>
      <trkpt lat="4.687879" lon="-74.249664">
        <ele>2422.503</ele>
        <time>2021-01-15T14:01:30Z</time>
      </trkpt>
      <trkpt lat="4.6879683" lon="-74.24958">
        <ele>2423.118</ele>
        <time>2021-01-15T14:01:35Z</time>
      </trkpt>
      <trkpt lat="4.6880746" lon="-74.24948">
        <ele>2422.209</ele>
        <time>2021-01-15T14:01:40Z</time>
      </trkpt>
      <trkpt lat="4.6881604" lon="-74.24939">
        <ele>2422.233</ele>
        <time>2021-01-15T14:01:45Z</time>
      </trkpt>
      <trkpt lat="4.6882744" lon="-74.24929">
        <ele>2422.175</ele>
        <time>2021-01-15T14:01:50Z</time>
      </trkpt>
      <trkpt lat="4.688405" lon="-74.24918">
        <ele>2422.117</ele>
        <time>2021-01-15T14:01:55Z</time>
      </trkpt>
      <trkpt lat="4.6885543" lon="-74.24908">
        <ele>2421.921</ele>
        <time>2021-01-15T14:02:00Z</time>
      </trkpt>
      <trkpt lat="4.688709" lon="-74.24896">
        <ele>2421.813</ele>
        <time>2021-01-15T14:02:05Z</time>
      </trkpt>
      <trkpt lat="4.688893" lon="-74.24885">
        <ele>2421.678</ele>
        <time>2021-01-15T14:02:10Z</time>
      </trkpt>
      <trkpt lat="4.6890855" lon="-74.24874">
        <ele>2422.112</ele>
        <time>2021-01-15T14:02:15Z</time>
      </trkpt>
      <trkpt lat="4.6892858" lon="-74.24865">
        <ele>2422.024</ele>
        <time>2021-01-15T14:02:20Z</time>
      </trkpt>
      <trkpt lat="4.689501" lon="-74.24855">
        <ele>2422.492</ele>
        <time>2021-01-15T14:02:25Z</time>
      </trkpt>
      <trkpt lat="4.6897163" lon="-74.24845">
        <ele>2422.217</ele>
        <time>2021-01-15T14:02:30Z</time>
      </trkpt>
      <trkpt lat="4.689976" lon="-74.24831">
        <ele>2422.463</ele>
        <time>2021-01-15T14:02:36Z</time>
      </trkpt>
      <trkpt lat="4.6901894" lon="-74.24819">
        <ele>2422.817</ele>
        <time>2021-01-15T14:02:41Z</time>
      </trkpt>
      <trkpt lat="4.690386" lon="-74.24805">
        <ele>2421.723</ele>
        <time>2021-01-15T14:02:46Z</time>
      </trkpt>
      <trkpt lat="4.690643" lon="-74.24785">
        <ele>2421.985</ele>
        <time>2021-01-15T14:02:53Z</time>
      </trkpt>
      <trkpt lat="4.69082" lon="-74.24769">
        <ele>2421.483</ele>
        <time>2021-01-15T14:02:58Z</time>
      </trkpt>
      <trkpt lat="4.690998" lon="-74.24752">
        <ele>2421.266</ele>
        <time>2021-01-15T14:03:03Z</time>
      </trkpt>
      <trkpt lat="4.691177" lon="-74.247345">
        <ele>2421.047</ele>
        <time>2021-01-15T14:03:08Z</time>
      </trkpt>
      <trkpt lat="4.6913643" lon="-74.24717">
        <ele>2421.274</ele>
        <time>2021-01-15T14:03:13Z</time>
      </trkpt>
      <trkpt lat="4.6915507" lon="-74.246994">
        <ele>2420.917</ele>
        <time>2021-01-15T14:03:18Z</time>
      </trkpt>
      <trkpt lat="4.6917334" lon="-74.24681">
        <ele>2421.131</ele>
        <time>2021-01-15T14:03:23Z</time>
      </trkpt>
      <trkpt lat="4.691919" lon="-74.24664">
        <ele>2421.38</ele>
        <time>2021-01-15T14:03:28Z</time>
      </trkpt>
      <trkpt lat="4.6920977" lon="-74.246475">
        <ele>2421.295</ele>
        <time>2021-01-15T14:03:33Z</time>
      </trkpt>
      <trkpt lat="4.692273" lon="-74.24631">
        <ele>2421.641</ele>
        <time>2021-01-15T14:03:38Z</time>
      </trkpt>
      <trkpt lat="4.6924844" lon="-74.24611">
        <ele>2421.538</ele>
        <time>2021-01-15T14:03:43Z</time>
      </trkpt>
      <trkpt lat="4.6927643" lon="-74.24585">
        <ele>2421.993</ele>
        <time>2021-01-15T14:03:51Z</time>
      </trkpt>
      <trkpt lat="4.692967" lon="-74.24564">
        <ele>2421.811</ele>
        <time>2021-01-15T14:03:57Z</time>
      </trkpt>
      <trkpt lat="4.6931796" lon="-74.24544">
        <ele>2422.183</ele>
        <time>2021-01-15T14:04:03Z</time>
      </trkpt>
      <trkpt lat="4.6933603" lon="-74.24526">
        <ele>2422.199</ele>
        <time>2021-01-15T14:04:08Z</time>
      </trkpt>
      <trkpt lat="4.6935205" lon="-74.245094">
        <ele>2421.945</ele>
        <time>2021-01-15T14:04:13Z</time>
      </trkpt>
      <trkpt lat="4.6936345" lon="-74.24497">
        <ele>2421.845</ele>
        <time>2021-01-15T14:04:18Z</time>
      </trkpt>
      <trkpt lat="4.693977" lon="-74.24472">
        <ele>2423.824</ele>
        <time>2021-01-15T14:07:33Z</time>
      </trkpt>
      <trkpt lat="4.6941056" lon="-74.2446">
        <ele>2422.527</ele>
        <time>2021-01-15T14:07:38Z</time>
      </trkpt>
      <trkpt lat="4.6942515" lon="-74.244446">
        <ele>2421.937</ele>
        <time>2021-01-15T14:07:43Z</time>
      </trkpt>
      <trkpt lat="4.6944256" lon="-74.244286">
        <ele>2421.565</ele>
        <time>2021-01-15T14:07:48Z</time>
      </trkpt>
      <trkpt lat="4.6946" lon="-74.24411">
        <ele>2421.171</ele>
        <time>2021-01-15T14:07:53Z</time>
      </trkpt>
      <trkpt lat="4.694786" lon="-74.243935">
        <ele>2420.867</ele>
        <time>2021-01-15T14:07:58Z</time>
      </trkpt>
      <trkpt lat="4.694976" lon="-74.243744">
        <ele>2420.244</ele>
        <time>2021-01-15T14:08:03Z</time>
      </trkpt>
      <trkpt lat="4.6951637" lon="-74.243546">
        <ele>2419.736</ele>
        <time>2021-01-15T14:08:08Z</time>
      </trkpt>
      <trkpt lat="4.695348" lon="-74.243355">
        <ele>2419.377</ele>
        <time>2021-01-15T14:08:13Z</time>
      </trkpt>
      <trkpt lat="4.6955338" lon="-74.24315">
        <ele>2418.909</ele>
        <time>2021-01-15T14:08:18Z</time>
      </trkpt>
      <trkpt lat="4.695703" lon="-74.24295">
        <ele>2419.369</ele>
        <time>2021-01-15T14:08:23Z</time>
      </trkpt>
      <trkpt lat="4.695846" lon="-74.242775">
        <ele>2419.266</ele>
        <time>2021-01-15T14:08:28Z</time>
      </trkpt>
      <trkpt lat="4.6959987" lon="-74.2426">
        <ele>2418.999</ele>
        <time>2021-01-15T14:08:33Z</time>
      </trkpt>
      <trkpt lat="4.6961346" lon="-74.24243">
        <ele>2418.629</ele>
        <time>2021-01-15T14:08:38Z</time>
      </trkpt>
      <trkpt lat="4.6962457" lon="-74.24229">
        <ele>2418.735</ele>
        <time>2021-01-15T14:08:43Z</time>
      </trkpt>
      <trkpt lat="4.6963577" lon="-74.24214">
        <ele>2418.978</ele>
        <time>2021-01-15T14:08:48Z</time>
      </trkpt>
      <trkpt lat="4.6965594" lon="-74.24188">
        <ele>2419.023</ele>
        <time>2021-01-15T14:08:56Z</time>
      </trkpt>
      <trkpt lat="4.696686" lon="-74.24172">
        <ele>2419.575</ele>
        <time>2021-01-15T14:09:01Z</time>
      </trkpt>
      <trkpt lat="4.696819" lon="-74.24156">
        <ele>2419.335</ele>
        <time>2021-01-15T14:09:06Z</time>
      </trkpt>
      <trkpt lat="4.6969543" lon="-74.24139">
        <ele>2419.506</ele>
        <time>2021-01-15T14:09:11Z</time>
      </trkpt>
      <trkpt lat="4.697095" lon="-74.24122">
        <ele>2419.329</ele>
        <time>2021-01-15T14:09:16Z</time>
      </trkpt>
      <trkpt lat="4.697233" lon="-74.24104">
        <ele>2419.525</ele>
        <time>2021-01-15T14:09:21Z</time>
      </trkpt>
      <trkpt lat="4.6973763" lon="-74.24086">
        <ele>2419.535</ele>
        <time>2021-01-15T14:09:26Z</time>
      </trkpt>
      <trkpt lat="4.6975174" lon="-74.24068">
        <ele>2420.418</ele>
        <time>2021-01-15T14:09:31Z</time>
      </trkpt>
      <trkpt lat="4.697656" lon="-74.2405">
        <ele>2420.336</ele>
        <time>2021-01-15T14:09:36Z</time>
      </trkpt>
      <trkpt lat="4.6977983" lon="-74.24031">
        <ele>2420.508</ele>
        <time>2021-01-15T14:09:41Z</time>
      </trkpt>
      <trkpt lat="4.697935" lon="-74.24012">
        <ele>2420.421</ele>
        <time>2021-01-15T14:09:46Z</time>
      </trkpt>
      <trkpt lat="4.6980867" lon="-74.23994">
        <ele>2419.884</ele>
        <time>2021-01-15T14:09:51Z</time>
      </trkpt>
      <trkpt lat="4.698244" lon="-74.23974">
        <ele>2420.188</ele>
        <time>2021-01-15T14:09:56Z</time>
      </trkpt>
      <trkpt lat="4.698406" lon="-74.23954">
        <ele>2420.323</ele>
        <time>2021-01-15T14:10:01Z</time>
      </trkpt>
      <trkpt lat="4.698568" lon="-74.239334">
        <ele>2420.487</ele>
        <time>2021-01-15T14:10:06Z</time>
      </trkpt>
      <trkpt lat="4.698818" lon="-74.239006">
        <ele>2421.766</ele>
        <time>2021-01-15T14:10:14Z</time>
      </trkpt>
      <trkpt lat="4.6989756" lon="-74.2388">
        <ele>2421.263</ele>
        <time>2021-01-15T14:10:19Z</time>
      </trkpt>
      <trkpt lat="4.699129" lon="-74.23861">
        <ele>2420.994</ele>
        <time>2021-01-15T14:10:24Z</time>
      </trkpt>
      <trkpt lat="4.699289" lon="-74.23841">
        <ele>2421.079</ele>
        <time>2021-01-15T14:10:29Z</time>
      </trkpt>
      <trkpt lat="4.6994433" lon="-74.23822">
        <ele>2421.372</ele>
        <time>2021-01-15T14:10:34Z</time>
      </trkpt>
      <trkpt lat="4.6996007" lon="-74.23803">
        <ele>2420.553</ele>
        <time>2021-01-15T14:10:39Z</time>
      </trkpt>
      <trkpt lat="4.6997404" lon="-74.23785">
        <ele>2420.188</ele>
        <time>2021-01-15T14:10:44Z</time>
      </trkpt>
      <trkpt lat="4.6998696" lon="-74.237686">
        <ele>2420.162</ele>
        <time>2021-01-15T14:10:49Z</time>
      </trkpt>
      <trkpt lat="4.6999836" lon="-74.23753">
        <ele>2420.307</ele>
        <time>2021-01-15T14:10:54Z</time>
      </trkpt>
      <trkpt lat="4.7000737" lon="-74.23738">
        <ele>2419.871</ele>
        <time>2021-01-15T14:10:59Z</time>
      </trkpt>
      <trkpt lat="4.700142" lon="-74.237305">
        <ele>2419.311</ele>
        <time>2021-01-15T14:11:08Z</time>
      </trkpt>
      <trkpt lat="4.6998405" lon="-74.237274">
        <ele>2419.076</ele>
        <time>2021-01-15T14:13:49Z</time>
      </trkpt>
      <trkpt lat="4.699668" lon="-74.23727">
        <ele>2419.528</ele>
        <time>2021-01-15T14:13:54Z</time>
      </trkpt>
      <trkpt lat="4.699482" lon="-74.23724">
        <ele>2418.109</ele>
        <time>2021-01-15T14:13:59Z</time>
      </trkpt>
      <trkpt lat="4.699401" lon="-74.2371">
        <ele>2418.024</ele>
        <time>2021-01-15T14:14:04Z</time>
      </trkpt>
      <trkpt lat="4.6993437" lon="-74.236916">
        <ele>2418.159</ele>
        <time>2021-01-15T14:14:09Z</time>
      </trkpt>
      <trkpt lat="4.6992445" lon="-74.23673">
        <ele>2418.183</ele>
        <time>2021-01-15T14:14:14Z</time>
      </trkpt>
      <trkpt lat="4.699118" lon="-74.23659">
        <ele>2418.09</ele>
        <time>2021-01-15T14:14:19Z</time>
      </trkpt>
      <trkpt lat="4.6990113" lon="-74.23644">
        <ele>2418.246</ele>
        <time>2021-01-15T14:14:24Z</time>
      </trkpt>
      <trkpt lat="4.6989255" lon="-74.2363">
        <ele>2417.953</ele>
        <time>2021-01-15T14:14:29Z</time>
      </trkpt>
      <trkpt lat="4.6988688" lon="-74.23619">
        <ele>2418.072</ele>
        <time>2021-01-15T14:14:34Z</time>
      </trkpt>
      <trkpt lat="4.6988177" lon="-74.23611">
        <ele>2418.302</ele>
        <time>2021-01-15T14:14:39Z</time>
      </trkpt>
      <trkpt lat="4.698774" lon="-74.23602">
        <ele>2418.117</ele>
        <time>2021-01-15T14:14:44Z</time>
      </trkpt>
      <trkpt lat="4.6987357" lon="-74.235954">
        <ele>2418.413</ele>
        <time>2021-01-15T14:14:49Z</time>
      </trkpt>
      <trkpt lat="4.6986876" lon="-74.23587">
        <ele>2418.138</ele>
        <time>2021-01-15T14:14:54Z</time>
      </trkpt>
      <trkpt lat="4.698644" lon="-74.23579">
        <ele>2418.119</ele>
        <time>2021-01-15T14:14:59Z</time>
      </trkpt>
      <trkpt lat="4.698599" lon="-74.2357">
        <ele>2418.164</ele>
        <time>2021-01-15T14:15:04Z</time>
      </trkpt>
      <trkpt lat="4.698558" lon="-74.23564">
        <ele>2418.003</ele>
        <time>2021-01-15T14:15:09Z</time>
      </trkpt>
      <trkpt lat="4.6984944" lon="-74.23557">
        <ele>2418.743</ele>
        <time>2021-01-15T14:15:14Z</time>
      </trkpt>
      <trkpt lat="4.698439" lon="-74.23548">
        <ele>2417.881</ele>
        <time>2021-01-15T14:15:20Z</time>
      </trkpt>
      <trkpt lat="4.6984563" lon="-74.23543">
        <ele>2418.439</ele>
        <time>2021-01-15T14:15:25Z</time>
      </trkpt>
      <trkpt lat="4.698506" lon="-74.23539">
        <ele>2417.844</ele>
        <time>2021-01-15T14:15:30Z</time>
      </trkpt>
      <trkpt lat="4.6985636" lon="-74.235344">
        <ele>2418.518</ele>
        <time>2021-01-15T14:15:35Z</time>
      </trkpt>
      <trkpt lat="4.698657" lon="-74.23528">
        <ele>2417.969</ele>
        <time>2021-01-15T14:15:45Z</time>
      </trkpt>
      <trkpt lat="4.6987066" lon="-74.23524">
        <ele>2418.463</ele>
        <time>2021-01-15T14:15:50Z</time>
      </trkpt>
      <trkpt lat="4.698757" lon="-74.23518">
        <ele>2418.373</ele>
        <time>2021-01-15T14:15:55Z</time>
      </trkpt>
      <trkpt lat="4.6988153" lon="-74.23514">
        <ele>2417.955</ele>
        <time>2021-01-15T14:16:00Z</time>
      </trkpt>
      <trkpt lat="4.6988754" lon="-74.235085">
        <ele>2418.177</ele>
        <time>2021-01-15T14:16:05Z</time>
      </trkpt>
      <trkpt lat="4.6989317" lon="-74.23503">
        <ele>2418.307</ele>
        <time>2021-01-15T14:16:10Z</time>
      </trkpt>
      <trkpt lat="4.698996" lon="-74.23498">
        <ele>2417.538</ele>
        <time>2021-01-15T14:16:15Z</time>
      </trkpt>
      <trkpt lat="4.699059" lon="-74.23493">
        <ele>2418.336</ele>
        <time>2021-01-15T14:16:20Z</time>
      </trkpt>
      <trkpt lat="4.6991186" lon="-74.234886">
        <ele>2418.315</ele>
        <time>2021-01-15T14:16:25Z</time>
      </trkpt>
      <trkpt lat="4.699159" lon="-74.23484">
        <ele>2418.169</ele>
        <time>2021-01-15T14:16:30Z</time>
      </trkpt>
      <trkpt lat="4.699185" lon="-74.234795">
        <ele>2418.407</ele>
        <time>2021-01-15T14:16:35Z</time>
      </trkpt>
      <trkpt lat="4.699406" lon="-74.23386">
        <ele>2419.081</ele>
        <time>2021-01-15T14:18:03Z</time>
      </trkpt>
      <trkpt lat="4.699129" lon="-74.23398">
        <ele>2418.154</ele>
        <time>2021-01-15T14:18:11Z</time>
      </trkpt>
      <trkpt lat="4.6991725" lon="-74.23401">
        <ele>2418.101</ele>
        <time>2021-01-15T14:20:10Z</time>
      </trkpt>
      <trkpt lat="4.6989603" lon="-74.23406">
        <ele>2559.5945</ele>
        <time>2021-01-15T14:23:46Z</time>
      </trkpt>
      <trkpt lat="4.6988792" lon="-74.23411">
        <ele>2559.4602</ele>
        <time>2021-01-15T14:23:54Z</time>
      </trkpt>
      <trkpt lat="4.6988792" lon="-74.23411">
        <ele>2559.949</ele>
        <time>2021-01-15T14:24:04Z</time>
      </trkpt>
    </trkseg>
  </trk>
</gpx>
